<?xml version="1.0" encoding="UTF-8" standalone="no" ?>
<gpx xmlns="http://www.topografix.com/GPX/1/1" xmlns:xsi="http://www.w3.org/2001/XMLSchema-instance" xsi:schemaLocation="http://www.topografix.com/GPX/1/1 http://www.topografix.com/GPX/1/1/gpx.xsd" version="1.1" creator="VisuGPX - https://www.visugpx.com">
  <metadata>
    <name>Saint Paul de Tartas 23km</name>
    <desc><![CDATA[fait le  15/06/2025]]></desc>
  </metadata>
  <wpt lat="44.80841" lon="3.95297">
    <ele>1079.7</ele>
    <name><![CDATA[chemin délicat]]></name>
    <desc><![CDATA[chemin encombrer d'arbres , les contourner est parfois compliqué, si bien qu'une fois sur la piste on a préféré la  continuer d'ou on reviens sur nos pas.]]></desc>
    <type><![CDATA[alarm]]></type>
    <extensions>
      <visugpx:TrackPointExtension xmlns:visugpx="https://www.visugpx.com/editgpx/">
        <visugpx:dec>0,0</visugpx:dec>
      </visugpx:TrackPointExtension>
    </extensions>
  </wpt>
  <wpt lat="44.80927" lon="3.94211">
    <ele>990.6</ele>
    <desc><![CDATA[le chemin se perd]]></desc>
    <type><![CDATA[alarm]]></type>
    <extensions>
      <visugpx:TrackPointExtension xmlns:visugpx="https://www.visugpx.com/editgpx/">
        <visugpx:dec>0,0</visugpx:dec>
      </visugpx:TrackPointExtension>
    </extensions>
  </wpt>
  <wpt lat="44.81293" lon="3.95023">
    <ele>1014.7</ele>
    <desc><![CDATA[route etroite en descente sinueuse a flanc de précipice .]]></desc>
    <type><![CDATA[danger]]></type>
    <extensions>
      <visugpx:TrackPointExtension xmlns:visugpx="https://www.visugpx.com/editgpx/">
        <visugpx:dec>0,0</visugpx:dec>
      </visugpx:TrackPointExtension>
    </extensions>
  </wpt>
  <trk>
    <name><![CDATA[2025-06-22 18:25:49]]></name>
    <extensions>
      <line xmlns="http://www.topografix.com/GPX/gpx_style/0/2">
        <color>0000FF</color>
        <width>4</width>
      </line>
    </extensions>
    <trkseg>
      <trkpt lat="44.80237" lon="3.91026">
        <ele>1252.74</ele>
        <time>2025-06-22T08:30:26Z</time>
      </trkpt>
      <trkpt lat="44.80244" lon="3.91055">
        <ele>1213.8</ele>
        <time>2025-06-22T08:30:43Z</time>
      </trkpt>
      <trkpt lat="44.80245" lon="3.91057">
        <ele>1211.4</ele>
        <time>2025-06-22T08:31:01Z</time>
      </trkpt>
      <trkpt lat="44.80245" lon="3.91055">
        <ele>1211.88</ele>
        <time>2025-06-22T08:31:25Z</time>
      </trkpt>
      <trkpt lat="44.80246" lon="3.91056">
        <ele>1209.96</ele>
        <time>2025-06-22T08:31:44Z</time>
      </trkpt>
      <trkpt lat="44.80244" lon="3.91051">
        <ele>1211.4</ele>
        <time>2025-06-22T08:32:14Z</time>
      </trkpt>
      <trkpt lat="44.80243" lon="3.91046">
        <ele>1211.4</ele>
        <time>2025-06-22T08:32:39Z</time>
      </trkpt>
      <trkpt lat="44.80241" lon="3.91049">
        <ele>1209.96</ele>
        <time>2025-06-22T08:32:58Z</time>
      </trkpt>
      <trkpt lat="44.80242" lon="3.91049">
        <ele>1208.03</ele>
        <time>2025-06-22T08:33:28Z</time>
      </trkpt>
      <trkpt lat="44.8024" lon="3.91052">
        <ele>1207.55</ele>
        <time>2025-06-22T08:34:00Z</time>
      </trkpt>
      <trkpt lat="44.8025" lon="3.91055">
        <ele>1197.94</ele>
        <time>2025-06-22T08:34:23Z</time>
      </trkpt>
      <trkpt lat="44.80256" lon="3.91056">
        <ele>1196.98</ele>
        <time>2025-06-22T08:34:29Z</time>
      </trkpt>
      <trkpt lat="44.80279" lon="3.91055">
        <ele>1195.54</ele>
        <time>2025-06-22T08:34:50Z</time>
      </trkpt>
      <trkpt lat="44.80288" lon="3.91053">
        <ele>1194.09</ele>
        <time>2025-06-22T08:35:07Z</time>
      </trkpt>
      <trkpt lat="44.80283" lon="3.91054">
        <ele>1194.09</ele>
        <time>2025-06-22T08:35:14Z</time>
      </trkpt>
      <trkpt lat="44.8027" lon="3.91059">
        <ele>1194.58</ele>
        <time>2025-06-22T08:35:28Z</time>
      </trkpt>
      <trkpt lat="44.80263" lon="3.91056">
        <ele>1194.09</ele>
        <time>2025-06-22T08:35:43Z</time>
      </trkpt>
      <trkpt lat="44.80253" lon="3.91031">
        <ele>1195.06</ele>
        <time>2025-06-22T08:36:01Z</time>
      </trkpt>
      <trkpt lat="44.80245" lon="3.91003">
        <ele>1192.17</ele>
        <time>2025-06-22T08:36:22Z</time>
      </trkpt>
      <trkpt lat="44.8024" lon="3.90973">
        <ele>1191.21</ele>
        <time>2025-06-22T08:36:40Z</time>
      </trkpt>
      <trkpt lat="44.80242" lon="3.90969">
        <ele>1190.25</ele>
        <time>2025-06-22T08:36:43Z</time>
      </trkpt>
      <trkpt lat="44.80245" lon="3.90965">
        <ele>1188.81</ele>
        <time>2025-06-22T08:36:47Z</time>
      </trkpt>
      <trkpt lat="44.80263" lon="3.90942">
        <ele>1186.4</ele>
        <time>2025-06-22T08:37:07Z</time>
      </trkpt>
      <trkpt lat="44.80274" lon="3.90927">
        <ele>1185.92</ele>
        <time>2025-06-22T08:37:20Z</time>
      </trkpt>
      <trkpt lat="44.80278" lon="3.90921">
        <ele>1184.48</ele>
        <time>2025-06-22T08:37:25Z</time>
      </trkpt>
      <trkpt lat="44.80279" lon="3.90914">
        <ele>1184</ele>
        <time>2025-06-22T08:37:30Z</time>
      </trkpt>
      <trkpt lat="44.80278" lon="3.90905">
        <ele>1183.52</ele>
        <time>2025-06-22T08:37:46Z</time>
      </trkpt>
      <trkpt lat="44.80276" lon="3.90889">
        <ele>1184</ele>
        <time>2025-06-22T08:37:59Z</time>
      </trkpt>
      <trkpt lat="44.80275" lon="3.90878">
        <ele>1184</ele>
        <time>2025-06-22T08:38:12Z</time>
      </trkpt>
      <trkpt lat="44.80278" lon="3.90876">
        <ele>1184</ele>
        <time>2025-06-22T08:38:26Z</time>
      </trkpt>
      <trkpt lat="44.8028" lon="3.90875">
        <ele>1186.4</ele>
        <time>2025-06-22T08:38:44Z</time>
      </trkpt>
      <trkpt lat="44.80282" lon="3.90872">
        <ele>1185.92</ele>
        <time>2025-06-22T08:38:57Z</time>
      </trkpt>
      <trkpt lat="44.80285" lon="3.90865">
        <ele>1185.92</ele>
        <time>2025-06-22T08:39:10Z</time>
      </trkpt>
      <trkpt lat="44.80277" lon="3.90841">
        <ele>1185.44</ele>
        <time>2025-06-22T08:39:29Z</time>
      </trkpt>
      <trkpt lat="44.80277" lon="3.9084">
        <ele>1185.44</ele>
        <time>2025-06-22T08:39:31Z</time>
      </trkpt>
      <trkpt lat="44.80289" lon="3.90814">
        <ele>1186.88</ele>
        <time>2025-06-22T08:39:49Z</time>
      </trkpt>
      <trkpt lat="44.80301" lon="3.90786">
        <ele>1186.88</ele>
        <time>2025-06-22T08:40:08Z</time>
      </trkpt>
      <trkpt lat="44.80324" lon="3.90762">
        <ele>1187.37</ele>
        <time>2025-06-22T08:40:28Z</time>
      </trkpt>
      <trkpt lat="44.80334" lon="3.90747">
        <ele>1187.37</ele>
        <time>2025-06-22T08:40:41Z</time>
      </trkpt>
      <trkpt lat="44.80344" lon="3.90732">
        <ele>1187.37</ele>
        <time>2025-06-22T08:40:55Z</time>
      </trkpt>
      <trkpt lat="44.80349" lon="3.90728">
        <ele>1188.33</ele>
        <time>2025-06-22T08:41:00Z</time>
      </trkpt>
      <trkpt lat="44.80349" lon="3.90724">
        <ele>1188.33</ele>
        <time>2025-06-22T08:41:02Z</time>
      </trkpt>
      <trkpt lat="44.8034" lon="3.90708">
        <ele>1188.33</ele>
        <time>2025-06-22T08:41:19Z</time>
      </trkpt>
      <trkpt lat="44.80345" lon="3.90713">
        <ele>1189.29</ele>
        <time>2025-06-22T08:41:41Z</time>
      </trkpt>
      <trkpt lat="44.80352" lon="3.90717">
        <ele>1189.77</ele>
        <time>2025-06-22T08:41:55Z</time>
      </trkpt>
      <trkpt lat="44.80349" lon="3.9072">
        <ele>1192.17</ele>
        <time>2025-06-22T08:42:10Z</time>
      </trkpt>
      <trkpt lat="44.80349" lon="3.90717">
        <ele>1196.02</ele>
        <time>2025-06-22T08:42:30Z</time>
      </trkpt>
      <trkpt lat="44.80347" lon="3.90715">
        <ele>1201.3</ele>
        <time>2025-06-22T08:42:52Z</time>
      </trkpt>
      <trkpt lat="44.80348" lon="3.90713">
        <ele>1205.63</ele>
        <time>2025-06-22T08:43:09Z</time>
      </trkpt>
      <trkpt lat="44.80357" lon="3.9071">
        <ele>1205.63</ele>
        <time>2025-06-22T08:43:28Z</time>
      </trkpt>
      <trkpt lat="44.80368" lon="3.90701">
        <ele>1202.75</ele>
        <time>2025-06-22T08:43:39Z</time>
      </trkpt>
      <trkpt lat="44.80375" lon="3.90693">
        <ele>1202.27</ele>
        <time>2025-06-22T08:43:54Z</time>
      </trkpt>
      <trkpt lat="44.80383" lon="3.907">
        <ele>1203.71</ele>
        <time>2025-06-22T08:44:01Z</time>
      </trkpt>
      <trkpt lat="44.80399" lon="3.90691">
        <ele>1199.38</ele>
        <time>2025-06-22T08:44:13Z</time>
      </trkpt>
      <trkpt lat="44.80398" lon="3.90674">
        <ele>1202.27</ele>
        <time>2025-06-22T08:44:22Z</time>
      </trkpt>
      <trkpt lat="44.80402" lon="3.90651">
        <ele>1207.55</ele>
        <time>2025-06-22T08:44:35Z</time>
      </trkpt>
      <trkpt lat="44.80404" lon="3.90641">
        <ele>1206.59</ele>
        <time>2025-06-22T08:44:42Z</time>
      </trkpt>
      <trkpt lat="44.804" lon="3.90629">
        <ele>1206.59</ele>
        <time>2025-06-22T08:44:51Z</time>
      </trkpt>
      <trkpt lat="44.80403" lon="3.90619">
        <ele>1205.15</ele>
        <time>2025-06-22T08:45:05Z</time>
      </trkpt>
      <trkpt lat="44.80401" lon="3.90615">
        <ele>1203.71</ele>
        <time>2025-06-22T08:45:34Z</time>
      </trkpt>
      <trkpt lat="44.804" lon="3.90615">
        <ele>1203.71</ele>
        <time>2025-06-22T08:45:35Z</time>
      </trkpt>
      <trkpt lat="44.80399" lon="3.90613">
        <ele>1203.23</ele>
        <time>2025-06-22T08:45:37Z</time>
      </trkpt>
      <trkpt lat="44.80392" lon="3.90587">
        <ele>1206.11</ele>
        <time>2025-06-22T08:45:55Z</time>
      </trkpt>
      <trkpt lat="44.80385" lon="3.9056">
        <ele>1209.48</ele>
        <time>2025-06-22T08:46:10Z</time>
      </trkpt>
      <trkpt lat="44.80386" lon="3.90531">
        <ele>1214.28</ele>
        <time>2025-06-22T08:46:25Z</time>
      </trkpt>
      <trkpt lat="44.80386" lon="3.90511">
        <ele>1215.24</ele>
        <time>2025-06-22T08:46:40Z</time>
      </trkpt>
      <trkpt lat="44.8039" lon="3.90501">
        <ele>1211.88</ele>
        <time>2025-06-22T08:46:59Z</time>
      </trkpt>
      <trkpt lat="44.80387" lon="3.90471">
        <ele>1208.03</ele>
        <time>2025-06-22T08:47:18Z</time>
      </trkpt>
      <trkpt lat="44.80381" lon="3.90447">
        <ele>1203.71</ele>
        <time>2025-06-22T08:47:34Z</time>
      </trkpt>
      <trkpt lat="44.80374" lon="3.90421">
        <ele>1198.42</ele>
        <time>2025-06-22T08:47:49Z</time>
      </trkpt>
      <trkpt lat="44.80368" lon="3.90395">
        <ele>1192.17</ele>
        <time>2025-06-22T08:48:04Z</time>
      </trkpt>
      <trkpt lat="44.80366" lon="3.90363">
        <ele>1189.29</ele>
        <time>2025-06-22T08:48:21Z</time>
      </trkpt>
      <trkpt lat="44.80368" lon="3.90338">
        <ele>1186.88</ele>
        <time>2025-06-22T08:48:34Z</time>
      </trkpt>
      <trkpt lat="44.80367" lon="3.90304">
        <ele>1191.69</ele>
        <time>2025-06-22T08:48:50Z</time>
      </trkpt>
      <trkpt lat="44.80368" lon="3.90273">
        <ele>1196.02</ele>
        <time>2025-06-22T08:49:06Z</time>
      </trkpt>
      <trkpt lat="44.80373" lon="3.90241">
        <ele>1198.42</ele>
        <time>2025-06-22T08:49:21Z</time>
      </trkpt>
      <trkpt lat="44.80374" lon="3.90209">
        <ele>1197.94</ele>
        <time>2025-06-22T08:49:37Z</time>
      </trkpt>
      <trkpt lat="44.80375" lon="3.90178">
        <ele>1196.02</ele>
        <time>2025-06-22T08:49:53Z</time>
      </trkpt>
      <trkpt lat="44.80375" lon="3.90144">
        <ele>1196.02</ele>
        <time>2025-06-22T08:50:11Z</time>
      </trkpt>
      <trkpt lat="44.80377" lon="3.90126">
        <ele>1197.46</ele>
        <time>2025-06-22T08:50:27Z</time>
      </trkpt>
      <trkpt lat="44.80377" lon="3.90112">
        <ele>1196.98</ele>
        <time>2025-06-22T08:50:38Z</time>
      </trkpt>
      <trkpt lat="44.80371" lon="3.90076">
        <ele>1196.5</ele>
        <time>2025-06-22T08:50:56Z</time>
      </trkpt>
      <trkpt lat="44.80366" lon="3.90048">
        <ele>1201.79</ele>
        <time>2025-06-22T08:51:12Z</time>
      </trkpt>
      <trkpt lat="44.80362" lon="3.90016">
        <ele>1203.23</ele>
        <time>2025-06-22T08:51:29Z</time>
      </trkpt>
      <trkpt lat="44.80366" lon="3.89983">
        <ele>1205.63</ele>
        <time>2025-06-22T08:51:46Z</time>
      </trkpt>
      <trkpt lat="44.80383" lon="3.89967">
        <ele>1207.07</ele>
        <time>2025-06-22T08:51:59Z</time>
      </trkpt>
      <trkpt lat="44.80404" lon="3.89981">
        <ele>1208.51</ele>
        <time>2025-06-22T08:52:17Z</time>
      </trkpt>
      <trkpt lat="44.8043" lon="3.89989">
        <ele>1210.44</ele>
        <time>2025-06-22T08:52:33Z</time>
      </trkpt>
      <trkpt lat="44.80453" lon="3.89994">
        <ele>1210.92</ele>
        <time>2025-06-22T08:52:51Z</time>
      </trkpt>
      <trkpt lat="44.80478" lon="3.9">
        <ele>1214.28</ele>
        <time>2025-06-22T08:53:09Z</time>
      </trkpt>
      <trkpt lat="44.80498" lon="3.90006">
        <ele>1216.69</ele>
        <time>2025-06-22T08:53:26Z</time>
      </trkpt>
      <trkpt lat="44.8052" lon="3.9001">
        <ele>1217.65</ele>
        <time>2025-06-22T08:53:43Z</time>
      </trkpt>
      <trkpt lat="44.80543" lon="3.90014">
        <ele>1219.57</ele>
        <time>2025-06-22T08:54:00Z</time>
      </trkpt>
      <trkpt lat="44.80572" lon="3.9002">
        <ele>1221.01</ele>
        <time>2025-06-22T08:54:20Z</time>
      </trkpt>
      <trkpt lat="44.80593" lon="3.90016">
        <ele>1221.97</ele>
        <time>2025-06-22T08:54:37Z</time>
      </trkpt>
      <trkpt lat="44.80612" lon="3.90003">
        <ele>1223.9</ele>
        <time>2025-06-22T08:54:54Z</time>
      </trkpt>
      <trkpt lat="44.80619" lon="3.89977">
        <ele>1226.3</ele>
        <time>2025-06-22T08:55:10Z</time>
      </trkpt>
      <trkpt lat="44.80628" lon="3.8995">
        <ele>1227.26</ele>
        <time>2025-06-22T08:55:27Z</time>
      </trkpt>
      <trkpt lat="44.80642" lon="3.89926">
        <ele>1227.74</ele>
        <time>2025-06-22T08:55:43Z</time>
      </trkpt>
      <trkpt lat="44.80659" lon="3.899">
        <ele>1226.3</ele>
        <time>2025-06-22T08:56:01Z</time>
      </trkpt>
      <trkpt lat="44.80676" lon="3.89874">
        <ele>1226.3</ele>
        <time>2025-06-22T08:56:20Z</time>
      </trkpt>
      <trkpt lat="44.80693" lon="3.89845">
        <ele>1226.78</ele>
        <time>2025-06-22T08:56:37Z</time>
      </trkpt>
      <trkpt lat="44.80711" lon="3.89815">
        <ele>1229.18</ele>
        <time>2025-06-22T08:56:57Z</time>
      </trkpt>
      <trkpt lat="44.80727" lon="3.89791">
        <ele>1229.66</ele>
        <time>2025-06-22T08:57:15Z</time>
      </trkpt>
      <trkpt lat="44.80743" lon="3.89769">
        <ele>1230.62</ele>
        <time>2025-06-22T08:57:32Z</time>
      </trkpt>
      <trkpt lat="44.80767" lon="3.8975">
        <ele>1231.11</ele>
        <time>2025-06-22T08:57:52Z</time>
      </trkpt>
      <trkpt lat="44.80791" lon="3.89734">
        <ele>1229.66</ele>
        <time>2025-06-22T08:58:11Z</time>
      </trkpt>
      <trkpt lat="44.80815" lon="3.8971">
        <ele>1229.66</ele>
        <time>2025-06-22T08:58:31Z</time>
      </trkpt>
      <trkpt lat="44.80836" lon="3.89689">
        <ele>1229.66</ele>
        <time>2025-06-22T08:58:49Z</time>
      </trkpt>
      <trkpt lat="44.80859" lon="3.89667">
        <ele>1230.14</ele>
        <time>2025-06-22T08:59:08Z</time>
      </trkpt>
      <trkpt lat="44.8088" lon="3.8965">
        <ele>1230.14</ele>
        <time>2025-06-22T08:59:25Z</time>
      </trkpt>
      <trkpt lat="44.80902" lon="3.89637">
        <ele>1228.7</ele>
        <time>2025-06-22T08:59:43Z</time>
      </trkpt>
      <trkpt lat="44.8092" lon="3.89634">
        <ele>1230.62</ele>
        <time>2025-06-22T08:59:58Z</time>
      </trkpt>
      <trkpt lat="44.80929" lon="3.8964">
        <ele>1232.55</ele>
        <time>2025-06-22T09:00:05Z</time>
      </trkpt>
      <trkpt lat="44.8093" lon="3.8964">
        <ele>1233.03</ele>
        <time>2025-06-22T09:00:06Z</time>
      </trkpt>
      <trkpt lat="44.80932" lon="3.8964">
        <ele>1233.51</ele>
        <time>2025-06-22T09:00:07Z</time>
      </trkpt>
      <trkpt lat="44.80933" lon="3.8964">
        <ele>1233.51</ele>
        <time>2025-06-22T09:00:08Z</time>
      </trkpt>
      <trkpt lat="44.80935" lon="3.8964">
        <ele>1233.99</ele>
        <time>2025-06-22T09:00:09Z</time>
      </trkpt>
      <trkpt lat="44.80947" lon="3.89651">
        <ele>1238.32</ele>
        <time>2025-06-22T09:00:24Z</time>
      </trkpt>
      <trkpt lat="44.80948" lon="3.89675">
        <ele>1245.04</ele>
        <time>2025-06-22T09:00:39Z</time>
      </trkpt>
      <trkpt lat="44.80948" lon="3.89686">
        <ele>1248.41</ele>
        <time>2025-06-22T09:00:47Z</time>
      </trkpt>
      <trkpt lat="44.80941" lon="3.89717">
        <ele>1257.06</ele>
        <time>2025-06-22T09:01:02Z</time>
      </trkpt>
      <trkpt lat="44.80937" lon="3.89741">
        <ele>1263.31</ele>
        <time>2025-06-22T09:01:18Z</time>
      </trkpt>
      <trkpt lat="44.80939" lon="3.89761">
        <ele>1266.19</ele>
        <time>2025-06-22T09:01:34Z</time>
      </trkpt>
      <trkpt lat="44.80943" lon="3.89776">
        <ele>1269.08</ele>
        <time>2025-06-22T09:01:48Z</time>
      </trkpt>
      <trkpt lat="44.80943" lon="3.89793">
        <ele>1271.96</ele>
        <time>2025-06-22T09:02:00Z</time>
      </trkpt>
      <trkpt lat="44.80943" lon="3.89816">
        <ele>1273.88</ele>
        <time>2025-06-22T09:02:13Z</time>
      </trkpt>
      <trkpt lat="44.80936" lon="3.8985">
        <ele>1280.13</ele>
        <time>2025-06-22T09:02:29Z</time>
      </trkpt>
      <trkpt lat="44.80935" lon="3.89856">
        <ele>1280.13</ele>
        <time>2025-06-22T09:02:32Z</time>
      </trkpt>
      <trkpt lat="44.80929" lon="3.89865">
        <ele>1280.13</ele>
        <time>2025-06-22T09:02:38Z</time>
      </trkpt>
      <trkpt lat="44.80926" lon="3.89869">
        <ele>1280.13</ele>
        <time>2025-06-22T09:02:41Z</time>
      </trkpt>
      <trkpt lat="44.80928" lon="3.89883">
        <ele>1277.25</ele>
        <time>2025-06-22T09:02:50Z</time>
      </trkpt>
      <trkpt lat="44.80929" lon="3.89905">
        <ele>1277.73</ele>
        <time>2025-06-22T09:03:02Z</time>
      </trkpt>
      <trkpt lat="44.8093" lon="3.89909">
        <ele>1277.25</ele>
        <time>2025-06-22T09:03:05Z</time>
      </trkpt>
      <trkpt lat="44.80931" lon="3.89922">
        <ele>1279.65</ele>
        <time>2025-06-22T09:03:13Z</time>
      </trkpt>
      <trkpt lat="44.80929" lon="3.89928">
        <ele>1280.13</ele>
        <time>2025-06-22T09:03:17Z</time>
      </trkpt>
      <trkpt lat="44.8093" lon="3.89944">
        <ele>1280.61</ele>
        <time>2025-06-22T09:03:27Z</time>
      </trkpt>
      <trkpt lat="44.80932" lon="3.89967">
        <ele>1283.5</ele>
        <time>2025-06-22T09:03:40Z</time>
      </trkpt>
      <trkpt lat="44.80932" lon="3.89976">
        <ele>1285.9</ele>
        <time>2025-06-22T09:03:45Z</time>
      </trkpt>
      <trkpt lat="44.80927" lon="3.90003">
        <ele>1290.71</ele>
        <time>2025-06-22T09:03:59Z</time>
      </trkpt>
      <trkpt lat="44.80928" lon="3.90024">
        <ele>1294.07</ele>
        <time>2025-06-22T09:04:13Z</time>
      </trkpt>
      <trkpt lat="44.80935" lon="3.90044">
        <ele>1290.71</ele>
        <time>2025-06-22T09:04:26Z</time>
      </trkpt>
      <trkpt lat="44.80942" lon="3.90063">
        <ele>1287.82</ele>
        <time>2025-06-22T09:04:37Z</time>
      </trkpt>
      <trkpt lat="44.80943" lon="3.90072">
        <ele>1287.34</ele>
        <time>2025-06-22T09:04:43Z</time>
      </trkpt>
      <trkpt lat="44.80945" lon="3.90082">
        <ele>1287.82</ele>
        <time>2025-06-22T09:04:48Z</time>
      </trkpt>
      <trkpt lat="44.8095" lon="3.90092">
        <ele>1288.3</ele>
        <time>2025-06-22T09:04:53Z</time>
      </trkpt>
      <trkpt lat="44.80953" lon="3.90096">
        <ele>1287.82</ele>
        <time>2025-06-22T09:04:55Z</time>
      </trkpt>
      <trkpt lat="44.80965" lon="3.90125">
        <ele>1284.46</ele>
        <time>2025-06-22T09:05:10Z</time>
      </trkpt>
      <trkpt lat="44.80979" lon="3.9015">
        <ele>1281.09</ele>
        <time>2025-06-22T09:05:27Z</time>
      </trkpt>
      <trkpt lat="44.8099" lon="3.90163">
        <ele>1279.17</ele>
        <time>2025-06-22T09:05:42Z</time>
      </trkpt>
      <trkpt lat="44.81001" lon="3.90168">
        <ele>1282.54</ele>
        <time>2025-06-22T09:05:54Z</time>
      </trkpt>
      <trkpt lat="44.81008" lon="3.90171">
        <ele>1285.42</ele>
        <time>2025-06-22T09:05:59Z</time>
      </trkpt>
      <trkpt lat="44.81015" lon="3.90174">
        <ele>1290.23</ele>
        <time>2025-06-22T09:06:07Z</time>
      </trkpt>
      <trkpt lat="44.81027" lon="3.9018">
        <ele>1296.96</ele>
        <time>2025-06-22T09:06:21Z</time>
      </trkpt>
      <trkpt lat="44.81034" lon="3.90187">
        <ele>1300.32</ele>
        <time>2025-06-22T09:06:31Z</time>
      </trkpt>
      <trkpt lat="44.8104" lon="3.9019">
        <ele>1300.8</ele>
        <time>2025-06-22T09:06:37Z</time>
      </trkpt>
      <trkpt lat="44.81051" lon="3.90197">
        <ele>1304.17</ele>
        <time>2025-06-22T09:06:48Z</time>
      </trkpt>
      <trkpt lat="44.81063" lon="3.90202">
        <ele>1301.76</ele>
        <time>2025-06-22T09:06:53Z</time>
      </trkpt>
      <trkpt lat="44.81086" lon="3.90215">
        <ele>1289.27</ele>
        <time>2025-06-22T09:07:02Z</time>
      </trkpt>
      <trkpt lat="44.81103" lon="3.90226">
        <ele>1287.82</ele>
        <time>2025-06-22T09:07:16Z</time>
      </trkpt>
      <trkpt lat="44.81108" lon="3.9023">
        <ele>1287.82</ele>
        <time>2025-06-22T09:07:19Z</time>
      </trkpt>
      <trkpt lat="44.81125" lon="3.90245">
        <ele>1282.54</ele>
        <time>2025-06-22T09:07:33Z</time>
      </trkpt>
      <trkpt lat="44.81137" lon="3.90255">
        <ele>1283.98</ele>
        <time>2025-06-22T09:07:44Z</time>
      </trkpt>
      <trkpt lat="44.81146" lon="3.90264">
        <ele>1284.46</ele>
        <time>2025-06-22T09:07:57Z</time>
      </trkpt>
      <trkpt lat="44.81163" lon="3.90272">
        <ele>1283.98</ele>
        <time>2025-06-22T09:08:09Z</time>
      </trkpt>
      <trkpt lat="44.81181" lon="3.90273">
        <ele>1290.71</ele>
        <time>2025-06-22T09:08:22Z</time>
      </trkpt>
      <trkpt lat="44.81194" lon="3.90278">
        <ele>1291.67</ele>
        <time>2025-06-22T09:08:32Z</time>
      </trkpt>
      <trkpt lat="44.81196" lon="3.90279">
        <ele>1292.15</ele>
        <time>2025-06-22T09:08:34Z</time>
      </trkpt>
      <trkpt lat="44.81213" lon="3.90284">
        <ele>1293.59</ele>
        <time>2025-06-22T09:08:47Z</time>
      </trkpt>
      <trkpt lat="44.81217" lon="3.90286">
        <ele>1295.03</ele>
        <time>2025-06-22T09:08:51Z</time>
      </trkpt>
      <trkpt lat="44.81233" lon="3.90285">
        <ele>1300.32</ele>
        <time>2025-06-22T09:09:05Z</time>
      </trkpt>
      <trkpt lat="44.81249" lon="3.90284">
        <ele>1304.17</ele>
        <time>2025-06-22T09:09:18Z</time>
      </trkpt>
      <trkpt lat="44.81264" lon="3.90282">
        <ele>1308.01</ele>
        <time>2025-06-22T09:09:31Z</time>
      </trkpt>
      <trkpt lat="44.81274" lon="3.90283">
        <ele>1308.97</ele>
        <time>2025-06-22T09:09:41Z</time>
      </trkpt>
      <trkpt lat="44.81287" lon="3.90277">
        <ele>1309.93</ele>
        <time>2025-06-22T09:09:53Z</time>
      </trkpt>
      <trkpt lat="44.81291" lon="3.90275">
        <ele>1311.38</ele>
        <time>2025-06-22T09:09:57Z</time>
      </trkpt>
      <trkpt lat="44.81299" lon="3.90275">
        <ele>1315.22</ele>
        <time>2025-06-22T09:10:08Z</time>
      </trkpt>
      <trkpt lat="44.813" lon="3.90275">
        <ele>1315.7</ele>
        <time>2025-06-22T09:10:09Z</time>
      </trkpt>
      <trkpt lat="44.81315" lon="3.90274">
        <ele>1316.66</ele>
        <time>2025-06-22T09:10:20Z</time>
      </trkpt>
      <trkpt lat="44.81332" lon="3.90274">
        <ele>1313.3</ele>
        <time>2025-06-22T09:10:32Z</time>
      </trkpt>
      <trkpt lat="44.81351" lon="3.90277">
        <ele>1306.57</ele>
        <time>2025-06-22T09:10:45Z</time>
      </trkpt>
      <trkpt lat="44.81368" lon="3.90281">
        <ele>1297.92</ele>
        <time>2025-06-22T09:10:57Z</time>
      </trkpt>
      <trkpt lat="44.81381" lon="3.90287">
        <ele>1294.07</ele>
        <time>2025-06-22T09:11:08Z</time>
      </trkpt>
      <trkpt lat="44.81396" lon="3.90297">
        <ele>1283.02</ele>
        <time>2025-06-22T09:11:16Z</time>
      </trkpt>
      <trkpt lat="44.81401" lon="3.903">
        <ele>1279.65</ele>
        <time>2025-06-22T09:11:18Z</time>
      </trkpt>
      <trkpt lat="44.81414" lon="3.90315">
        <ele>1275.81</ele>
        <time>2025-06-22T09:11:31Z</time>
      </trkpt>
      <trkpt lat="44.81431" lon="3.903">
        <ele>1268.12</ele>
        <time>2025-06-22T09:11:46Z</time>
      </trkpt>
      <trkpt lat="44.81447" lon="3.90286">
        <ele>1261.87</ele>
        <time>2025-06-22T09:12:01Z</time>
      </trkpt>
      <trkpt lat="44.81454" lon="3.90279">
        <ele>1259.46</ele>
        <time>2025-06-22T09:12:07Z</time>
      </trkpt>
      <trkpt lat="44.81468" lon="3.90276">
        <ele>1250.33</ele>
        <time>2025-06-22T09:12:23Z</time>
      </trkpt>
      <trkpt lat="44.81469" lon="3.90295">
        <ele>1246.01</ele>
        <time>2025-06-22T09:12:36Z</time>
      </trkpt>
      <trkpt lat="44.81469" lon="3.90304">
        <ele>1245.04</ele>
        <time>2025-06-22T09:12:42Z</time>
      </trkpt>
      <trkpt lat="44.81469" lon="3.9032">
        <ele>1244.56</ele>
        <time>2025-06-22T09:12:49Z</time>
      </trkpt>
      <trkpt lat="44.81471" lon="3.90339">
        <ele>1244.08</ele>
        <time>2025-06-22T09:12:58Z</time>
      </trkpt>
      <trkpt lat="44.81472" lon="3.90363">
        <ele>1241.68</ele>
        <time>2025-06-22T09:13:11Z</time>
      </trkpt>
      <trkpt lat="44.81475" lon="3.90389">
        <ele>1239.76</ele>
        <time>2025-06-22T09:13:24Z</time>
      </trkpt>
      <trkpt lat="44.81475" lon="3.90412">
        <ele>1235.91</ele>
        <time>2025-06-22T09:13:37Z</time>
      </trkpt>
      <trkpt lat="44.81475" lon="3.90437">
        <ele>1233.99</ele>
        <time>2025-06-22T09:13:49Z</time>
      </trkpt>
      <trkpt lat="44.81478" lon="3.9046">
        <ele>1232.55</ele>
        <time>2025-06-22T09:14:00Z</time>
      </trkpt>
      <trkpt lat="44.81479" lon="3.90464">
        <ele>1233.03</ele>
        <time>2025-06-22T09:14:02Z</time>
      </trkpt>
      <trkpt lat="44.81482" lon="3.90492">
        <ele>1233.03</ele>
        <time>2025-06-22T09:14:14Z</time>
      </trkpt>
      <trkpt lat="44.81481" lon="3.9051">
        <ele>1230.14</ele>
        <time>2025-06-22T09:14:24Z</time>
      </trkpt>
      <trkpt lat="44.81482" lon="3.90536">
        <ele>1227.74</ele>
        <time>2025-06-22T09:14:38Z</time>
      </trkpt>
      <trkpt lat="44.8148" lon="3.9056">
        <ele>1225.82</ele>
        <time>2025-06-22T09:14:48Z</time>
      </trkpt>
      <trkpt lat="44.81484" lon="3.90573">
        <ele>1224.38</ele>
        <time>2025-06-22T09:14:53Z</time>
      </trkpt>
      <trkpt lat="44.81487" lon="3.90615">
        <ele>1217.17</ele>
        <time>2025-06-22T09:15:12Z</time>
      </trkpt>
      <trkpt lat="44.81485" lon="3.90657">
        <ele>1214.28</ele>
        <time>2025-06-22T09:15:32Z</time>
      </trkpt>
      <trkpt lat="44.81483" lon="3.90688">
        <ele>1212.36</ele>
        <time>2025-06-22T09:15:47Z</time>
      </trkpt>
      <trkpt lat="44.81481" lon="3.90697">
        <ele>1211.4</ele>
        <time>2025-06-22T09:15:52Z</time>
      </trkpt>
      <trkpt lat="44.81484" lon="3.90703">
        <ele>1209.96</ele>
        <time>2025-06-22T09:15:58Z</time>
      </trkpt>
      <trkpt lat="44.81481" lon="3.90704">
        <ele>1210.44</ele>
        <time>2025-06-22T09:16:01Z</time>
      </trkpt>
      <trkpt lat="44.81475" lon="3.90705">
        <ele>1210.44</ele>
        <time>2025-06-22T09:16:11Z</time>
      </trkpt>
      <trkpt lat="44.81474" lon="3.90709">
        <ele>1210.44</ele>
        <time>2025-06-22T09:16:13Z</time>
      </trkpt>
      <trkpt lat="44.81479" lon="3.90724">
        <ele>1209.48</ele>
        <time>2025-06-22T09:16:21Z</time>
      </trkpt>
      <trkpt lat="44.81483" lon="3.90729">
        <ele>1209</ele>
        <time>2025-06-22T09:16:25Z</time>
      </trkpt>
      <trkpt lat="44.81485" lon="3.90734">
        <ele>1208.03</ele>
        <time>2025-06-22T09:16:29Z</time>
      </trkpt>
      <trkpt lat="44.81496" lon="3.90751">
        <ele>1204.19</ele>
        <time>2025-06-22T09:16:41Z</time>
      </trkpt>
      <trkpt lat="44.81511" lon="3.90763">
        <ele>1202.75</ele>
        <time>2025-06-22T09:16:54Z</time>
      </trkpt>
      <trkpt lat="44.81523" lon="3.90779">
        <ele>1199.86</ele>
        <time>2025-06-22T09:17:06Z</time>
      </trkpt>
      <trkpt lat="44.8152" lon="3.90796">
        <ele>1198.9</ele>
        <time>2025-06-22T09:17:19Z</time>
      </trkpt>
      <trkpt lat="44.81514" lon="3.90821">
        <ele>1199.38</ele>
        <time>2025-06-22T09:17:32Z</time>
      </trkpt>
      <trkpt lat="44.81513" lon="3.90832">
        <ele>1199.86</ele>
        <time>2025-06-22T09:17:37Z</time>
      </trkpt>
      <trkpt lat="44.81507" lon="3.90853">
        <ele>1198.9</ele>
        <time>2025-06-22T09:17:49Z</time>
      </trkpt>
      <trkpt lat="44.81504" lon="3.90872">
        <ele>1196.98</ele>
        <time>2025-06-22T09:18:02Z</time>
      </trkpt>
      <trkpt lat="44.81503" lon="3.90877">
        <ele>1196.5</ele>
        <time>2025-06-22T09:18:05Z</time>
      </trkpt>
      <trkpt lat="44.81502" lon="3.90886">
        <ele>1196.02</ele>
        <time>2025-06-22T09:18:10Z</time>
      </trkpt>
      <trkpt lat="44.81502" lon="3.90895">
        <ele>1196.5</ele>
        <time>2025-06-22T09:18:15Z</time>
      </trkpt>
      <trkpt lat="44.81505" lon="3.90929">
        <ele>1200.34</ele>
        <time>2025-06-22T09:18:31Z</time>
      </trkpt>
      <trkpt lat="44.81509" lon="3.90951">
        <ele>1202.27</ele>
        <time>2025-06-22T09:18:43Z</time>
      </trkpt>
      <trkpt lat="44.8151" lon="3.90952">
        <ele>1202.27</ele>
        <time>2025-06-22T09:18:44Z</time>
      </trkpt>
      <trkpt lat="44.8151" lon="3.90954">
        <ele>1202.27</ele>
        <time>2025-06-22T09:18:45Z</time>
      </trkpt>
      <trkpt lat="44.8151" lon="3.90956">
        <ele>1202.27</ele>
        <time>2025-06-22T09:18:46Z</time>
      </trkpt>
      <trkpt lat="44.81511" lon="3.90957">
        <ele>1202.75</ele>
        <time>2025-06-22T09:18:47Z</time>
      </trkpt>
      <trkpt lat="44.81512" lon="3.90961">
        <ele>1202.75</ele>
        <time>2025-06-22T09:18:49Z</time>
      </trkpt>
      <trkpt lat="44.81513" lon="3.90963">
        <ele>1202.75</ele>
        <time>2025-06-22T09:18:50Z</time>
      </trkpt>
      <trkpt lat="44.81514" lon="3.90965">
        <ele>1202.75</ele>
        <time>2025-06-22T09:18:51Z</time>
      </trkpt>
      <trkpt lat="44.81514" lon="3.90968">
        <ele>1202.75</ele>
        <time>2025-06-22T09:18:53Z</time>
      </trkpt>
      <trkpt lat="44.81514" lon="3.9097">
        <ele>1202.75</ele>
        <time>2025-06-22T09:18:54Z</time>
      </trkpt>
      <trkpt lat="44.81522" lon="3.90981">
        <ele>1203.71</ele>
        <time>2025-06-22T09:19:02Z</time>
      </trkpt>
      <trkpt lat="44.81524" lon="3.90983">
        <ele>1204.19</ele>
        <time>2025-06-22T09:19:03Z</time>
      </trkpt>
      <trkpt lat="44.81525" lon="3.90985">
        <ele>1204.67</ele>
        <time>2025-06-22T09:19:04Z</time>
      </trkpt>
      <trkpt lat="44.81527" lon="3.90995">
        <ele>1205.15</ele>
        <time>2025-06-22T09:19:09Z</time>
      </trkpt>
      <trkpt lat="44.81529" lon="3.90996">
        <ele>1205.15</ele>
        <time>2025-06-22T09:19:10Z</time>
      </trkpt>
      <trkpt lat="44.8153" lon="3.90998">
        <ele>1205.15</ele>
        <time>2025-06-22T09:19:11Z</time>
      </trkpt>
      <trkpt lat="44.81531" lon="3.91">
        <ele>1204.67</ele>
        <time>2025-06-22T09:19:12Z</time>
      </trkpt>
      <trkpt lat="44.81532" lon="3.91002">
        <ele>1204.67</ele>
        <time>2025-06-22T09:19:13Z</time>
      </trkpt>
      <trkpt lat="44.81533" lon="3.91004">
        <ele>1204.67</ele>
        <time>2025-06-22T09:19:14Z</time>
      </trkpt>
      <trkpt lat="44.81534" lon="3.91006">
        <ele>1204.19</ele>
        <time>2025-06-22T09:19:15Z</time>
      </trkpt>
      <trkpt lat="44.81534" lon="3.91008">
        <ele>1204.19</ele>
        <time>2025-06-22T09:19:16Z</time>
      </trkpt>
      <trkpt lat="44.81535" lon="3.91011">
        <ele>1204.19</ele>
        <time>2025-06-22T09:19:17Z</time>
      </trkpt>
      <trkpt lat="44.81535" lon="3.91013">
        <ele>1204.19</ele>
        <time>2025-06-22T09:19:18Z</time>
      </trkpt>
      <trkpt lat="44.81536" lon="3.91015">
        <ele>1204.67</ele>
        <time>2025-06-22T09:19:19Z</time>
      </trkpt>
      <trkpt lat="44.81537" lon="3.91017">
        <ele>1204.67</ele>
        <time>2025-06-22T09:19:20Z</time>
      </trkpt>
      <trkpt lat="44.81538" lon="3.91019">
        <ele>1204.19</ele>
        <time>2025-06-22T09:19:21Z</time>
      </trkpt>
      <trkpt lat="44.81539" lon="3.91021">
        <ele>1204.19</ele>
        <time>2025-06-22T09:19:22Z</time>
      </trkpt>
      <trkpt lat="44.81547" lon="3.91041">
        <ele>1205.15</ele>
        <time>2025-06-22T09:19:34Z</time>
      </trkpt>
      <trkpt lat="44.81548" lon="3.91048">
        <ele>1204.19</ele>
        <time>2025-06-22T09:19:37Z</time>
      </trkpt>
      <trkpt lat="44.8155" lon="3.91052">
        <ele>1203.71</ele>
        <time>2025-06-22T09:19:39Z</time>
      </trkpt>
      <trkpt lat="44.8155" lon="3.91054">
        <ele>1203.23</ele>
        <time>2025-06-22T09:19:40Z</time>
      </trkpt>
      <trkpt lat="44.81551" lon="3.91055">
        <ele>1203.23</ele>
        <time>2025-06-22T09:19:41Z</time>
      </trkpt>
      <trkpt lat="44.81561" lon="3.91084">
        <ele>1198.42</ele>
        <time>2025-06-22T09:19:54Z</time>
      </trkpt>
      <trkpt lat="44.81566" lon="3.91113">
        <ele>1199.38</ele>
        <time>2025-06-22T09:20:09Z</time>
      </trkpt>
      <trkpt lat="44.81564" lon="3.91118">
        <ele>1199.86</ele>
        <time>2025-06-22T09:20:12Z</time>
      </trkpt>
      <trkpt lat="44.81562" lon="3.9112">
        <ele>1199.38</ele>
        <time>2025-06-22T09:20:13Z</time>
      </trkpt>
      <trkpt lat="44.8156" lon="3.9112">
        <ele>1199.86</ele>
        <time>2025-06-22T09:20:14Z</time>
      </trkpt>
      <trkpt lat="44.81558" lon="3.91121">
        <ele>1199.86</ele>
        <time>2025-06-22T09:20:15Z</time>
      </trkpt>
      <trkpt lat="44.81556" lon="3.91121">
        <ele>1199.86</ele>
        <time>2025-06-22T09:20:16Z</time>
      </trkpt>
      <trkpt lat="44.81553" lon="3.91122">
        <ele>1198.9</ele>
        <time>2025-06-22T09:20:18Z</time>
      </trkpt>
      <trkpt lat="44.8155" lon="3.91123">
        <ele>1198.9</ele>
        <time>2025-06-22T09:20:21Z</time>
      </trkpt>
      <trkpt lat="44.81549" lon="3.91125">
        <ele>1198.9</ele>
        <time>2025-06-22T09:20:22Z</time>
      </trkpt>
      <trkpt lat="44.81548" lon="3.91126">
        <ele>1198.9</ele>
        <time>2025-06-22T09:20:23Z</time>
      </trkpt>
      <trkpt lat="44.81546" lon="3.91128">
        <ele>1198.9</ele>
        <time>2025-06-22T09:20:24Z</time>
      </trkpt>
      <trkpt lat="44.81541" lon="3.91136">
        <ele>1202.27</ele>
        <time>2025-06-22T09:20:34Z</time>
      </trkpt>
      <trkpt lat="44.81532" lon="3.91152">
        <ele>1209.48</ele>
        <time>2025-06-22T09:20:48Z</time>
      </trkpt>
      <trkpt lat="44.81532" lon="3.91156">
        <ele>1210.92</ele>
        <time>2025-06-22T09:20:52Z</time>
      </trkpt>
      <trkpt lat="44.81531" lon="3.91164">
        <ele>1211.4</ele>
        <time>2025-06-22T09:20:56Z</time>
      </trkpt>
      <trkpt lat="44.8153" lon="3.91167">
        <ele>1211.88</ele>
        <time>2025-06-22T09:20:57Z</time>
      </trkpt>
      <trkpt lat="44.8153" lon="3.9117">
        <ele>1211.88</ele>
        <time>2025-06-22T09:20:58Z</time>
      </trkpt>
      <trkpt lat="44.81529" lon="3.91172">
        <ele>1212.36</ele>
        <time>2025-06-22T09:20:59Z</time>
      </trkpt>
      <trkpt lat="44.81528" lon="3.91175">
        <ele>1212.36</ele>
        <time>2025-06-22T09:21:00Z</time>
      </trkpt>
      <trkpt lat="44.81528" lon="3.91177">
        <ele>1212.36</ele>
        <time>2025-06-22T09:21:01Z</time>
      </trkpt>
      <trkpt lat="44.81527" lon="3.91179">
        <ele>1212.36</ele>
        <time>2025-06-22T09:21:02Z</time>
      </trkpt>
      <trkpt lat="44.81523" lon="3.91196">
        <ele>1210.92</ele>
        <time>2025-06-22T09:21:14Z</time>
      </trkpt>
      <trkpt lat="44.8152" lon="3.91201">
        <ele>1210.44</ele>
        <time>2025-06-22T09:21:17Z</time>
      </trkpt>
      <trkpt lat="44.81516" lon="3.91207">
        <ele>1209</ele>
        <time>2025-06-22T09:21:20Z</time>
      </trkpt>
      <trkpt lat="44.81515" lon="3.91209">
        <ele>1208.51</ele>
        <time>2025-06-22T09:21:21Z</time>
      </trkpt>
      <trkpt lat="44.81503" lon="3.91227">
        <ele>1204.19</ele>
        <time>2025-06-22T09:21:32Z</time>
      </trkpt>
      <trkpt lat="44.81495" lon="3.91246">
        <ele>1202.27</ele>
        <time>2025-06-22T09:21:42Z</time>
      </trkpt>
      <trkpt lat="44.81495" lon="3.91249">
        <ele>1202.75</ele>
        <time>2025-06-22T09:21:43Z</time>
      </trkpt>
      <trkpt lat="44.81495" lon="3.91251">
        <ele>1202.27</ele>
        <time>2025-06-22T09:21:44Z</time>
      </trkpt>
      <trkpt lat="44.81495" lon="3.91253">
        <ele>1202.75</ele>
        <time>2025-06-22T09:21:45Z</time>
      </trkpt>
      <trkpt lat="44.81496" lon="3.91257">
        <ele>1202.75</ele>
        <time>2025-06-22T09:21:48Z</time>
      </trkpt>
      <trkpt lat="44.81497" lon="3.91258">
        <ele>1202.75</ele>
        <time>2025-06-22T09:21:49Z</time>
      </trkpt>
      <trkpt lat="44.81499" lon="3.9126">
        <ele>1202.75</ele>
        <time>2025-06-22T09:21:50Z</time>
      </trkpt>
      <trkpt lat="44.815" lon="3.91262">
        <ele>1203.23</ele>
        <time>2025-06-22T09:21:51Z</time>
      </trkpt>
      <trkpt lat="44.81501" lon="3.91264">
        <ele>1203.23</ele>
        <time>2025-06-22T09:21:52Z</time>
      </trkpt>
      <trkpt lat="44.81501" lon="3.91267">
        <ele>1203.23</ele>
        <time>2025-06-22T09:21:53Z</time>
      </trkpt>
      <trkpt lat="44.81502" lon="3.91269">
        <ele>1203.23</ele>
        <time>2025-06-22T09:21:54Z</time>
      </trkpt>
      <trkpt lat="44.81502" lon="3.91271">
        <ele>1203.23</ele>
        <time>2025-06-22T09:21:55Z</time>
      </trkpt>
      <trkpt lat="44.81503" lon="3.91273">
        <ele>1203.23</ele>
        <time>2025-06-22T09:21:56Z</time>
      </trkpt>
      <trkpt lat="44.81503" lon="3.91275">
        <ele>1203.23</ele>
        <time>2025-06-22T09:21:57Z</time>
      </trkpt>
      <trkpt lat="44.81503" lon="3.91277">
        <ele>1202.75</ele>
        <time>2025-06-22T09:21:58Z</time>
      </trkpt>
      <trkpt lat="44.81505" lon="3.91302">
        <ele>1203.23</ele>
        <time>2025-06-22T09:22:11Z</time>
      </trkpt>
      <trkpt lat="44.81504" lon="3.91315">
        <ele>1204.67</ele>
        <time>2025-06-22T09:22:21Z</time>
      </trkpt>
      <trkpt lat="44.81504" lon="3.91318">
        <ele>1205.15</ele>
        <time>2025-06-22T09:22:22Z</time>
      </trkpt>
      <trkpt lat="44.81503" lon="3.9132">
        <ele>1205.63</ele>
        <time>2025-06-22T09:22:23Z</time>
      </trkpt>
      <trkpt lat="44.81502" lon="3.91323">
        <ele>1206.11</ele>
        <time>2025-06-22T09:22:24Z</time>
      </trkpt>
      <trkpt lat="44.81502" lon="3.91326">
        <ele>1206.59</ele>
        <time>2025-06-22T09:22:25Z</time>
      </trkpt>
      <trkpt lat="44.81501" lon="3.91344">
        <ele>1208.03</ele>
        <time>2025-06-22T09:22:37Z</time>
      </trkpt>
      <trkpt lat="44.81499" lon="3.91352">
        <ele>1209.48</ele>
        <time>2025-06-22T09:22:42Z</time>
      </trkpt>
      <trkpt lat="44.815" lon="3.91354">
        <ele>1209.96</ele>
        <time>2025-06-22T09:22:43Z</time>
      </trkpt>
      <trkpt lat="44.81504" lon="3.91361">
        <ele>1211.88</ele>
        <time>2025-06-22T09:22:49Z</time>
      </trkpt>
      <trkpt lat="44.81506" lon="3.91365">
        <ele>1211.4</ele>
        <time>2025-06-22T09:22:51Z</time>
      </trkpt>
      <trkpt lat="44.81507" lon="3.91373">
        <ele>1210.92</ele>
        <time>2025-06-22T09:22:55Z</time>
      </trkpt>
      <trkpt lat="44.81506" lon="3.91384">
        <ele>1211.88</ele>
        <time>2025-06-22T09:23:01Z</time>
      </trkpt>
      <trkpt lat="44.81505" lon="3.91388">
        <ele>1212.84</ele>
        <time>2025-06-22T09:23:02Z</time>
      </trkpt>
      <trkpt lat="44.81504" lon="3.91392">
        <ele>1213.8</ele>
        <time>2025-06-22T09:23:03Z</time>
      </trkpt>
      <trkpt lat="44.81501" lon="3.91409">
        <ele>1218.13</ele>
        <time>2025-06-22T09:23:10Z</time>
      </trkpt>
      <trkpt lat="44.81515" lon="3.91424">
        <ele>1211.88</ele>
        <time>2025-06-22T09:23:26Z</time>
      </trkpt>
      <trkpt lat="44.81524" lon="3.91434">
        <ele>1206.59</ele>
        <time>2025-06-22T09:23:38Z</time>
      </trkpt>
      <trkpt lat="44.81537" lon="3.91444">
        <ele>1202.27</ele>
        <time>2025-06-22T09:23:52Z</time>
      </trkpt>
      <trkpt lat="44.81538" lon="3.91445">
        <ele>1202.27</ele>
        <time>2025-06-22T09:23:53Z</time>
      </trkpt>
      <trkpt lat="44.81554" lon="3.91452">
        <ele>1200.34</ele>
        <time>2025-06-22T09:24:09Z</time>
      </trkpt>
      <trkpt lat="44.81567" lon="3.91454">
        <ele>1197.94</ele>
        <time>2025-06-22T09:24:20Z</time>
      </trkpt>
      <trkpt lat="44.81568" lon="3.91454">
        <ele>1197.46</ele>
        <time>2025-06-22T09:24:21Z</time>
      </trkpt>
      <trkpt lat="44.81569" lon="3.91453">
        <ele>1197.46</ele>
        <time>2025-06-22T09:24:22Z</time>
      </trkpt>
      <trkpt lat="44.81584" lon="3.91448">
        <ele>1195.54</ele>
        <time>2025-06-22T09:24:35Z</time>
      </trkpt>
      <trkpt lat="44.81594" lon="3.91441">
        <ele>1196.02</ele>
        <time>2025-06-22T09:24:47Z</time>
      </trkpt>
      <trkpt lat="44.81609" lon="3.9144">
        <ele>1199.38</ele>
        <time>2025-06-22T09:24:59Z</time>
      </trkpt>
      <trkpt lat="44.81618" lon="3.91444">
        <ele>1204.67</ele>
        <time>2025-06-22T09:25:10Z</time>
      </trkpt>
      <trkpt lat="44.81626" lon="3.91447">
        <ele>1205.63</ele>
        <time>2025-06-22T09:25:17Z</time>
      </trkpt>
      <trkpt lat="44.81634" lon="3.91449">
        <ele>1206.11</ele>
        <time>2025-06-22T09:25:26Z</time>
      </trkpt>
      <trkpt lat="44.8164" lon="3.91453">
        <ele>1205.63</ele>
        <time>2025-06-22T09:25:32Z</time>
      </trkpt>
      <trkpt lat="44.81642" lon="3.91454">
        <ele>1206.11</ele>
        <time>2025-06-22T09:25:33Z</time>
      </trkpt>
      <trkpt lat="44.81659" lon="3.9145">
        <ele>1203.23</ele>
        <time>2025-06-22T09:25:44Z</time>
      </trkpt>
      <trkpt lat="44.81665" lon="3.91446">
        <ele>1201.3</ele>
        <time>2025-06-22T09:25:50Z</time>
      </trkpt>
      <trkpt lat="44.81673" lon="3.91456">
        <ele>1200.34</ele>
        <time>2025-06-22T09:26:01Z</time>
      </trkpt>
      <trkpt lat="44.81689" lon="3.91469">
        <ele>1198.42</ele>
        <time>2025-06-22T09:26:13Z</time>
      </trkpt>
      <trkpt lat="44.81728" lon="3.91497">
        <ele>1179.19</ele>
        <time>2025-06-22T09:26:26Z</time>
      </trkpt>
      <trkpt lat="44.81736" lon="3.91501">
        <ele>1175.83</ele>
        <time>2025-06-22T09:26:32Z</time>
      </trkpt>
      <trkpt lat="44.81737" lon="3.91503">
        <ele>1175.35</ele>
        <time>2025-06-22T09:26:33Z</time>
      </trkpt>
      <trkpt lat="44.81737" lon="3.91504">
        <ele>1174.87</ele>
        <time>2025-06-22T09:26:34Z</time>
      </trkpt>
      <trkpt lat="44.81738" lon="3.91506">
        <ele>1174.39</ele>
        <time>2025-06-22T09:26:35Z</time>
      </trkpt>
      <trkpt lat="44.81738" lon="3.91508">
        <ele>1173.91</ele>
        <time>2025-06-22T09:26:36Z</time>
      </trkpt>
      <trkpt lat="44.81739" lon="3.91509">
        <ele>1173.43</ele>
        <time>2025-06-22T09:26:37Z</time>
      </trkpt>
      <trkpt lat="44.81752" lon="3.91529">
        <ele>1169.58</ele>
        <time>2025-06-22T09:26:52Z</time>
      </trkpt>
      <trkpt lat="44.81767" lon="3.91552">
        <ele>1164.77</ele>
        <time>2025-06-22T09:27:09Z</time>
      </trkpt>
      <trkpt lat="44.81781" lon="3.91574">
        <ele>1159.49</ele>
        <time>2025-06-22T09:27:26Z</time>
      </trkpt>
      <trkpt lat="44.81797" lon="3.91599">
        <ele>1155.64</ele>
        <time>2025-06-22T09:27:44Z</time>
      </trkpt>
      <trkpt lat="44.81805" lon="3.91609">
        <ele>1154.2</ele>
        <time>2025-06-22T09:27:52Z</time>
      </trkpt>
      <trkpt lat="44.81806" lon="3.9161">
        <ele>1154.2</ele>
        <time>2025-06-22T09:27:53Z</time>
      </trkpt>
      <trkpt lat="44.81806" lon="3.91612">
        <ele>1154.68</ele>
        <time>2025-06-22T09:27:54Z</time>
      </trkpt>
      <trkpt lat="44.81821" lon="3.91631">
        <ele>1153.24</ele>
        <time>2025-06-22T09:28:09Z</time>
      </trkpt>
      <trkpt lat="44.81822" lon="3.91632">
        <ele>1152.76</ele>
        <time>2025-06-22T09:28:10Z</time>
      </trkpt>
      <trkpt lat="44.81823" lon="3.91633">
        <ele>1152.76</ele>
        <time>2025-06-22T09:28:11Z</time>
      </trkpt>
      <trkpt lat="44.81823" lon="3.91635">
        <ele>1152.28</ele>
        <time>2025-06-22T09:28:12Z</time>
      </trkpt>
      <trkpt lat="44.81824" lon="3.91637">
        <ele>1152.28</ele>
        <time>2025-06-22T09:28:13Z</time>
      </trkpt>
      <trkpt lat="44.81825" lon="3.91638">
        <ele>1151.8</ele>
        <time>2025-06-22T09:28:14Z</time>
      </trkpt>
      <trkpt lat="44.81843" lon="3.91659">
        <ele>1149.87</ele>
        <time>2025-06-22T09:28:31Z</time>
      </trkpt>
      <trkpt lat="44.81857" lon="3.91681">
        <ele>1147.47</ele>
        <time>2025-06-22T09:28:46Z</time>
      </trkpt>
      <trkpt lat="44.81873" lon="3.91706">
        <ele>1145.55</ele>
        <time>2025-06-22T09:29:01Z</time>
      </trkpt>
      <trkpt lat="44.81874" lon="3.91708">
        <ele>1145.55</ele>
        <time>2025-06-22T09:29:02Z</time>
      </trkpt>
      <trkpt lat="44.81875" lon="3.9171">
        <ele>1145.55</ele>
        <time>2025-06-22T09:29:03Z</time>
      </trkpt>
      <trkpt lat="44.81876" lon="3.91712">
        <ele>1145.55</ele>
        <time>2025-06-22T09:29:04Z</time>
      </trkpt>
      <trkpt lat="44.81877" lon="3.91714">
        <ele>1145.55</ele>
        <time>2025-06-22T09:29:05Z</time>
      </trkpt>
      <trkpt lat="44.81877" lon="3.91716">
        <ele>1145.55</ele>
        <time>2025-06-22T09:29:06Z</time>
      </trkpt>
      <trkpt lat="44.81893" lon="3.91748">
        <ele>1143.63</ele>
        <time>2025-06-22T09:29:25Z</time>
      </trkpt>
      <trkpt lat="44.81908" lon="3.91782">
        <ele>1141.7</ele>
        <time>2025-06-22T09:29:43Z</time>
      </trkpt>
      <trkpt lat="44.81922" lon="3.91812">
        <ele>1140.26</ele>
        <time>2025-06-22T09:30:00Z</time>
      </trkpt>
      <trkpt lat="44.81936" lon="3.91837">
        <ele>1138.34</ele>
        <time>2025-06-22T09:30:16Z</time>
      </trkpt>
      <trkpt lat="44.81953" lon="3.91855">
        <ele>1135.94</ele>
        <time>2025-06-22T09:30:32Z</time>
      </trkpt>
      <trkpt lat="44.81969" lon="3.91881">
        <ele>1134.01</ele>
        <time>2025-06-22T09:30:50Z</time>
      </trkpt>
      <trkpt lat="44.8197" lon="3.91883">
        <ele>1133.53</ele>
        <time>2025-06-22T09:30:51Z</time>
      </trkpt>
      <trkpt lat="44.81971" lon="3.91885">
        <ele>1133.53</ele>
        <time>2025-06-22T09:30:52Z</time>
      </trkpt>
      <trkpt lat="44.81981" lon="3.91913">
        <ele>1132.09</ele>
        <time>2025-06-22T09:31:08Z</time>
      </trkpt>
      <trkpt lat="44.81998" lon="3.91941">
        <ele>1130.17</ele>
        <time>2025-06-22T09:31:27Z</time>
      </trkpt>
      <trkpt lat="44.82014" lon="3.91957">
        <ele>1129.21</ele>
        <time>2025-06-22T09:31:42Z</time>
      </trkpt>
      <trkpt lat="44.82031" lon="3.91973">
        <ele>1128.24</ele>
        <time>2025-06-22T09:31:58Z</time>
      </trkpt>
      <trkpt lat="44.8204" lon="3.91981">
        <ele>1127.76</ele>
        <time>2025-06-22T09:32:06Z</time>
      </trkpt>
      <trkpt lat="44.8204" lon="3.91982">
        <ele>1127.76</ele>
        <time>2025-06-22T09:32:07Z</time>
      </trkpt>
      <trkpt lat="44.82041" lon="3.91984">
        <ele>1127.76</ele>
        <time>2025-06-22T09:32:08Z</time>
      </trkpt>
      <trkpt lat="44.82042" lon="3.91986">
        <ele>1127.28</ele>
        <time>2025-06-22T09:32:09Z</time>
      </trkpt>
      <trkpt lat="44.82043" lon="3.91987">
        <ele>1127.28</ele>
        <time>2025-06-22T09:32:10Z</time>
      </trkpt>
      <trkpt lat="44.82044" lon="3.91989">
        <ele>1126.8</ele>
        <time>2025-06-22T09:32:11Z</time>
      </trkpt>
      <trkpt lat="44.82058" lon="3.92011">
        <ele>1125.84</ele>
        <time>2025-06-22T09:32:26Z</time>
      </trkpt>
      <trkpt lat="44.82059" lon="3.92012">
        <ele>1125.84</ele>
        <time>2025-06-22T09:32:27Z</time>
      </trkpt>
      <trkpt lat="44.82073" lon="3.92035">
        <ele>1124.4</ele>
        <time>2025-06-22T09:32:43Z</time>
      </trkpt>
      <trkpt lat="44.82085" lon="3.92051">
        <ele>1122.48</ele>
        <time>2025-06-22T09:32:55Z</time>
      </trkpt>
      <trkpt lat="44.82085" lon="3.92052">
        <ele>1122.48</ele>
        <time>2025-06-22T09:32:56Z</time>
      </trkpt>
      <trkpt lat="44.82086" lon="3.92053">
        <ele>1122</ele>
        <time>2025-06-22T09:32:57Z</time>
      </trkpt>
      <trkpt lat="44.82087" lon="3.92055">
        <ele>1122</ele>
        <time>2025-06-22T09:32:58Z</time>
      </trkpt>
      <trkpt lat="44.82088" lon="3.92056">
        <ele>1122</ele>
        <time>2025-06-22T09:32:59Z</time>
      </trkpt>
      <trkpt lat="44.82089" lon="3.92057">
        <ele>1121.52</ele>
        <time>2025-06-22T09:33:00Z</time>
      </trkpt>
      <trkpt lat="44.8209" lon="3.92059">
        <ele>1121.52</ele>
        <time>2025-06-22T09:33:01Z</time>
      </trkpt>
      <trkpt lat="44.82104" lon="3.92077">
        <ele>1120.55</ele>
        <time>2025-06-22T09:33:15Z</time>
      </trkpt>
      <trkpt lat="44.82118" lon="3.92098">
        <ele>1119.11</ele>
        <time>2025-06-22T09:33:29Z</time>
      </trkpt>
      <trkpt lat="44.82132" lon="3.92124">
        <ele>1116.71</ele>
        <time>2025-06-22T09:33:46Z</time>
      </trkpt>
      <trkpt lat="44.82145" lon="3.92142">
        <ele>1115.75</ele>
        <time>2025-06-22T09:33:59Z</time>
      </trkpt>
      <trkpt lat="44.82145" lon="3.92143">
        <ele>1115.75</ele>
        <time>2025-06-22T09:34:00Z</time>
      </trkpt>
      <trkpt lat="44.82145" lon="3.92145">
        <ele>1115.27</ele>
        <time>2025-06-22T09:34:01Z</time>
      </trkpt>
      <trkpt lat="44.82144" lon="3.92147">
        <ele>1115.27</ele>
        <time>2025-06-22T09:34:02Z</time>
      </trkpt>
      <trkpt lat="44.82143" lon="3.92149">
        <ele>1115.27</ele>
        <time>2025-06-22T09:34:03Z</time>
      </trkpt>
      <trkpt lat="44.82142" lon="3.9215">
        <ele>1115.27</ele>
        <time>2025-06-22T09:34:04Z</time>
      </trkpt>
      <trkpt lat="44.82141" lon="3.92151">
        <ele>1115.27</ele>
        <time>2025-06-22T09:34:05Z</time>
      </trkpt>
      <trkpt lat="44.82139" lon="3.92152">
        <ele>1115.27</ele>
        <time>2025-06-22T09:34:06Z</time>
      </trkpt>
      <trkpt lat="44.82138" lon="3.92153">
        <ele>1114.79</ele>
        <time>2025-06-22T09:34:07Z</time>
      </trkpt>
      <trkpt lat="44.82137" lon="3.92153">
        <ele>1114.79</ele>
        <time>2025-06-22T09:34:08Z</time>
      </trkpt>
      <trkpt lat="44.82136" lon="3.92154">
        <ele>1114.79</ele>
        <time>2025-06-22T09:34:09Z</time>
      </trkpt>
      <trkpt lat="44.82134" lon="3.92155">
        <ele>1114.79</ele>
        <time>2025-06-22T09:34:10Z</time>
      </trkpt>
      <trkpt lat="44.82133" lon="3.92156">
        <ele>1114.79</ele>
        <time>2025-06-22T09:34:11Z</time>
      </trkpt>
      <trkpt lat="44.82132" lon="3.92157">
        <ele>1114.79</ele>
        <time>2025-06-22T09:34:12Z</time>
      </trkpt>
      <trkpt lat="44.82115" lon="3.92169">
        <ele>1115.75</ele>
        <time>2025-06-22T09:34:26Z</time>
      </trkpt>
      <trkpt lat="44.82099" lon="3.92181">
        <ele>1116.23</ele>
        <time>2025-06-22T09:34:39Z</time>
      </trkpt>
      <trkpt lat="44.82079" lon="3.92196">
        <ele>1117.19</ele>
        <time>2025-06-22T09:34:55Z</time>
      </trkpt>
      <trkpt lat="44.82056" lon="3.92212">
        <ele>1117.67</ele>
        <time>2025-06-22T09:35:14Z</time>
      </trkpt>
      <trkpt lat="44.82049" lon="3.92217">
        <ele>1117.67</ele>
        <time>2025-06-22T09:35:21Z</time>
      </trkpt>
      <trkpt lat="44.82028" lon="3.92233">
        <ele>1117.19</ele>
        <time>2025-06-22T09:35:37Z</time>
      </trkpt>
      <trkpt lat="44.82011" lon="3.92246">
        <ele>1117.19</ele>
        <time>2025-06-22T09:35:52Z</time>
      </trkpt>
      <trkpt lat="44.81992" lon="3.92261">
        <ele>1118.15</ele>
        <time>2025-06-22T09:36:06Z</time>
      </trkpt>
      <trkpt lat="44.81972" lon="3.92275">
        <ele>1118.63</ele>
        <time>2025-06-22T09:36:22Z</time>
      </trkpt>
      <trkpt lat="44.81953" lon="3.92287">
        <ele>1118.15</ele>
        <time>2025-06-22T09:36:37Z</time>
      </trkpt>
      <trkpt lat="44.81938" lon="3.92293">
        <ele>1116.23</ele>
        <time>2025-06-22T09:36:50Z</time>
      </trkpt>
      <trkpt lat="44.81937" lon="3.92295">
        <ele>1116.71</ele>
        <time>2025-06-22T09:36:51Z</time>
      </trkpt>
      <trkpt lat="44.81912" lon="3.92312">
        <ele>1117.19</ele>
        <time>2025-06-22T09:37:09Z</time>
      </trkpt>
      <trkpt lat="44.81898" lon="3.92322">
        <ele>1118.63</ele>
        <time>2025-06-22T09:37:24Z</time>
      </trkpt>
      <trkpt lat="44.81891" lon="3.92326">
        <ele>1118.15</ele>
        <time>2025-06-22T09:37:44Z</time>
      </trkpt>
      <trkpt lat="44.81872" lon="3.92342">
        <ele>1119.59</ele>
        <time>2025-06-22T09:38:00Z</time>
      </trkpt>
      <trkpt lat="44.81878" lon="3.92363">
        <ele>1117.19</ele>
        <time>2025-06-22T09:38:12Z</time>
      </trkpt>
      <trkpt lat="44.81895" lon="3.92403">
        <ele>1114.31</ele>
        <time>2025-06-22T09:38:29Z</time>
      </trkpt>
      <trkpt lat="44.81902" lon="3.92424">
        <ele>1113.34</ele>
        <time>2025-06-22T09:38:39Z</time>
      </trkpt>
      <trkpt lat="44.81903" lon="3.92427">
        <ele>1112.86</ele>
        <time>2025-06-22T09:38:40Z</time>
      </trkpt>
      <trkpt lat="44.81904" lon="3.92429">
        <ele>1112.86</ele>
        <time>2025-06-22T09:38:41Z</time>
      </trkpt>
      <trkpt lat="44.81904" lon="3.92431">
        <ele>1112.38</ele>
        <time>2025-06-22T09:38:42Z</time>
      </trkpt>
      <trkpt lat="44.81905" lon="3.92433">
        <ele>1112.38</ele>
        <time>2025-06-22T09:38:43Z</time>
      </trkpt>
      <trkpt lat="44.81906" lon="3.92435">
        <ele>1112.38</ele>
        <time>2025-06-22T09:38:44Z</time>
      </trkpt>
      <trkpt lat="44.81907" lon="3.92444">
        <ele>1112.86</ele>
        <time>2025-06-22T09:38:48Z</time>
      </trkpt>
      <trkpt lat="44.81911" lon="3.92469">
        <ele>1114.31</ele>
        <time>2025-06-22T09:38:59Z</time>
      </trkpt>
      <trkpt lat="44.81911" lon="3.92471">
        <ele>1114.31</ele>
        <time>2025-06-22T09:39:00Z</time>
      </trkpt>
      <trkpt lat="44.81918" lon="3.92499">
        <ele>1112.86</ele>
        <time>2025-06-22T09:39:14Z</time>
      </trkpt>
      <trkpt lat="44.81931" lon="3.92527">
        <ele>1109.5</ele>
        <time>2025-06-22T09:39:28Z</time>
      </trkpt>
      <trkpt lat="44.81943" lon="3.92562">
        <ele>1109.02</ele>
        <time>2025-06-22T09:39:45Z</time>
      </trkpt>
      <trkpt lat="44.81959" lon="3.92587">
        <ele>1107.58</ele>
        <time>2025-06-22T09:40:02Z</time>
      </trkpt>
      <trkpt lat="44.81977" lon="3.92601">
        <ele>1104.69</ele>
        <time>2025-06-22T09:40:16Z</time>
      </trkpt>
      <trkpt lat="44.8198" lon="3.92604">
        <ele>1104.21</ele>
        <time>2025-06-22T09:40:18Z</time>
      </trkpt>
      <trkpt lat="44.81981" lon="3.92605">
        <ele>1104.21</ele>
        <time>2025-06-22T09:40:19Z</time>
      </trkpt>
      <trkpt lat="44.81982" lon="3.92607">
        <ele>1104.21</ele>
        <time>2025-06-22T09:40:20Z</time>
      </trkpt>
      <trkpt lat="44.81983" lon="3.92608">
        <ele>1104.21</ele>
        <time>2025-06-22T09:40:21Z</time>
      </trkpt>
      <trkpt lat="44.81984" lon="3.9261">
        <ele>1103.73</ele>
        <time>2025-06-22T09:40:22Z</time>
      </trkpt>
      <trkpt lat="44.81985" lon="3.92611">
        <ele>1103.73</ele>
        <time>2025-06-22T09:40:23Z</time>
      </trkpt>
      <trkpt lat="44.81997" lon="3.92633">
        <ele>1101.81</ele>
        <time>2025-06-22T09:40:37Z</time>
      </trkpt>
      <trkpt lat="44.82001" lon="3.92648">
        <ele>1101.81</ele>
        <time>2025-06-22T09:40:45Z</time>
      </trkpt>
      <trkpt lat="44.82008" lon="3.92675">
        <ele>1102.29</ele>
        <time>2025-06-22T09:40:59Z</time>
      </trkpt>
      <trkpt lat="44.82016" lon="3.92702">
        <ele>1102.77</ele>
        <time>2025-06-22T09:41:13Z</time>
      </trkpt>
      <trkpt lat="44.82027" lon="3.92739">
        <ele>1102.29</ele>
        <time>2025-06-22T09:41:31Z</time>
      </trkpt>
      <trkpt lat="44.82043" lon="3.92764">
        <ele>1098.92</ele>
        <time>2025-06-22T09:41:47Z</time>
      </trkpt>
      <trkpt lat="44.82058" lon="3.92787">
        <ele>1097.48</ele>
        <time>2025-06-22T09:42:02Z</time>
      </trkpt>
      <trkpt lat="44.82074" lon="3.92808">
        <ele>1097.48</ele>
        <time>2025-06-22T09:42:17Z</time>
      </trkpt>
      <trkpt lat="44.82079" lon="3.92821">
        <ele>1097.96</ele>
        <time>2025-06-22T09:42:24Z</time>
      </trkpt>
      <trkpt lat="44.8208" lon="3.92822">
        <ele>1097.96</ele>
        <time>2025-06-22T09:42:25Z</time>
      </trkpt>
      <trkpt lat="44.82081" lon="3.92823">
        <ele>1098.44</ele>
        <time>2025-06-22T09:42:26Z</time>
      </trkpt>
      <trkpt lat="44.82082" lon="3.92825">
        <ele>1098.44</ele>
        <time>2025-06-22T09:42:27Z</time>
      </trkpt>
      <trkpt lat="44.82083" lon="3.92826">
        <ele>1098.44</ele>
        <time>2025-06-22T09:42:28Z</time>
      </trkpt>
      <trkpt lat="44.82084" lon="3.92828">
        <ele>1098.44</ele>
        <time>2025-06-22T09:42:29Z</time>
      </trkpt>
      <trkpt lat="44.82093" lon="3.92851">
        <ele>1098.44</ele>
        <time>2025-06-22T09:42:42Z</time>
      </trkpt>
      <trkpt lat="44.82099" lon="3.92877">
        <ele>1097.48</ele>
        <time>2025-06-22T09:42:56Z</time>
      </trkpt>
      <trkpt lat="44.8211" lon="3.92899">
        <ele>1097.96</ele>
        <time>2025-06-22T09:43:11Z</time>
      </trkpt>
      <trkpt lat="44.82111" lon="3.92916">
        <ele>1097.48</ele>
        <time>2025-06-22T09:43:22Z</time>
      </trkpt>
      <trkpt lat="44.82108" lon="3.92921">
        <ele>1097</ele>
        <time>2025-06-22T09:43:27Z</time>
      </trkpt>
      <trkpt lat="44.82107" lon="3.92922">
        <ele>1096.52</ele>
        <time>2025-06-22T09:43:28Z</time>
      </trkpt>
      <trkpt lat="44.82096" lon="3.92949">
        <ele>1097</ele>
        <time>2025-06-22T09:43:46Z</time>
      </trkpt>
      <trkpt lat="44.82084" lon="3.92974">
        <ele>1098.44</ele>
        <time>2025-06-22T09:44:02Z</time>
      </trkpt>
      <trkpt lat="44.82069" lon="3.92994">
        <ele>1097</ele>
        <time>2025-06-22T09:44:20Z</time>
      </trkpt>
      <trkpt lat="44.82059" lon="3.93003">
        <ele>1095.08</ele>
        <time>2025-06-22T09:44:31Z</time>
      </trkpt>
      <trkpt lat="44.82058" lon="3.93004">
        <ele>1095.08</ele>
        <time>2025-06-22T09:44:32Z</time>
      </trkpt>
      <trkpt lat="44.82057" lon="3.93004">
        <ele>1094.6</ele>
        <time>2025-06-22T09:44:33Z</time>
      </trkpt>
      <trkpt lat="44.82036" lon="3.93008">
        <ele>1092.68</ele>
        <time>2025-06-22T09:44:49Z</time>
      </trkpt>
      <trkpt lat="44.82017" lon="3.93011">
        <ele>1090.75</ele>
        <time>2025-06-22T09:45:05Z</time>
      </trkpt>
      <trkpt lat="44.82007" lon="3.93012">
        <ele>1089.79</ele>
        <time>2025-06-22T09:45:13Z</time>
      </trkpt>
      <trkpt lat="44.82004" lon="3.93015">
        <ele>1089.79</ele>
        <time>2025-06-22T09:45:16Z</time>
      </trkpt>
      <trkpt lat="44.82003" lon="3.93016">
        <ele>1089.79</ele>
        <time>2025-06-22T09:45:17Z</time>
      </trkpt>
      <trkpt lat="44.82002" lon="3.93017">
        <ele>1089.79</ele>
        <time>2025-06-22T09:45:18Z</time>
      </trkpt>
      <trkpt lat="44.81985" lon="3.93034">
        <ele>1088.83</ele>
        <time>2025-06-22T09:45:35Z</time>
      </trkpt>
      <trkpt lat="44.81968" lon="3.93048">
        <ele>1087.39</ele>
        <time>2025-06-22T09:45:50Z</time>
      </trkpt>
      <trkpt lat="44.81951" lon="3.9306">
        <ele>1086.43</ele>
        <time>2025-06-22T09:46:05Z</time>
      </trkpt>
      <trkpt lat="44.81943" lon="3.93069">
        <ele>1085.95</ele>
        <time>2025-06-22T09:46:13Z</time>
      </trkpt>
      <trkpt lat="44.81942" lon="3.9307">
        <ele>1085.95</ele>
        <time>2025-06-22T09:46:14Z</time>
      </trkpt>
      <trkpt lat="44.81941" lon="3.93072">
        <ele>1085.95</ele>
        <time>2025-06-22T09:46:15Z</time>
      </trkpt>
      <trkpt lat="44.81925" lon="3.93083">
        <ele>1087.39</ele>
        <time>2025-06-22T09:46:29Z</time>
      </trkpt>
      <trkpt lat="44.81911" lon="3.93096">
        <ele>1087.87</ele>
        <time>2025-06-22T09:46:42Z</time>
      </trkpt>
      <trkpt lat="44.81899" lon="3.93112">
        <ele>1087.87</ele>
        <time>2025-06-22T09:46:55Z</time>
      </trkpt>
      <trkpt lat="44.81884" lon="3.93137">
        <ele>1086.43</ele>
        <time>2025-06-22T09:47:14Z</time>
      </trkpt>
      <trkpt lat="44.81883" lon="3.93138">
        <ele>1086.43</ele>
        <time>2025-06-22T09:47:15Z</time>
      </trkpt>
      <trkpt lat="44.81883" lon="3.9314">
        <ele>1086.43</ele>
        <time>2025-06-22T09:47:16Z</time>
      </trkpt>
      <trkpt lat="44.81882" lon="3.93141">
        <ele>1086.43</ele>
        <time>2025-06-22T09:47:17Z</time>
      </trkpt>
      <trkpt lat="44.81881" lon="3.93143">
        <ele>1086.43</ele>
        <time>2025-06-22T09:47:18Z</time>
      </trkpt>
      <trkpt lat="44.8188" lon="3.93144">
        <ele>1085.95</ele>
        <time>2025-06-22T09:47:19Z</time>
      </trkpt>
      <trkpt lat="44.81879" lon="3.93145">
        <ele>1085.95</ele>
        <time>2025-06-22T09:47:20Z</time>
      </trkpt>
      <trkpt lat="44.81878" lon="3.93147">
        <ele>1085.95</ele>
        <time>2025-06-22T09:47:21Z</time>
      </trkpt>
      <trkpt lat="44.81877" lon="3.93149">
        <ele>1085.95</ele>
        <time>2025-06-22T09:47:22Z</time>
      </trkpt>
      <trkpt lat="44.81876" lon="3.9315">
        <ele>1085.95</ele>
        <time>2025-06-22T09:47:23Z</time>
      </trkpt>
      <trkpt lat="44.81875" lon="3.93152">
        <ele>1085.95</ele>
        <time>2025-06-22T09:47:24Z</time>
      </trkpt>
      <trkpt lat="44.81874" lon="3.93153">
        <ele>1085.95</ele>
        <time>2025-06-22T09:47:25Z</time>
      </trkpt>
      <trkpt lat="44.81874" lon="3.93155">
        <ele>1085.95</ele>
        <time>2025-06-22T09:47:26Z</time>
      </trkpt>
      <trkpt lat="44.81873" lon="3.93156">
        <ele>1085.95</ele>
        <time>2025-06-22T09:47:27Z</time>
      </trkpt>
      <trkpt lat="44.81872" lon="3.93158">
        <ele>1085.95</ele>
        <time>2025-06-22T09:47:28Z</time>
      </trkpt>
      <trkpt lat="44.81871" lon="3.93159">
        <ele>1085.95</ele>
        <time>2025-06-22T09:47:29Z</time>
      </trkpt>
      <trkpt lat="44.8186" lon="3.93182">
        <ele>1085.47</ele>
        <time>2025-06-22T09:47:44Z</time>
      </trkpt>
      <trkpt lat="44.81849" lon="3.93211">
        <ele>1084.99</ele>
        <time>2025-06-22T09:48:00Z</time>
      </trkpt>
      <trkpt lat="44.81837" lon="3.93246">
        <ele>1083.54</ele>
        <time>2025-06-22T09:48:19Z</time>
      </trkpt>
      <trkpt lat="44.81831" lon="3.93271">
        <ele>1081.62</ele>
        <time>2025-06-22T09:48:36Z</time>
      </trkpt>
      <trkpt lat="44.81812" lon="3.93291">
        <ele>1081.14</ele>
        <time>2025-06-22T09:48:54Z</time>
      </trkpt>
      <trkpt lat="44.81797" lon="3.93301">
        <ele>1082.1</ele>
        <time>2025-06-22T09:49:06Z</time>
      </trkpt>
      <trkpt lat="44.81796" lon="3.93301">
        <ele>1082.1</ele>
        <time>2025-06-22T09:49:07Z</time>
      </trkpt>
      <trkpt lat="44.81794" lon="3.93302">
        <ele>1082.1</ele>
        <time>2025-06-22T09:49:08Z</time>
      </trkpt>
      <trkpt lat="44.81779" lon="3.93306">
        <ele>1082.58</ele>
        <time>2025-06-22T09:49:19Z</time>
      </trkpt>
      <trkpt lat="44.81759" lon="3.93309">
        <ele>1084.02</ele>
        <time>2025-06-22T09:49:35Z</time>
      </trkpt>
      <trkpt lat="44.81739" lon="3.93313">
        <ele>1084.5</ele>
        <time>2025-06-22T09:49:50Z</time>
      </trkpt>
      <trkpt lat="44.81718" lon="3.93316">
        <ele>1083.54</ele>
        <time>2025-06-22T09:50:05Z</time>
      </trkpt>
      <trkpt lat="44.81696" lon="3.93322">
        <ele>1083.54</ele>
        <time>2025-06-22T09:50:22Z</time>
      </trkpt>
      <trkpt lat="44.81676" lon="3.93333">
        <ele>1082.58</ele>
        <time>2025-06-22T09:50:39Z</time>
      </trkpt>
      <trkpt lat="44.81666" lon="3.93341">
        <ele>1081.14</ele>
        <time>2025-06-22T09:50:48Z</time>
      </trkpt>
      <trkpt lat="44.81664" lon="3.93341">
        <ele>1081.14</ele>
        <time>2025-06-22T09:50:49Z</time>
      </trkpt>
      <trkpt lat="44.81663" lon="3.93341">
        <ele>1081.14</ele>
        <time>2025-06-22T09:50:50Z</time>
      </trkpt>
      <trkpt lat="44.81662" lon="3.93341">
        <ele>1081.14</ele>
        <time>2025-06-22T09:50:51Z</time>
      </trkpt>
      <trkpt lat="44.81661" lon="3.93341">
        <ele>1080.66</ele>
        <time>2025-06-22T09:50:52Z</time>
      </trkpt>
      <trkpt lat="44.8166" lon="3.93341">
        <ele>1080.66</ele>
        <time>2025-06-22T09:50:53Z</time>
      </trkpt>
      <trkpt lat="44.81658" lon="3.93341">
        <ele>1080.18</ele>
        <time>2025-06-22T09:50:54Z</time>
      </trkpt>
      <trkpt lat="44.81657" lon="3.93341">
        <ele>1080.18</ele>
        <time>2025-06-22T09:50:55Z</time>
      </trkpt>
      <trkpt lat="44.81655" lon="3.93341">
        <ele>1080.18</ele>
        <time>2025-06-22T09:50:56Z</time>
      </trkpt>
      <trkpt lat="44.81654" lon="3.9334">
        <ele>1079.7</ele>
        <time>2025-06-22T09:50:57Z</time>
      </trkpt>
      <trkpt lat="44.81639" lon="3.9332">
        <ele>1079.7</ele>
        <time>2025-06-22T09:51:15Z</time>
      </trkpt>
      <trkpt lat="44.81629" lon="3.93301">
        <ele>1080.66</ele>
        <time>2025-06-22T09:51:30Z</time>
      </trkpt>
      <trkpt lat="44.81624" lon="3.93301">
        <ele>1081.14</ele>
        <time>2025-06-22T09:51:35Z</time>
      </trkpt>
      <trkpt lat="44.81621" lon="3.93309">
        <ele>1078.26</ele>
        <time>2025-06-22T09:51:42Z</time>
      </trkpt>
      <trkpt lat="44.81621" lon="3.9331">
        <ele>1078.26</ele>
        <time>2025-06-22T09:51:43Z</time>
      </trkpt>
      <trkpt lat="44.81621" lon="3.93312">
        <ele>1077.78</ele>
        <time>2025-06-22T09:51:44Z</time>
      </trkpt>
      <trkpt lat="44.81622" lon="3.93313">
        <ele>1077.78</ele>
        <time>2025-06-22T09:51:45Z</time>
      </trkpt>
      <trkpt lat="44.81623" lon="3.93314">
        <ele>1077.29</ele>
        <time>2025-06-22T09:51:46Z</time>
      </trkpt>
      <trkpt lat="44.81629" lon="3.93327">
        <ele>1076.33</ele>
        <time>2025-06-22T09:51:56Z</time>
      </trkpt>
      <trkpt lat="44.81629" lon="3.93329">
        <ele>1076.33</ele>
        <time>2025-06-22T09:51:57Z</time>
      </trkpt>
      <trkpt lat="44.8163" lon="3.93331">
        <ele>1076.33</ele>
        <time>2025-06-22T09:51:58Z</time>
      </trkpt>
      <trkpt lat="44.8163" lon="3.93332">
        <ele>1076.33</ele>
        <time>2025-06-22T09:51:59Z</time>
      </trkpt>
      <trkpt lat="44.81631" lon="3.93334">
        <ele>1076.33</ele>
        <time>2025-06-22T09:52:00Z</time>
      </trkpt>
      <trkpt lat="44.81631" lon="3.93336">
        <ele>1076.33</ele>
        <time>2025-06-22T09:52:01Z</time>
      </trkpt>
      <trkpt lat="44.81632" lon="3.93337">
        <ele>1076.33</ele>
        <time>2025-06-22T09:52:02Z</time>
      </trkpt>
      <trkpt lat="44.81633" lon="3.93339">
        <ele>1075.85</ele>
        <time>2025-06-22T09:52:03Z</time>
      </trkpt>
      <trkpt lat="44.81634" lon="3.9334">
        <ele>1075.37</ele>
        <time>2025-06-22T09:52:04Z</time>
      </trkpt>
      <trkpt lat="44.81635" lon="3.93341">
        <ele>1075.37</ele>
        <time>2025-06-22T09:52:05Z</time>
      </trkpt>
      <trkpt lat="44.81636" lon="3.93343">
        <ele>1074.89</ele>
        <time>2025-06-22T09:52:06Z</time>
      </trkpt>
      <trkpt lat="44.81636" lon="3.93345">
        <ele>1074.89</ele>
        <time>2025-06-22T09:52:07Z</time>
      </trkpt>
      <trkpt lat="44.81637" lon="3.93348">
        <ele>1074.89</ele>
        <time>2025-06-22T09:52:09Z</time>
      </trkpt>
      <trkpt lat="44.8165" lon="3.93364">
        <ele>1074.89</ele>
        <time>2025-06-22T09:52:23Z</time>
      </trkpt>
      <trkpt lat="44.81667" lon="3.93365">
        <ele>1074.41</ele>
        <time>2025-06-22T09:52:38Z</time>
      </trkpt>
      <trkpt lat="44.81682" lon="3.93354">
        <ele>1073.93</ele>
        <time>2025-06-22T09:52:53Z</time>
      </trkpt>
      <trkpt lat="44.81701" lon="3.93349">
        <ele>1072.49</ele>
        <time>2025-06-22T09:53:09Z</time>
      </trkpt>
      <trkpt lat="44.8172" lon="3.93344">
        <ele>1074.41</ele>
        <time>2025-06-22T09:53:25Z</time>
      </trkpt>
      <trkpt lat="44.81744" lon="3.93352">
        <ele>1072.01</ele>
        <time>2025-06-22T09:53:41Z</time>
      </trkpt>
      <trkpt lat="44.81763" lon="3.93356">
        <ele>1068.16</ele>
        <time>2025-06-22T09:53:54Z</time>
      </trkpt>
      <trkpt lat="44.81783" lon="3.9336">
        <ele>1063.84</ele>
        <time>2025-06-22T09:54:09Z</time>
      </trkpt>
      <trkpt lat="44.81802" lon="3.93367">
        <ele>1060.95</ele>
        <time>2025-06-22T09:54:25Z</time>
      </trkpt>
      <trkpt lat="44.8182" lon="3.93374">
        <ele>1061.91</ele>
        <time>2025-06-22T09:54:39Z</time>
      </trkpt>
      <trkpt lat="44.8184" lon="3.93383">
        <ele>1061.91</ele>
        <time>2025-06-22T09:54:55Z</time>
      </trkpt>
      <trkpt lat="44.81865" lon="3.9339">
        <ele>1060.47</ele>
        <time>2025-06-22T09:55:13Z</time>
      </trkpt>
      <trkpt lat="44.81884" lon="3.93386">
        <ele>1059.99</ele>
        <time>2025-06-22T09:55:28Z</time>
      </trkpt>
      <trkpt lat="44.81899" lon="3.93373">
        <ele>1059.51</ele>
        <time>2025-06-22T09:55:43Z</time>
      </trkpt>
      <trkpt lat="44.81899" lon="3.93371">
        <ele>1059.99</ele>
        <time>2025-06-22T09:55:44Z</time>
      </trkpt>
      <trkpt lat="44.819" lon="3.9337">
        <ele>1059.51</ele>
        <time>2025-06-22T09:55:45Z</time>
      </trkpt>
      <trkpt lat="44.81903" lon="3.93362">
        <ele>1059.51</ele>
        <time>2025-06-22T09:55:57Z</time>
      </trkpt>
      <trkpt lat="44.81903" lon="3.93363">
        <ele>1059.03</ele>
        <time>2025-06-22T09:55:59Z</time>
      </trkpt>
      <trkpt lat="44.81903" lon="3.93365">
        <ele>1058.55</ele>
        <time>2025-06-22T09:56:00Z</time>
      </trkpt>
      <trkpt lat="44.81902" lon="3.93367">
        <ele>1058.55</ele>
        <time>2025-06-22T09:56:01Z</time>
      </trkpt>
      <trkpt lat="44.81902" lon="3.93369">
        <ele>1058.55</ele>
        <time>2025-06-22T09:56:02Z</time>
      </trkpt>
      <trkpt lat="44.81902" lon="3.93371">
        <ele>1058.07</ele>
        <time>2025-06-22T09:56:03Z</time>
      </trkpt>
      <trkpt lat="44.81894" lon="3.93388">
        <ele>1058.07</ele>
        <time>2025-06-22T09:56:16Z</time>
      </trkpt>
      <trkpt lat="44.81894" lon="3.9339">
        <ele>1058.07</ele>
        <time>2025-06-22T09:56:17Z</time>
      </trkpt>
      <trkpt lat="44.81889" lon="3.93418">
        <ele>1056.63</ele>
        <time>2025-06-22T09:56:32Z</time>
      </trkpt>
      <trkpt lat="44.8189" lon="3.93424">
        <ele>1056.15</ele>
        <time>2025-06-22T09:56:36Z</time>
      </trkpt>
      <trkpt lat="44.81903" lon="3.93447">
        <ele>1055.18</ele>
        <time>2025-06-22T09:56:51Z</time>
      </trkpt>
      <trkpt lat="44.81914" lon="3.93461">
        <ele>1056.63</ele>
        <time>2025-06-22T09:57:03Z</time>
      </trkpt>
      <trkpt lat="44.81921" lon="3.93471">
        <ele>1057.59</ele>
        <time>2025-06-22T09:57:11Z</time>
      </trkpt>
      <trkpt lat="44.81932" lon="3.9348">
        <ele>1059.03</ele>
        <time>2025-06-22T09:57:21Z</time>
      </trkpt>
      <trkpt lat="44.81946" lon="3.93495">
        <ele>1058.55</ele>
        <time>2025-06-22T09:57:34Z</time>
      </trkpt>
      <trkpt lat="44.81957" lon="3.93522">
        <ele>1057.59</ele>
        <time>2025-06-22T09:57:49Z</time>
      </trkpt>
      <trkpt lat="44.81959" lon="3.93523">
        <ele>1057.59</ele>
        <time>2025-06-22T09:58:08Z</time>
      </trkpt>
      <trkpt lat="44.81957" lon="3.93522">
        <ele>1056.63</ele>
        <time>2025-06-22T09:58:11Z</time>
      </trkpt>
      <trkpt lat="44.81942" lon="3.93507">
        <ele>1056.15</ele>
        <time>2025-06-22T09:58:30Z</time>
      </trkpt>
      <trkpt lat="44.81932" lon="3.93497">
        <ele>1057.11</ele>
        <time>2025-06-22T09:58:42Z</time>
      </trkpt>
      <trkpt lat="44.81916" lon="3.93476">
        <ele>1059.99</ele>
        <time>2025-06-22T09:58:57Z</time>
      </trkpt>
      <trkpt lat="44.81901" lon="3.93456">
        <ele>1059.51</ele>
        <time>2025-06-22T09:59:12Z</time>
      </trkpt>
      <trkpt lat="44.81894" lon="3.93441">
        <ele>1059.03</ele>
        <time>2025-06-22T09:59:26Z</time>
      </trkpt>
      <trkpt lat="44.81888" lon="3.93439">
        <ele>1059.03</ele>
        <time>2025-06-22T09:59:38Z</time>
      </trkpt>
      <trkpt lat="44.81887" lon="3.93433">
        <ele>1060.47</ele>
        <time>2025-06-22T09:59:52Z</time>
      </trkpt>
      <trkpt lat="44.81887" lon="3.93409">
        <ele>1060.95</ele>
        <time>2025-06-22T10:00:08Z</time>
      </trkpt>
      <trkpt lat="44.81889" lon="3.93394">
        <ele>1061.43</ele>
        <time>2025-06-22T10:00:21Z</time>
      </trkpt>
      <trkpt lat="44.81892" lon="3.93384">
        <ele>1061.91</ele>
        <time>2025-06-22T10:00:32Z</time>
      </trkpt>
      <trkpt lat="44.81904" lon="3.93356">
        <ele>1061.43</ele>
        <time>2025-06-22T10:00:52Z</time>
      </trkpt>
      <trkpt lat="44.81904" lon="3.93327">
        <ele>1059.51</ele>
        <time>2025-06-22T10:01:09Z</time>
      </trkpt>
      <trkpt lat="44.819" lon="3.93293">
        <ele>1058.07</ele>
        <time>2025-06-22T10:01:28Z</time>
      </trkpt>
      <trkpt lat="44.81897" lon="3.93276">
        <ele>1056.63</ele>
        <time>2025-06-22T10:01:37Z</time>
      </trkpt>
      <trkpt lat="44.81907" lon="3.9325">
        <ele>1054.7</ele>
        <time>2025-06-22T10:01:54Z</time>
      </trkpt>
      <trkpt lat="44.8193" lon="3.93244">
        <ele>1053.26</ele>
        <time>2025-06-22T10:02:10Z</time>
      </trkpt>
      <trkpt lat="44.81937" lon="3.93248">
        <ele>1053.26</ele>
        <time>2025-06-22T10:02:15Z</time>
      </trkpt>
      <trkpt lat="44.81941" lon="3.93254">
        <ele>1053.26</ele>
        <time>2025-06-22T10:02:19Z</time>
      </trkpt>
      <trkpt lat="44.81961" lon="3.93292">
        <ele>1050.38</ele>
        <time>2025-06-22T10:02:41Z</time>
      </trkpt>
      <trkpt lat="44.81975" lon="3.93322">
        <ele>1048.45</ele>
        <time>2025-06-22T10:02:58Z</time>
      </trkpt>
      <trkpt lat="44.8199" lon="3.93346">
        <ele>1047.97</ele>
        <time>2025-06-22T10:03:14Z</time>
      </trkpt>
      <trkpt lat="44.82006" lon="3.93366">
        <ele>1049.42</ele>
        <time>2025-06-22T10:03:29Z</time>
      </trkpt>
      <trkpt lat="44.82018" lon="3.93399">
        <ele>1048.94</ele>
        <time>2025-06-22T10:03:51Z</time>
      </trkpt>
      <trkpt lat="44.82033" lon="3.93418">
        <ele>1049.9</ele>
        <time>2025-06-22T10:04:07Z</time>
      </trkpt>
      <trkpt lat="44.82054" lon="3.93429">
        <ele>1048.45</ele>
        <time>2025-06-22T10:04:25Z</time>
      </trkpt>
      <trkpt lat="44.82055" lon="3.93428">
        <ele>1048.45</ele>
        <time>2025-06-22T10:04:26Z</time>
      </trkpt>
      <trkpt lat="44.82071" lon="3.93414">
        <ele>1044.13</ele>
        <time>2025-06-22T10:04:46Z</time>
      </trkpt>
      <trkpt lat="44.82088" lon="3.93416">
        <ele>1041.73</ele>
        <time>2025-06-22T10:04:57Z</time>
      </trkpt>
      <trkpt lat="44.82095" lon="3.93448">
        <ele>1037.88</ele>
        <time>2025-06-22T10:05:14Z</time>
      </trkpt>
      <trkpt lat="44.82098" lon="3.93479">
        <ele>1036.44</ele>
        <time>2025-06-22T10:05:30Z</time>
      </trkpt>
      <trkpt lat="44.82108" lon="3.93513">
        <ele>1035.96</ele>
        <time>2025-06-22T10:05:48Z</time>
      </trkpt>
      <trkpt lat="44.82103" lon="3.93549">
        <ele>1033.07</ele>
        <time>2025-06-22T10:06:06Z</time>
      </trkpt>
      <trkpt lat="44.82094" lon="3.93587">
        <ele>1031.15</ele>
        <time>2025-06-22T10:06:27Z</time>
      </trkpt>
      <trkpt lat="44.82082" lon="3.93617">
        <ele>1026.83</ele>
        <time>2025-06-22T10:06:44Z</time>
      </trkpt>
      <trkpt lat="44.82078" lon="3.93626">
        <ele>1026.83</ele>
        <time>2025-06-22T10:06:49Z</time>
      </trkpt>
      <trkpt lat="44.82059" lon="3.93658">
        <ele>1026.34</ele>
        <time>2025-06-22T10:07:08Z</time>
      </trkpt>
      <trkpt lat="44.82045" lon="3.93684">
        <ele>1025.38</ele>
        <time>2025-06-22T10:07:24Z</time>
      </trkpt>
      <trkpt lat="44.82044" lon="3.93692">
        <ele>1024.42</ele>
        <time>2025-06-22T10:07:29Z</time>
      </trkpt>
      <trkpt lat="44.82044" lon="3.93699">
        <ele>1022.98</ele>
        <time>2025-06-22T10:07:33Z</time>
      </trkpt>
      <trkpt lat="44.82057" lon="3.93728">
        <ele>1019.62</ele>
        <time>2025-06-22T10:07:51Z</time>
      </trkpt>
      <trkpt lat="44.82078" lon="3.93754">
        <ele>1017.69</ele>
        <time>2025-06-22T10:08:10Z</time>
      </trkpt>
      <trkpt lat="44.82097" lon="3.93782">
        <ele>1018.65</ele>
        <time>2025-06-22T10:08:29Z</time>
      </trkpt>
      <trkpt lat="44.82114" lon="3.93798">
        <ele>1023.46</ele>
        <time>2025-06-22T10:08:43Z</time>
      </trkpt>
      <trkpt lat="44.82113" lon="3.93826">
        <ele>1022.98</ele>
        <time>2025-06-22T10:08:56Z</time>
      </trkpt>
      <trkpt lat="44.82114" lon="3.93832">
        <ele>1018.65</ele>
        <time>2025-06-22T10:09:10Z</time>
      </trkpt>
      <trkpt lat="44.82115" lon="3.93841">
        <ele>1018.17</ele>
        <time>2025-06-22T10:09:15Z</time>
      </trkpt>
      <trkpt lat="44.82116" lon="3.93851">
        <ele>1017.21</ele>
        <time>2025-06-22T10:09:20Z</time>
      </trkpt>
      <trkpt lat="44.82131" lon="3.93877">
        <ele>1015.77</ele>
        <time>2025-06-22T10:09:36Z</time>
      </trkpt>
      <trkpt lat="44.82134" lon="3.93879">
        <ele>1016.73</ele>
        <time>2025-06-22T10:09:39Z</time>
      </trkpt>
      <trkpt lat="44.82142" lon="3.93882">
        <ele>1016.73</ele>
        <time>2025-06-22T10:09:46Z</time>
      </trkpt>
      <trkpt lat="44.82167" lon="3.939">
        <ele>1015.29</ele>
        <time>2025-06-22T10:10:04Z</time>
      </trkpt>
      <trkpt lat="44.82167" lon="3.93938">
        <ele>1014.81</ele>
        <time>2025-06-22T10:10:20Z</time>
      </trkpt>
      <trkpt lat="44.82164" lon="3.93977">
        <ele>1010.48</ele>
        <time>2025-06-22T10:10:38Z</time>
      </trkpt>
      <trkpt lat="44.8216" lon="3.94015">
        <ele>1005.68</ele>
        <time>2025-06-22T10:10:55Z</time>
      </trkpt>
      <trkpt lat="44.82154" lon="3.94055">
        <ele>1002.79</ele>
        <time>2025-06-22T10:11:13Z</time>
      </trkpt>
      <trkpt lat="44.82151" lon="3.94089">
        <ele>998.95</ele>
        <time>2025-06-22T10:11:31Z</time>
      </trkpt>
      <trkpt lat="44.82146" lon="3.94126">
        <ele>997.99</ele>
        <time>2025-06-22T10:11:47Z</time>
      </trkpt>
      <trkpt lat="44.82142" lon="3.9416">
        <ele>997.02</ele>
        <time>2025-06-22T10:12:02Z</time>
      </trkpt>
      <trkpt lat="44.82134" lon="3.94192">
        <ele>994.14</ele>
        <time>2025-06-22T10:12:19Z</time>
      </trkpt>
      <trkpt lat="44.82132" lon="3.94206">
        <ele>991.74</ele>
        <time>2025-06-22T10:12:26Z</time>
      </trkpt>
      <trkpt lat="44.82127" lon="3.94244">
        <ele>990.3</ele>
        <time>2025-06-22T10:12:43Z</time>
      </trkpt>
      <trkpt lat="44.82136" lon="3.94277">
        <ele>987.41</ele>
        <time>2025-06-22T10:13:01Z</time>
      </trkpt>
      <trkpt lat="44.82159" lon="3.94294">
        <ele>989.33</ele>
        <time>2025-06-22T10:13:19Z</time>
      </trkpt>
      <trkpt lat="44.82185" lon="3.94306">
        <ele>990.78</ele>
        <time>2025-06-22T10:13:37Z</time>
      </trkpt>
      <trkpt lat="44.82202" lon="3.94309">
        <ele>990.3</ele>
        <time>2025-06-22T10:13:50Z</time>
      </trkpt>
      <trkpt lat="44.82204" lon="3.9431">
        <ele>989.81</ele>
        <time>2025-06-22T10:13:52Z</time>
      </trkpt>
      <trkpt lat="44.822" lon="3.94321">
        <ele>990.3</ele>
        <time>2025-06-22T10:13:56Z</time>
      </trkpt>
      <trkpt lat="44.82198" lon="3.94322">
        <ele>990.78</ele>
        <time>2025-06-22T10:13:57Z</time>
      </trkpt>
      <trkpt lat="44.82197" lon="3.94323">
        <ele>990.78</ele>
        <time>2025-06-22T10:13:58Z</time>
      </trkpt>
      <trkpt lat="44.82168" lon="3.94321">
        <ele>992.22</ele>
        <time>2025-06-22T10:14:17Z</time>
      </trkpt>
      <trkpt lat="44.82145" lon="3.94326">
        <ele>993.66</ele>
        <time>2025-06-22T10:14:34Z</time>
      </trkpt>
      <trkpt lat="44.82125" lon="3.94326">
        <ele>994.62</ele>
        <time>2025-06-22T10:14:48Z</time>
      </trkpt>
      <trkpt lat="44.82109" lon="3.9431">
        <ele>996.06</ele>
        <time>2025-06-22T10:15:02Z</time>
      </trkpt>
      <trkpt lat="44.82099" lon="3.94268">
        <ele>987.41</ele>
        <time>2025-06-22T10:15:17Z</time>
      </trkpt>
      <trkpt lat="44.82097" lon="3.94238">
        <ele>985.49</ele>
        <time>2025-06-22T10:15:30Z</time>
      </trkpt>
      <trkpt lat="44.82098" lon="3.94236">
        <ele>985.01</ele>
        <time>2025-06-22T10:15:31Z</time>
      </trkpt>
      <trkpt lat="44.821" lon="3.94209">
        <ele>983.09</ele>
        <time>2025-06-22T10:15:45Z</time>
      </trkpt>
      <trkpt lat="44.82095" lon="3.942">
        <ele>982.6</ele>
        <time>2025-06-22T10:15:52Z</time>
      </trkpt>
      <trkpt lat="44.82077" lon="3.942">
        <ele>985.01</ele>
        <time>2025-06-22T10:16:07Z</time>
      </trkpt>
      <trkpt lat="44.82057" lon="3.94205">
        <ele>989.33</ele>
        <time>2025-06-22T10:16:21Z</time>
      </trkpt>
      <trkpt lat="44.82057" lon="3.94206">
        <ele>995.1</ele>
        <time>2025-06-22T10:16:46Z</time>
      </trkpt>
      <trkpt lat="44.82056" lon="3.94211">
        <ele>1001.35</ele>
        <time>2025-06-22T10:17:11Z</time>
      </trkpt>
      <trkpt lat="44.82054" lon="3.9421">
        <ele>996.54</ele>
        <time>2025-06-22T10:17:21Z</time>
      </trkpt>
      <trkpt lat="44.82053" lon="3.94212">
        <ele>996.06</ele>
        <time>2025-06-22T10:17:22Z</time>
      </trkpt>
      <trkpt lat="44.82052" lon="3.94213">
        <ele>995.58</ele>
        <time>2025-06-22T10:17:23Z</time>
      </trkpt>
      <trkpt lat="44.82051" lon="3.94214">
        <ele>995.1</ele>
        <time>2025-06-22T10:17:24Z</time>
      </trkpt>
      <trkpt lat="44.8205" lon="3.94214">
        <ele>995.1</ele>
        <time>2025-06-22T10:17:25Z</time>
      </trkpt>
      <trkpt lat="44.82049" lon="3.94215">
        <ele>994.62</ele>
        <time>2025-06-22T10:17:26Z</time>
      </trkpt>
      <trkpt lat="44.82048" lon="3.94216">
        <ele>994.62</ele>
        <time>2025-06-22T10:17:27Z</time>
      </trkpt>
      <trkpt lat="44.82048" lon="3.94217">
        <ele>994.14</ele>
        <time>2025-06-22T10:17:28Z</time>
      </trkpt>
      <trkpt lat="44.8204" lon="3.9423">
        <ele>980.68</ele>
        <time>2025-06-22T10:17:42Z</time>
      </trkpt>
      <trkpt lat="44.82041" lon="3.94231">
        <ele>979.72</ele>
        <time>2025-06-22T10:17:43Z</time>
      </trkpt>
      <trkpt lat="44.82041" lon="3.94233">
        <ele>979.72</ele>
        <time>2025-06-22T10:17:44Z</time>
      </trkpt>
      <trkpt lat="44.82039" lon="3.94237">
        <ele>979.24</ele>
        <time>2025-06-22T10:17:47Z</time>
      </trkpt>
      <trkpt lat="44.82037" lon="3.94239">
        <ele>979.24</ele>
        <time>2025-06-22T10:17:48Z</time>
      </trkpt>
      <trkpt lat="44.82036" lon="3.9424">
        <ele>979.24</ele>
        <time>2025-06-22T10:17:49Z</time>
      </trkpt>
      <trkpt lat="44.82032" lon="3.94245">
        <ele>980.68</ele>
        <time>2025-06-22T10:18:01Z</time>
      </trkpt>
      <trkpt lat="44.82026" lon="3.94248">
        <ele>981.64</ele>
        <time>2025-06-22T10:18:08Z</time>
      </trkpt>
      <trkpt lat="44.82005" lon="3.94253">
        <ele>983.09</ele>
        <time>2025-06-22T10:18:21Z</time>
      </trkpt>
      <trkpt lat="44.81983" lon="3.94258">
        <ele>983.09</ele>
        <time>2025-06-22T10:18:36Z</time>
      </trkpt>
      <trkpt lat="44.81961" lon="3.9426">
        <ele>983.09</ele>
        <time>2025-06-22T10:18:51Z</time>
      </trkpt>
      <trkpt lat="44.81937" lon="3.94259">
        <ele>985.49</ele>
        <time>2025-06-22T10:19:07Z</time>
      </trkpt>
      <trkpt lat="44.81912" lon="3.94252">
        <ele>987.89</ele>
        <time>2025-06-22T10:19:24Z</time>
      </trkpt>
      <trkpt lat="44.81893" lon="3.94244">
        <ele>986.45</ele>
        <time>2025-06-22T10:19:40Z</time>
      </trkpt>
      <trkpt lat="44.81883" lon="3.9425">
        <ele>978.76</ele>
        <time>2025-06-22T10:19:51Z</time>
      </trkpt>
      <trkpt lat="44.81882" lon="3.94252">
        <ele>978.28</ele>
        <time>2025-06-22T10:19:52Z</time>
      </trkpt>
      <trkpt lat="44.81881" lon="3.94253">
        <ele>977.8</ele>
        <time>2025-06-22T10:19:53Z</time>
      </trkpt>
      <trkpt lat="44.81873" lon="3.94272">
        <ele>975.39</ele>
        <time>2025-06-22T10:20:09Z</time>
      </trkpt>
      <trkpt lat="44.81872" lon="3.94275">
        <ele>975.39</ele>
        <time>2025-06-22T10:20:11Z</time>
      </trkpt>
      <trkpt lat="44.81872" lon="3.94276">
        <ele>975.39</ele>
        <time>2025-06-22T10:20:12Z</time>
      </trkpt>
      <trkpt lat="44.8186" lon="3.94301">
        <ele>973.95</ele>
        <time>2025-06-22T10:20:26Z</time>
      </trkpt>
      <trkpt lat="44.81859" lon="3.94302">
        <ele>973.95</ele>
        <time>2025-06-22T10:20:27Z</time>
      </trkpt>
      <trkpt lat="44.81854" lon="3.94307">
        <ele>973.47</ele>
        <time>2025-06-22T10:20:32Z</time>
      </trkpt>
      <trkpt lat="44.81852" lon="3.94308">
        <ele>973.47</ele>
        <time>2025-06-22T10:20:33Z</time>
      </trkpt>
      <trkpt lat="44.81851" lon="3.94308">
        <ele>973.47</ele>
        <time>2025-06-22T10:20:34Z</time>
      </trkpt>
      <trkpt lat="44.81849" lon="3.94308">
        <ele>973.47</ele>
        <time>2025-06-22T10:20:35Z</time>
      </trkpt>
      <trkpt lat="44.81848" lon="3.94308">
        <ele>973.47</ele>
        <time>2025-06-22T10:20:36Z</time>
      </trkpt>
      <trkpt lat="44.81847" lon="3.94308">
        <ele>973.47</ele>
        <time>2025-06-22T10:20:37Z</time>
      </trkpt>
      <trkpt lat="44.8182" lon="3.94305">
        <ele>973.95</ele>
        <time>2025-06-22T10:20:54Z</time>
      </trkpt>
      <trkpt lat="44.81799" lon="3.94297">
        <ele>982.12</ele>
        <time>2025-06-22T10:21:09Z</time>
      </trkpt>
      <trkpt lat="44.81779" lon="3.94278">
        <ele>989.33</ele>
        <time>2025-06-22T10:21:27Z</time>
      </trkpt>
      <trkpt lat="44.81773" lon="3.9427">
        <ele>991.74</ele>
        <time>2025-06-22T10:21:42Z</time>
      </trkpt>
      <trkpt lat="44.81784" lon="3.94257">
        <ele>994.62</ele>
        <time>2025-06-22T10:22:07Z</time>
      </trkpt>
      <trkpt lat="44.8178" lon="3.94255">
        <ele>981.64</ele>
        <time>2025-06-22T10:22:36Z</time>
      </trkpt>
      <trkpt lat="44.81775" lon="3.94261">
        <ele>972.99</ele>
        <time>2025-06-22T10:23:05Z</time>
      </trkpt>
      <trkpt lat="44.81768" lon="3.9427">
        <ele>977.32</ele>
        <time>2025-06-22T10:23:36Z</time>
      </trkpt>
      <trkpt lat="44.8177" lon="3.94265">
        <ele>976.36</ele>
        <time>2025-06-22T10:24:08Z</time>
      </trkpt>
      <trkpt lat="44.81763" lon="3.9427">
        <ele>977.8</ele>
        <time>2025-06-22T10:24:43Z</time>
      </trkpt>
      <trkpt lat="44.81761" lon="3.94271">
        <ele>977.32</ele>
        <time>2025-06-22T10:25:18Z</time>
      </trkpt>
      <trkpt lat="44.81762" lon="3.94261">
        <ele>980.2</ele>
        <time>2025-06-22T10:25:42Z</time>
      </trkpt>
      <trkpt lat="44.81745" lon="3.94247">
        <ele>975.88</ele>
        <time>2025-06-22T10:25:59Z</time>
      </trkpt>
      <trkpt lat="44.81725" lon="3.94228">
        <ele>978.28</ele>
        <time>2025-06-22T10:26:20Z</time>
      </trkpt>
      <trkpt lat="44.81701" lon="3.94227">
        <ele>982.6</ele>
        <time>2025-06-22T10:26:37Z</time>
      </trkpt>
      <trkpt lat="44.81679" lon="3.94221">
        <ele>985.97</ele>
        <time>2025-06-22T10:26:55Z</time>
      </trkpt>
      <trkpt lat="44.81673" lon="3.94222">
        <ele>986.93</ele>
        <time>2025-06-22T10:26:59Z</time>
      </trkpt>
      <trkpt lat="44.81671" lon="3.94223">
        <ele>987.41</ele>
        <time>2025-06-22T10:27:00Z</time>
      </trkpt>
      <trkpt lat="44.81648" lon="3.9423">
        <ele>991.26</ele>
        <time>2025-06-22T10:27:19Z</time>
      </trkpt>
      <trkpt lat="44.81638" lon="3.9423">
        <ele>992.22</ele>
        <time>2025-06-22T10:27:27Z</time>
      </trkpt>
      <trkpt lat="44.81607" lon="3.94237">
        <ele>995.1</ele>
        <time>2025-06-22T10:27:48Z</time>
      </trkpt>
      <trkpt lat="44.81587" lon="3.94256">
        <ele>997.99</ele>
        <time>2025-06-22T10:28:03Z</time>
      </trkpt>
      <trkpt lat="44.81567" lon="3.94274">
        <ele>1000.39</ele>
        <time>2025-06-22T10:28:21Z</time>
      </trkpt>
      <trkpt lat="44.8156" lon="3.94281">
        <ele>1001.35</ele>
        <time>2025-06-22T10:28:28Z</time>
      </trkpt>
      <trkpt lat="44.81559" lon="3.94282">
        <ele>1001.35</ele>
        <time>2025-06-22T10:28:29Z</time>
      </trkpt>
      <trkpt lat="44.8154" lon="3.94306">
        <ele>1001.83</ele>
        <time>2025-06-22T10:28:45Z</time>
      </trkpt>
      <trkpt lat="44.81528" lon="3.94326">
        <ele>1005.68</ele>
        <time>2025-06-22T10:29:01Z</time>
      </trkpt>
      <trkpt lat="44.81516" lon="3.94355">
        <ele>1007.6</ele>
        <time>2025-06-22T10:29:20Z</time>
      </trkpt>
      <trkpt lat="44.8151" lon="3.94384">
        <ele>1006.64</ele>
        <time>2025-06-22T10:29:37Z</time>
      </trkpt>
      <trkpt lat="44.81501" lon="3.94418">
        <ele>1005.2</ele>
        <time>2025-06-22T10:29:53Z</time>
      </trkpt>
      <trkpt lat="44.81494" lon="3.94448">
        <ele>1003.75</ele>
        <time>2025-06-22T10:30:06Z</time>
      </trkpt>
      <trkpt lat="44.81486" lon="3.94477">
        <ele>1002.31</ele>
        <time>2025-06-22T10:30:22Z</time>
      </trkpt>
      <trkpt lat="44.81484" lon="3.94514">
        <ele>1003.27</ele>
        <time>2025-06-22T10:30:37Z</time>
      </trkpt>
      <trkpt lat="44.81478" lon="3.94548">
        <ele>1007.12</ele>
        <time>2025-06-22T10:30:56Z</time>
      </trkpt>
      <trkpt lat="44.81479" lon="3.9458">
        <ele>1010.48</ele>
        <time>2025-06-22T10:31:14Z</time>
      </trkpt>
      <trkpt lat="44.81483" lon="3.94621">
        <ele>1013.85</ele>
        <time>2025-06-22T10:31:36Z</time>
      </trkpt>
      <trkpt lat="44.81485" lon="3.94646">
        <ele>1012.89</ele>
        <time>2025-06-22T10:31:49Z</time>
      </trkpt>
      <trkpt lat="44.81483" lon="3.94682">
        <ele>1014.33</ele>
        <time>2025-06-22T10:32:07Z</time>
      </trkpt>
      <trkpt lat="44.8148" lon="3.94715">
        <ele>1014.81</ele>
        <time>2025-06-22T10:32:25Z</time>
      </trkpt>
      <trkpt lat="44.81478" lon="3.94746">
        <ele>1014.33</ele>
        <time>2025-06-22T10:32:43Z</time>
      </trkpt>
      <trkpt lat="44.81477" lon="3.94757">
        <ele>1014.33</ele>
        <time>2025-06-22T10:32:49Z</time>
      </trkpt>
      <trkpt lat="44.81477" lon="3.9476">
        <ele>1014.81</ele>
        <time>2025-06-22T10:32:50Z</time>
      </trkpt>
      <trkpt lat="44.81469" lon="3.94793">
        <ele>1019.13</ele>
        <time>2025-06-22T10:33:04Z</time>
      </trkpt>
      <trkpt lat="44.81463" lon="3.94818">
        <ele>1022.98</ele>
        <time>2025-06-22T10:33:18Z</time>
      </trkpt>
      <trkpt lat="44.8146" lon="3.94829">
        <ele>1025.38</ele>
        <time>2025-06-22T10:33:25Z</time>
      </trkpt>
      <trkpt lat="44.81459" lon="3.94831">
        <ele>1025.38</ele>
        <time>2025-06-22T10:33:26Z</time>
      </trkpt>
      <trkpt lat="44.81441" lon="3.94873">
        <ele>1029.71</ele>
        <time>2025-06-22T10:33:41Z</time>
      </trkpt>
      <trkpt lat="44.81425" lon="3.94902">
        <ele>1032.59</ele>
        <time>2025-06-22T10:33:55Z</time>
      </trkpt>
      <trkpt lat="44.81405" lon="3.94939">
        <ele>1035.48</ele>
        <time>2025-06-22T10:34:10Z</time>
      </trkpt>
      <trkpt lat="44.81393" lon="3.94955">
        <ele>1036.92</ele>
        <time>2025-06-22T10:34:19Z</time>
      </trkpt>
      <trkpt lat="44.81383" lon="3.9497">
        <ele>1040.28</ele>
        <time>2025-06-22T10:34:36Z</time>
      </trkpt>
      <trkpt lat="44.81368" lon="3.94994">
        <ele>1042.69</ele>
        <time>2025-06-22T10:34:51Z</time>
      </trkpt>
      <trkpt lat="44.81368" lon="3.94996">
        <ele>1042.69</ele>
        <time>2025-06-22T10:34:52Z</time>
      </trkpt>
      <trkpt lat="44.81367" lon="3.94998">
        <ele>1043.17</ele>
        <time>2025-06-22T10:34:53Z</time>
      </trkpt>
      <trkpt lat="44.81351" lon="3.95023">
        <ele>1046.05</ele>
        <time>2025-06-22T10:35:11Z</time>
      </trkpt>
      <trkpt lat="44.81341" lon="3.95045">
        <ele>1049.42</ele>
        <time>2025-06-22T10:35:27Z</time>
      </trkpt>
      <trkpt lat="44.81339" lon="3.95051">
        <ele>1049.9</ele>
        <time>2025-06-22T10:35:31Z</time>
      </trkpt>
      <trkpt lat="44.8133" lon="3.95075">
        <ele>1053.26</ele>
        <time>2025-06-22T10:35:50Z</time>
      </trkpt>
      <trkpt lat="44.8132" lon="3.95104">
        <ele>1053.26</ele>
        <time>2025-06-22T10:36:02Z</time>
      </trkpt>
      <trkpt lat="44.81312" lon="3.9511">
        <ele>1054.22</ele>
        <time>2025-06-22T10:36:11Z</time>
      </trkpt>
      <trkpt lat="44.81309" lon="3.95114">
        <ele>1052.3</ele>
        <time>2025-06-22T10:36:27Z</time>
      </trkpt>
      <trkpt lat="44.81309" lon="3.95114">
        <ele>1051.34</ele>
        <time>2025-06-22T10:36:39Z</time>
      </trkpt>
      <trkpt lat="44.81308" lon="3.95122">
        <ele>1050.38</ele>
        <time>2025-06-22T10:36:44Z</time>
      </trkpt>
      <trkpt lat="44.81308" lon="3.95124">
        <ele>1050.38</ele>
        <time>2025-06-22T10:36:45Z</time>
      </trkpt>
      <trkpt lat="44.81307" lon="3.95126">
        <ele>1050.38</ele>
        <time>2025-06-22T10:36:46Z</time>
      </trkpt>
      <trkpt lat="44.81293" lon="3.95153">
        <ele>1050.86</ele>
        <time>2025-06-22T10:37:04Z</time>
      </trkpt>
      <trkpt lat="44.81277" lon="3.95177">
        <ele>1052.78</ele>
        <time>2025-06-22T10:37:20Z</time>
      </trkpt>
      <trkpt lat="44.81258" lon="3.95197">
        <ele>1054.22</ele>
        <time>2025-06-22T10:37:35Z</time>
      </trkpt>
      <trkpt lat="44.81235" lon="3.95219">
        <ele>1056.15</ele>
        <time>2025-06-22T10:37:51Z</time>
      </trkpt>
      <trkpt lat="44.81214" lon="3.9524">
        <ele>1057.59</ele>
        <time>2025-06-22T10:38:10Z</time>
      </trkpt>
      <trkpt lat="44.8119" lon="3.95266">
        <ele>1059.51</ele>
        <time>2025-06-22T10:38:30Z</time>
      </trkpt>
      <trkpt lat="44.81176" lon="3.95285">
        <ele>1061.91</ele>
        <time>2025-06-22T10:38:45Z</time>
      </trkpt>
      <trkpt lat="44.81173" lon="3.95288">
        <ele>1060.95</ele>
        <time>2025-06-22T10:38:54Z</time>
      </trkpt>
      <trkpt lat="44.81174" lon="3.95287">
        <ele>1060.95</ele>
        <time>2025-06-22T10:38:55Z</time>
      </trkpt>
      <trkpt lat="44.81177" lon="3.95281">
        <ele>1058.07</ele>
        <time>2025-06-22T10:39:07Z</time>
      </trkpt>
      <trkpt lat="44.81165" lon="3.95297">
        <ele>1059.99</ele>
        <time>2025-06-22T10:39:22Z</time>
      </trkpt>
      <trkpt lat="44.81146" lon="3.95325">
        <ele>1063.84</ele>
        <time>2025-06-22T10:39:42Z</time>
      </trkpt>
      <trkpt lat="44.81126" lon="3.95348">
        <ele>1066.72</ele>
        <time>2025-06-22T10:39:57Z</time>
      </trkpt>
      <trkpt lat="44.81106" lon="3.95371">
        <ele>1068.64</ele>
        <time>2025-06-22T10:40:14Z</time>
      </trkpt>
      <trkpt lat="44.81085" lon="3.95393">
        <ele>1070.08</ele>
        <time>2025-06-22T10:40:32Z</time>
      </trkpt>
      <trkpt lat="44.81061" lon="3.95418">
        <ele>1072.01</ele>
        <time>2025-06-22T10:40:50Z</time>
      </trkpt>
      <trkpt lat="44.81039" lon="3.95446">
        <ele>1074.89</ele>
        <time>2025-06-22T10:41:05Z</time>
      </trkpt>
      <trkpt lat="44.81019" lon="3.95473">
        <ele>1076.33</ele>
        <time>2025-06-22T10:41:21Z</time>
      </trkpt>
      <trkpt lat="44.81013" lon="3.95504">
        <ele>1079.7</ele>
        <time>2025-06-22T10:41:38Z</time>
      </trkpt>
      <trkpt lat="44.81016" lon="3.95535">
        <ele>1081.14</ele>
        <time>2025-06-22T10:41:55Z</time>
      </trkpt>
      <trkpt lat="44.81024" lon="3.95573">
        <ele>1084.02</ele>
        <time>2025-06-22T10:42:18Z</time>
      </trkpt>
      <trkpt lat="44.81026" lon="3.95611">
        <ele>1084.99</ele>
        <time>2025-06-22T10:42:33Z</time>
      </trkpt>
      <trkpt lat="44.81027" lon="3.95642">
        <ele>1087.39</ele>
        <time>2025-06-22T10:42:51Z</time>
      </trkpt>
      <trkpt lat="44.81028" lon="3.95678">
        <ele>1089.79</ele>
        <time>2025-06-22T10:43:12Z</time>
      </trkpt>
      <trkpt lat="44.81015" lon="3.95707">
        <ele>1092.2</ele>
        <time>2025-06-22T10:43:26Z</time>
      </trkpt>
      <trkpt lat="44.80998" lon="3.95732">
        <ele>1096.04</ele>
        <time>2025-06-22T10:43:45Z</time>
      </trkpt>
      <trkpt lat="44.8098" lon="3.95754">
        <ele>1098.92</ele>
        <time>2025-06-22T10:44:04Z</time>
      </trkpt>
      <trkpt lat="44.80958" lon="3.95768">
        <ele>1101.81</ele>
        <time>2025-06-22T10:44:22Z</time>
      </trkpt>
      <trkpt lat="44.80934" lon="3.95776">
        <ele>1102.29</ele>
        <time>2025-06-22T10:44:41Z</time>
      </trkpt>
      <trkpt lat="44.8093" lon="3.95778">
        <ele>1102.77</ele>
        <time>2025-06-22T10:44:44Z</time>
      </trkpt>
      <trkpt lat="44.80909" lon="3.95803">
        <ele>1104.21</ele>
        <time>2025-06-22T10:45:03Z</time>
      </trkpt>
      <trkpt lat="44.80908" lon="3.95809">
        <ele>1104.69</ele>
        <time>2025-06-22T10:45:06Z</time>
      </trkpt>
      <trkpt lat="44.80907" lon="3.95811">
        <ele>1104.69</ele>
        <time>2025-06-22T10:45:07Z</time>
      </trkpt>
      <trkpt lat="44.80909" lon="3.9585">
        <ele>1108.06</ele>
        <time>2025-06-22T10:45:26Z</time>
      </trkpt>
      <trkpt lat="44.80911" lon="3.95884">
        <ele>1109.5</ele>
        <time>2025-06-22T10:45:44Z</time>
      </trkpt>
      <trkpt lat="44.80916" lon="3.95921">
        <ele>1107.1</ele>
        <time>2025-06-22T10:46:05Z</time>
      </trkpt>
      <trkpt lat="44.80912" lon="3.95966">
        <ele>1107.1</ele>
        <time>2025-06-22T10:46:29Z</time>
      </trkpt>
      <trkpt lat="44.80902" lon="3.95971">
        <ele>1109.02</ele>
        <time>2025-06-22T10:46:35Z</time>
      </trkpt>
      <trkpt lat="44.80899" lon="3.95971">
        <ele>1109.02</ele>
        <time>2025-06-22T10:46:36Z</time>
      </trkpt>
      <trkpt lat="44.80864" lon="3.95941">
        <ele>1111.9</ele>
        <time>2025-06-22T10:46:49Z</time>
      </trkpt>
      <trkpt lat="44.80838" lon="3.95935">
        <ele>1112.38</ele>
        <time>2025-06-22T10:47:00Z</time>
      </trkpt>
      <trkpt lat="44.8083" lon="3.95956">
        <ele>1113.82</ele>
        <time>2025-06-22T10:47:11Z</time>
      </trkpt>
      <trkpt lat="44.80821" lon="3.95987">
        <ele>1117.19</ele>
        <time>2025-06-22T10:47:26Z</time>
      </trkpt>
      <trkpt lat="44.80814" lon="3.96023">
        <ele>1119.59</ele>
        <time>2025-06-22T10:47:43Z</time>
      </trkpt>
      <trkpt lat="44.80809" lon="3.9605">
        <ele>1121.52</ele>
        <time>2025-06-22T10:47:56Z</time>
      </trkpt>
      <trkpt lat="44.80808" lon="3.96085">
        <ele>1123.44</ele>
        <time>2025-06-22T10:48:14Z</time>
      </trkpt>
      <trkpt lat="44.80797" lon="3.96116">
        <ele>1125.84</ele>
        <time>2025-06-22T10:48:32Z</time>
      </trkpt>
      <trkpt lat="44.80767" lon="3.96131">
        <ele>1126.32</ele>
        <time>2025-06-22T10:48:53Z</time>
      </trkpt>
      <trkpt lat="44.80745" lon="3.96141">
        <ele>1127.28</ele>
        <time>2025-06-22T10:49:10Z</time>
      </trkpt>
      <trkpt lat="44.80738" lon="3.96144">
        <ele>1127.76</ele>
        <time>2025-06-22T10:49:22Z</time>
      </trkpt>
      <trkpt lat="44.80738" lon="3.96146">
        <ele>1128.24</ele>
        <time>2025-06-22T10:49:23Z</time>
      </trkpt>
      <trkpt lat="44.80737" lon="3.96147">
        <ele>1128.24</ele>
        <time>2025-06-22T10:49:24Z</time>
      </trkpt>
      <trkpt lat="44.80735" lon="3.96177">
        <ele>1129.21</ele>
        <time>2025-06-22T10:49:41Z</time>
      </trkpt>
      <trkpt lat="44.80731" lon="3.96183">
        <ele>1130.65</ele>
        <time>2025-06-22T10:49:52Z</time>
      </trkpt>
      <trkpt lat="44.80731" lon="3.96182">
        <ele>1130.65</ele>
        <time>2025-06-22T10:49:53Z</time>
      </trkpt>
      <trkpt lat="44.80731" lon="3.9618">
        <ele>1130.65</ele>
        <time>2025-06-22T10:49:54Z</time>
      </trkpt>
      <trkpt lat="44.8073" lon="3.96179">
        <ele>1130.65</ele>
        <time>2025-06-22T10:49:55Z</time>
      </trkpt>
      <trkpt lat="44.8073" lon="3.96177">
        <ele>1130.65</ele>
        <time>2025-06-22T10:49:56Z</time>
      </trkpt>
      <trkpt lat="44.80729" lon="3.9616">
        <ele>1128.73</ele>
        <time>2025-06-22T10:50:07Z</time>
      </trkpt>
      <trkpt lat="44.80729" lon="3.96158">
        <ele>1128.24</ele>
        <time>2025-06-22T10:50:08Z</time>
      </trkpt>
      <trkpt lat="44.8073" lon="3.96157">
        <ele>1127.76</ele>
        <time>2025-06-22T10:50:09Z</time>
      </trkpt>
      <trkpt lat="44.80729" lon="3.96155">
        <ele>1127.76</ele>
        <time>2025-06-22T10:50:10Z</time>
      </trkpt>
      <trkpt lat="44.80728" lon="3.9615">
        <ele>1127.28</ele>
        <time>2025-06-22T10:50:15Z</time>
      </trkpt>
      <trkpt lat="44.80711" lon="3.96151">
        <ele>1123.44</ele>
        <time>2025-06-22T10:50:31Z</time>
      </trkpt>
      <trkpt lat="44.807" lon="3.96164">
        <ele>1120.55</ele>
        <time>2025-06-22T10:50:42Z</time>
      </trkpt>
      <trkpt lat="44.80685" lon="3.96167">
        <ele>1119.59</ele>
        <time>2025-06-22T10:50:54Z</time>
      </trkpt>
      <trkpt lat="44.80682" lon="3.96164">
        <ele>1119.59</ele>
        <time>2025-06-22T10:50:58Z</time>
      </trkpt>
      <trkpt lat="44.8068" lon="3.96141">
        <ele>1117.67</ele>
        <time>2025-06-22T10:51:13Z</time>
      </trkpt>
      <trkpt lat="44.80681" lon="3.96115">
        <ele>1114.79</ele>
        <time>2025-06-22T10:51:29Z</time>
      </trkpt>
      <trkpt lat="44.80695" lon="3.96088">
        <ele>1115.75</ele>
        <time>2025-06-22T10:51:47Z</time>
      </trkpt>
      <trkpt lat="44.80696" lon="3.96087">
        <ele>1115.75</ele>
        <time>2025-06-22T10:51:48Z</time>
      </trkpt>
      <trkpt lat="44.807" lon="3.96084">
        <ele>1115.27</ele>
        <time>2025-06-22T10:51:52Z</time>
      </trkpt>
      <trkpt lat="44.807" lon="3.96085">
        <ele>1113.34</ele>
        <time>2025-06-22T10:52:05Z</time>
      </trkpt>
      <trkpt lat="44.80686" lon="3.96099">
        <ele>1114.79</ele>
        <time>2025-06-22T10:52:26Z</time>
      </trkpt>
      <trkpt lat="44.80667" lon="3.96106">
        <ele>1112.86</ele>
        <time>2025-06-22T10:52:45Z</time>
      </trkpt>
      <trkpt lat="44.80654" lon="3.96114">
        <ele>1110.94</ele>
        <time>2025-06-22T10:52:53Z</time>
      </trkpt>
      <trkpt lat="44.80652" lon="3.96115">
        <ele>1110.94</ele>
        <time>2025-06-22T10:52:54Z</time>
      </trkpt>
      <trkpt lat="44.80641" lon="3.96125">
        <ele>1108.54</ele>
        <time>2025-06-22T10:53:06Z</time>
      </trkpt>
      <trkpt lat="44.80642" lon="3.96127">
        <ele>1108.54</ele>
        <time>2025-06-22T10:53:07Z</time>
      </trkpt>
      <trkpt lat="44.80642" lon="3.96129">
        <ele>1108.06</ele>
        <time>2025-06-22T10:53:08Z</time>
      </trkpt>
      <trkpt lat="44.80641" lon="3.96153">
        <ele>1102.29</ele>
        <time>2025-06-22T10:53:26Z</time>
      </trkpt>
      <trkpt lat="44.80635" lon="3.96179">
        <ele>1096.52</ele>
        <time>2025-06-22T10:53:41Z</time>
      </trkpt>
      <trkpt lat="44.80626" lon="3.96201">
        <ele>1094.12</ele>
        <time>2025-06-22T10:53:58Z</time>
      </trkpt>
      <trkpt lat="44.80615" lon="3.96224">
        <ele>1094.12</ele>
        <time>2025-06-22T10:54:13Z</time>
      </trkpt>
      <trkpt lat="44.80601" lon="3.96251">
        <ele>1095.08</ele>
        <time>2025-06-22T10:54:32Z</time>
      </trkpt>
      <trkpt lat="44.80586" lon="3.96277">
        <ele>1094.12</ele>
        <time>2025-06-22T10:54:51Z</time>
      </trkpt>
      <trkpt lat="44.80571" lon="3.96297">
        <ele>1096.52</ele>
        <time>2025-06-22T10:55:09Z</time>
      </trkpt>
      <trkpt lat="44.80561" lon="3.96327">
        <ele>1101.33</ele>
        <time>2025-06-22T10:55:27Z</time>
      </trkpt>
      <trkpt lat="44.80545" lon="3.96352">
        <ele>1108.06</ele>
        <time>2025-06-22T10:55:46Z</time>
      </trkpt>
      <trkpt lat="44.80527" lon="3.96376">
        <ele>1110.94</ele>
        <time>2025-06-22T10:56:07Z</time>
      </trkpt>
      <trkpt lat="44.80497" lon="3.96392">
        <ele>1110.94</ele>
        <time>2025-06-22T10:56:27Z</time>
      </trkpt>
      <trkpt lat="44.80471" lon="3.96401">
        <ele>1105.65</ele>
        <time>2025-06-22T10:56:46Z</time>
      </trkpt>
      <trkpt lat="44.80463" lon="3.96405">
        <ele>1103.25</ele>
        <time>2025-06-22T10:56:53Z</time>
      </trkpt>
      <trkpt lat="44.80439" lon="3.9641">
        <ele>1098.92</ele>
        <time>2025-06-22T10:57:11Z</time>
      </trkpt>
      <trkpt lat="44.80417" lon="3.96408">
        <ele>1097.48</ele>
        <time>2025-06-22T10:57:29Z</time>
      </trkpt>
      <trkpt lat="44.80404" lon="3.96386">
        <ele>1096.04</ele>
        <time>2025-06-22T10:57:44Z</time>
      </trkpt>
      <trkpt lat="44.80385" lon="3.96377">
        <ele>1093.16</ele>
        <time>2025-06-22T10:58:03Z</time>
      </trkpt>
      <trkpt lat="44.80357" lon="3.96379">
        <ele>1088.35</ele>
        <time>2025-06-22T10:58:25Z</time>
      </trkpt>
      <trkpt lat="44.80328" lon="3.96374">
        <ele>1086.91</ele>
        <time>2025-06-22T10:58:45Z</time>
      </trkpt>
      <trkpt lat="44.80303" lon="3.96365">
        <ele>1086.91</ele>
        <time>2025-06-22T10:59:03Z</time>
      </trkpt>
      <trkpt lat="44.80301" lon="3.96363">
        <ele>1086.91</ele>
        <time>2025-06-22T10:59:05Z</time>
      </trkpt>
      <trkpt lat="44.803" lon="3.96362">
        <ele>1086.91</ele>
        <time>2025-06-22T10:59:06Z</time>
      </trkpt>
      <trkpt lat="44.80298" lon="3.96362">
        <ele>1086.91</ele>
        <time>2025-06-22T10:59:07Z</time>
      </trkpt>
      <trkpt lat="44.80297" lon="3.96361">
        <ele>1086.91</ele>
        <time>2025-06-22T10:59:08Z</time>
      </trkpt>
      <trkpt lat="44.80296" lon="3.9636">
        <ele>1087.39</ele>
        <time>2025-06-22T10:59:09Z</time>
      </trkpt>
      <trkpt lat="44.80295" lon="3.9636">
        <ele>1087.39</ele>
        <time>2025-06-22T10:59:10Z</time>
      </trkpt>
      <trkpt lat="44.80294" lon="3.96359">
        <ele>1087.87</ele>
        <time>2025-06-22T10:59:11Z</time>
      </trkpt>
      <trkpt lat="44.80274" lon="3.9635">
        <ele>1089.79</ele>
        <time>2025-06-22T10:59:28Z</time>
      </trkpt>
      <trkpt lat="44.80254" lon="3.96345">
        <ele>1090.75</ele>
        <time>2025-06-22T10:59:44Z</time>
      </trkpt>
      <trkpt lat="44.8023" lon="3.96339">
        <ele>1092.2</ele>
        <time>2025-06-22T11:00:03Z</time>
      </trkpt>
      <trkpt lat="44.80211" lon="3.96337">
        <ele>1093.16</ele>
        <time>2025-06-22T11:00:18Z</time>
      </trkpt>
      <trkpt lat="44.80191" lon="3.96326">
        <ele>1092.68</ele>
        <time>2025-06-22T11:00:34Z</time>
      </trkpt>
      <trkpt lat="44.8019" lon="3.96318">
        <ele>1091.71</ele>
        <time>2025-06-22T11:00:41Z</time>
      </trkpt>
      <trkpt lat="44.8019" lon="3.96317">
        <ele>1091.23</ele>
        <time>2025-06-22T11:00:42Z</time>
      </trkpt>
      <trkpt lat="44.8019" lon="3.96315">
        <ele>1091.23</ele>
        <time>2025-06-22T11:00:43Z</time>
      </trkpt>
      <trkpt lat="44.8019" lon="3.96313">
        <ele>1090.75</ele>
        <time>2025-06-22T11:00:44Z</time>
      </trkpt>
      <trkpt lat="44.8019" lon="3.96312">
        <ele>1090.75</ele>
        <time>2025-06-22T11:00:45Z</time>
      </trkpt>
      <trkpt lat="44.80191" lon="3.9631">
        <ele>1090.75</ele>
        <time>2025-06-22T11:00:46Z</time>
      </trkpt>
      <trkpt lat="44.80191" lon="3.96308">
        <ele>1090.27</ele>
        <time>2025-06-22T11:00:47Z</time>
      </trkpt>
      <trkpt lat="44.80192" lon="3.96306">
        <ele>1090.27</ele>
        <time>2025-06-22T11:00:48Z</time>
      </trkpt>
      <trkpt lat="44.80192" lon="3.96304">
        <ele>1090.27</ele>
        <time>2025-06-22T11:00:49Z</time>
      </trkpt>
      <trkpt lat="44.802" lon="3.96266">
        <ele>1091.71</ele>
        <time>2025-06-22T11:01:09Z</time>
      </trkpt>
      <trkpt lat="44.80202" lon="3.96255">
        <ele>1091.23</ele>
        <time>2025-06-22T11:01:18Z</time>
      </trkpt>
      <trkpt lat="44.80187" lon="3.96237">
        <ele>1087.87</ele>
        <time>2025-06-22T11:01:34Z</time>
      </trkpt>
      <trkpt lat="44.80173" lon="3.96212">
        <ele>1083.54</ele>
        <time>2025-06-22T11:01:52Z</time>
      </trkpt>
      <trkpt lat="44.80171" lon="3.96202">
        <ele>1081.14</ele>
        <time>2025-06-22T11:01:59Z</time>
      </trkpt>
      <trkpt lat="44.80172" lon="3.962">
        <ele>1081.62</ele>
        <time>2025-06-22T11:02:00Z</time>
      </trkpt>
      <trkpt lat="44.80177" lon="3.96165">
        <ele>1080.66</ele>
        <time>2025-06-22T11:02:16Z</time>
      </trkpt>
      <trkpt lat="44.80192" lon="3.96129">
        <ele>1085.47</ele>
        <time>2025-06-22T11:02:33Z</time>
      </trkpt>
      <trkpt lat="44.80207" lon="3.96103">
        <ele>1088.83</ele>
        <time>2025-06-22T11:02:49Z</time>
      </trkpt>
      <trkpt lat="44.80221" lon="3.9608">
        <ele>1089.31</ele>
        <time>2025-06-22T11:03:05Z</time>
      </trkpt>
      <trkpt lat="44.80228" lon="3.96055">
        <ele>1090.75</ele>
        <time>2025-06-22T11:03:19Z</time>
      </trkpt>
      <trkpt lat="44.80233" lon="3.96027">
        <ele>1092.2</ele>
        <time>2025-06-22T11:03:36Z</time>
      </trkpt>
      <trkpt lat="44.80241" lon="3.95998">
        <ele>1093.16</ele>
        <time>2025-06-22T11:03:52Z</time>
      </trkpt>
      <trkpt lat="44.80245" lon="3.95976">
        <ele>1094.6</ele>
        <time>2025-06-22T11:04:09Z</time>
      </trkpt>
      <trkpt lat="44.80249" lon="3.95957">
        <ele>1098.44</ele>
        <time>2025-06-22T11:04:24Z</time>
      </trkpt>
      <trkpt lat="44.80253" lon="3.95947">
        <ele>1101.33</ele>
        <time>2025-06-22T11:04:38Z</time>
      </trkpt>
      <trkpt lat="44.80253" lon="3.95945">
        <ele>1101.33</ele>
        <time>2025-06-22T11:04:39Z</time>
      </trkpt>
      <trkpt lat="44.80254" lon="3.9594">
        <ele>1101.81</ele>
        <time>2025-06-22T11:04:42Z</time>
      </trkpt>
      <trkpt lat="44.8026" lon="3.95924">
        <ele>1104.21</ele>
        <time>2025-06-22T11:04:57Z</time>
      </trkpt>
      <trkpt lat="44.8026" lon="3.95902">
        <ele>1106.13</ele>
        <time>2025-06-22T11:05:17Z</time>
      </trkpt>
      <trkpt lat="44.80259" lon="3.95891">
        <ele>1107.1</ele>
        <time>2025-06-22T11:05:47Z</time>
      </trkpt>
      <trkpt lat="44.80263" lon="3.9588">
        <ele>1104.69</ele>
        <time>2025-06-22T11:06:03Z</time>
      </trkpt>
      <trkpt lat="44.80263" lon="3.95892">
        <ele>1097.48</ele>
        <time>2025-06-22T11:06:23Z</time>
      </trkpt>
      <trkpt lat="44.80268" lon="3.95886">
        <ele>1098.92</ele>
        <time>2025-06-22T11:06:45Z</time>
      </trkpt>
      <trkpt lat="44.80266" lon="3.95887">
        <ele>1097.48</ele>
        <time>2025-06-22T11:07:09Z</time>
      </trkpt>
      <trkpt lat="44.80265" lon="3.95885">
        <ele>1092.68</ele>
        <time>2025-06-22T11:07:29Z</time>
      </trkpt>
      <trkpt lat="44.8026" lon="3.9588">
        <ele>1091.23</ele>
        <time>2025-06-22T11:07:48Z</time>
      </trkpt>
      <trkpt lat="44.80262" lon="3.95881">
        <ele>1092.68</ele>
        <time>2025-06-22T11:08:16Z</time>
      </trkpt>
      <trkpt lat="44.80265" lon="3.95887">
        <ele>1097</ele>
        <time>2025-06-22T11:08:35Z</time>
      </trkpt>
      <trkpt lat="44.80265" lon="3.95886">
        <ele>1098.44</ele>
        <time>2025-06-22T11:08:55Z</time>
      </trkpt>
      <trkpt lat="44.80267" lon="3.95884">
        <ele>1100.85</ele>
        <time>2025-06-22T11:09:15Z</time>
      </trkpt>
      <trkpt lat="44.80264" lon="3.95881">
        <ele>1097.96</ele>
        <time>2025-06-22T11:09:38Z</time>
      </trkpt>
      <trkpt lat="44.80261" lon="3.95885">
        <ele>1098.44</ele>
        <time>2025-06-22T11:09:54Z</time>
      </trkpt>
      <trkpt lat="44.80265" lon="3.95885">
        <ele>1097.48</ele>
        <time>2025-06-22T11:10:11Z</time>
      </trkpt>
      <trkpt lat="44.80265" lon="3.9588">
        <ele>1097</ele>
        <time>2025-06-22T11:10:31Z</time>
      </trkpt>
      <trkpt lat="44.80267" lon="3.95881">
        <ele>1097.96</ele>
        <time>2025-06-22T11:10:55Z</time>
      </trkpt>
      <trkpt lat="44.80261" lon="3.95885">
        <ele>1099.4</ele>
        <time>2025-06-22T11:11:11Z</time>
      </trkpt>
      <trkpt lat="44.80264" lon="3.95889">
        <ele>1099.4</ele>
        <time>2025-06-22T11:11:38Z</time>
      </trkpt>
      <trkpt lat="44.80264" lon="3.9588">
        <ele>1099.4</ele>
        <time>2025-06-22T11:12:10Z</time>
      </trkpt>
      <trkpt lat="44.80266" lon="3.95884">
        <ele>1101.33</ele>
        <time>2025-06-22T11:12:29Z</time>
      </trkpt>
      <trkpt lat="44.80269" lon="3.95884">
        <ele>1104.69</ele>
        <time>2025-06-22T11:12:59Z</time>
      </trkpt>
      <trkpt lat="44.80262" lon="3.95884">
        <ele>1099.4</ele>
        <time>2025-06-22T11:13:28Z</time>
      </trkpt>
      <trkpt lat="44.80265" lon="3.9588">
        <ele>1097.48</ele>
        <time>2025-06-22T11:13:52Z</time>
      </trkpt>
      <trkpt lat="44.80277" lon="3.95874">
        <ele>1099.89</ele>
        <time>2025-06-22T11:14:09Z</time>
      </trkpt>
      <trkpt lat="44.80284" lon="3.95878">
        <ele>1098.44</ele>
        <time>2025-06-22T11:14:37Z</time>
      </trkpt>
      <trkpt lat="44.80284" lon="3.95879">
        <ele>1100.37</ele>
        <time>2025-06-22T11:14:56Z</time>
      </trkpt>
      <trkpt lat="44.80275" lon="3.95886">
        <ele>1102.77</ele>
        <time>2025-06-22T11:15:15Z</time>
      </trkpt>
      <trkpt lat="44.80272" lon="3.95887">
        <ele>1106.61</ele>
        <time>2025-06-22T11:15:34Z</time>
      </trkpt>
      <trkpt lat="44.80274" lon="3.95887">
        <ele>1107.1</ele>
        <time>2025-06-22T11:15:50Z</time>
      </trkpt>
      <trkpt lat="44.80268" lon="3.95884">
        <ele>1105.17</ele>
        <time>2025-06-22T11:16:12Z</time>
      </trkpt>
      <trkpt lat="44.80267" lon="3.95875">
        <ele>1105.17</ele>
        <time>2025-06-22T11:16:36Z</time>
      </trkpt>
      <trkpt lat="44.80263" lon="3.95877">
        <ele>1103.73</ele>
        <time>2025-06-22T11:16:57Z</time>
      </trkpt>
      <trkpt lat="44.80264" lon="3.95881">
        <ele>1101.33</ele>
        <time>2025-06-22T11:17:14Z</time>
      </trkpt>
      <trkpt lat="44.80264" lon="3.95881">
        <ele>1098.92</ele>
        <time>2025-06-22T11:17:30Z</time>
      </trkpt>
      <trkpt lat="44.80332" lon="3.95546">
        <ele>1195.06</ele>
        <time>2025-06-22T14:18:03Z</time>
      </trkpt>
      <trkpt lat="44.8031" lon="3.95571">
        <ele>1221.49</ele>
        <time>2025-06-22T14:18:18Z</time>
      </trkpt>
      <trkpt lat="44.80293" lon="3.95587">
        <ele>1240.24</ele>
        <time>2025-06-22T14:18:30Z</time>
      </trkpt>
      <trkpt lat="44.80271" lon="3.95618">
        <ele>1262.35</ele>
        <time>2025-06-22T14:18:47Z</time>
      </trkpt>
      <trkpt lat="44.8025" lon="3.95663">
        <ele>1294.07</ele>
        <time>2025-06-22T14:19:06Z</time>
      </trkpt>
      <trkpt lat="44.8023" lon="3.95692">
        <ele>1317.62</ele>
        <time>2025-06-22T14:19:22Z</time>
      </trkpt>
      <trkpt lat="44.80206" lon="3.95715">
        <ele>1345.02</ele>
        <time>2025-06-22T14:19:41Z</time>
      </trkpt>
      <trkpt lat="44.80176" lon="3.95748">
        <ele>1372.9</ele>
        <time>2025-06-22T14:20:00Z</time>
      </trkpt>
      <trkpt lat="44.80155" lon="3.95768">
        <ele>1389.24</ele>
        <time>2025-06-22T14:20:14Z</time>
      </trkpt>
      <trkpt lat="44.80125" lon="3.95785">
        <ele>1409.43</ele>
        <time>2025-06-22T14:20:36Z</time>
      </trkpt>
      <trkpt lat="44.80099" lon="3.95786">
        <ele>1406.07</ele>
        <time>2025-06-22T14:20:56Z</time>
      </trkpt>
      <trkpt lat="44.80073" lon="3.95799">
        <ele>1424.33</ele>
        <time>2025-06-22T14:21:19Z</time>
      </trkpt>
      <trkpt lat="44.80056" lon="3.95717">
        <ele>1302.24</ele>
        <time>2025-06-22T14:21:40Z</time>
      </trkpt>
      <trkpt lat="44.80045" lon="3.95685">
        <ele>1234.95</ele>
        <time>2025-06-22T14:22:02Z</time>
      </trkpt>
      <trkpt lat="44.80039" lon="3.95674">
        <ele>1200.34</ele>
        <time>2025-06-22T14:22:17Z</time>
      </trkpt>
      <trkpt lat="44.80038" lon="3.95678">
        <ele>1196.98</ele>
        <time>2025-06-22T14:22:21Z</time>
      </trkpt>
      <trkpt lat="44.80025" lon="3.95692">
        <ele>1192.17</ele>
        <time>2025-06-22T14:22:38Z</time>
      </trkpt>
      <trkpt lat="44.80011" lon="3.9571">
        <ele>1189.29</ele>
        <time>2025-06-22T14:22:57Z</time>
      </trkpt>
      <trkpt lat="44.79993" lon="3.95724">
        <ele>1188.81</ele>
        <time>2025-06-22T14:23:14Z</time>
      </trkpt>
      <trkpt lat="44.79974" lon="3.95729">
        <ele>1188.81</ele>
        <time>2025-06-22T14:23:31Z</time>
      </trkpt>
      <trkpt lat="44.79959" lon="3.95744">
        <ele>1190.73</ele>
        <time>2025-06-22T14:23:49Z</time>
      </trkpt>
      <trkpt lat="44.79951" lon="3.95768">
        <ele>1192.17</ele>
        <time>2025-06-22T14:24:04Z</time>
      </trkpt>
      <trkpt lat="44.79952" lon="3.95793">
        <ele>1192.65</ele>
        <time>2025-06-22T14:24:22Z</time>
      </trkpt>
      <trkpt lat="44.79952" lon="3.95816">
        <ele>1193.61</ele>
        <time>2025-06-22T14:24:40Z</time>
      </trkpt>
      <trkpt lat="44.79932" lon="3.9585">
        <ele>1192.65</ele>
        <time>2025-06-22T14:24:56Z</time>
      </trkpt>
      <trkpt lat="44.79916" lon="3.95874">
        <ele>1192.17</ele>
        <time>2025-06-22T14:25:11Z</time>
      </trkpt>
      <trkpt lat="44.79907" lon="3.9589">
        <ele>1191.21</ele>
        <time>2025-06-22T14:25:29Z</time>
      </trkpt>
      <trkpt lat="44.79892" lon="3.95917">
        <ele>1188.33</ele>
        <time>2025-06-22T14:25:47Z</time>
      </trkpt>
      <trkpt lat="44.79879" lon="3.95931">
        <ele>1191.69</ele>
        <time>2025-06-22T14:26:02Z</time>
      </trkpt>
      <trkpt lat="44.79871" lon="3.9594">
        <ele>1193.61</ele>
        <time>2025-06-22T14:26:10Z</time>
      </trkpt>
      <trkpt lat="44.79857" lon="3.95956">
        <ele>1194.09</ele>
        <time>2025-06-22T14:26:24Z</time>
      </trkpt>
      <trkpt lat="44.79842" lon="3.95968">
        <ele>1189.29</ele>
        <time>2025-06-22T14:26:40Z</time>
      </trkpt>
      <trkpt lat="44.79824" lon="3.95985">
        <ele>1188.33</ele>
        <time>2025-06-22T14:26:54Z</time>
      </trkpt>
      <trkpt lat="44.79806" lon="3.95995">
        <ele>1193.13</ele>
        <time>2025-06-22T14:27:06Z</time>
      </trkpt>
      <trkpt lat="44.79791" lon="3.96001">
        <ele>1194.58</ele>
        <time>2025-06-22T14:27:22Z</time>
      </trkpt>
      <trkpt lat="44.79778" lon="3.9601">
        <ele>1197.94</ele>
        <time>2025-06-22T14:27:33Z</time>
      </trkpt>
      <trkpt lat="44.79764" lon="3.96026">
        <ele>1201.3</ele>
        <time>2025-06-22T14:27:44Z</time>
      </trkpt>
      <trkpt lat="44.79753" lon="3.96043">
        <ele>1206.11</ele>
        <time>2025-06-22T14:27:56Z</time>
      </trkpt>
      <trkpt lat="44.79736" lon="3.96063">
        <ele>1210.92</ele>
        <time>2025-06-22T14:28:12Z</time>
      </trkpt>
      <trkpt lat="44.79721" lon="3.96077">
        <ele>1214.76</ele>
        <time>2025-06-22T14:28:26Z</time>
      </trkpt>
      <trkpt lat="44.79703" lon="3.96098">
        <ele>1217.65</ele>
        <time>2025-06-22T14:28:41Z</time>
      </trkpt>
      <trkpt lat="44.79693" lon="3.96114">
        <ele>1201.79</ele>
        <time>2025-06-22T14:28:54Z</time>
      </trkpt>
      <trkpt lat="44.79683" lon="3.96117">
        <ele>1195.54</ele>
        <time>2025-06-22T14:29:07Z</time>
      </trkpt>
      <trkpt lat="44.79682" lon="3.96117">
        <ele>1195.54</ele>
        <time>2025-06-22T14:29:08Z</time>
      </trkpt>
      <trkpt lat="44.7968" lon="3.96116">
        <ele>1195.54</ele>
        <time>2025-06-22T14:29:09Z</time>
      </trkpt>
      <trkpt lat="44.79678" lon="3.96116">
        <ele>1195.06</ele>
        <time>2025-06-22T14:29:10Z</time>
      </trkpt>
      <trkpt lat="44.79654" lon="3.96113">
        <ele>1195.06</ele>
        <time>2025-06-22T14:29:23Z</time>
      </trkpt>
      <trkpt lat="44.79632" lon="3.96124">
        <ele>1198.9</ele>
        <time>2025-06-22T14:29:39Z</time>
      </trkpt>
      <trkpt lat="44.79613" lon="3.96143">
        <ele>1204.19</ele>
        <time>2025-06-22T14:29:59Z</time>
      </trkpt>
      <trkpt lat="44.79597" lon="3.9616">
        <ele>1206.59</ele>
        <time>2025-06-22T14:30:16Z</time>
      </trkpt>
      <trkpt lat="44.79578" lon="3.96174">
        <ele>1205.63</ele>
        <time>2025-06-22T14:30:36Z</time>
      </trkpt>
      <trkpt lat="44.79553" lon="3.96194">
        <ele>1203.23</ele>
        <time>2025-06-22T14:30:55Z</time>
      </trkpt>
      <trkpt lat="44.79534" lon="3.96202">
        <ele>1201.79</ele>
        <time>2025-06-22T14:31:09Z</time>
      </trkpt>
      <trkpt lat="44.79509" lon="3.96202">
        <ele>1198.9</ele>
        <time>2025-06-22T14:31:29Z</time>
      </trkpt>
      <trkpt lat="44.79485" lon="3.96207">
        <ele>1196.5</ele>
        <time>2025-06-22T14:31:48Z</time>
      </trkpt>
      <trkpt lat="44.79469" lon="3.96204">
        <ele>1197.46</ele>
        <time>2025-06-22T14:32:02Z</time>
      </trkpt>
      <trkpt lat="44.7945" lon="3.96204">
        <ele>1198.9</ele>
        <time>2025-06-22T14:32:17Z</time>
      </trkpt>
      <trkpt lat="44.79429" lon="3.96211">
        <ele>1200.34</ele>
        <time>2025-06-22T14:32:33Z</time>
      </trkpt>
      <trkpt lat="44.79411" lon="3.96227">
        <ele>1200.82</ele>
        <time>2025-06-22T14:32:49Z</time>
      </trkpt>
      <trkpt lat="44.79394" lon="3.96243">
        <ele>1199.86</ele>
        <time>2025-06-22T14:33:06Z</time>
      </trkpt>
      <trkpt lat="44.79376" lon="3.96261">
        <ele>1197.46</ele>
        <time>2025-06-22T14:33:25Z</time>
      </trkpt>
      <trkpt lat="44.7936" lon="3.96283">
        <ele>1197.94</ele>
        <time>2025-06-22T14:33:43Z</time>
      </trkpt>
      <trkpt lat="44.79346" lon="3.96305">
        <ele>1199.38</ele>
        <time>2025-06-22T14:34:00Z</time>
      </trkpt>
      <trkpt lat="44.7933" lon="3.9632">
        <ele>1199.86</ele>
        <time>2025-06-22T14:34:18Z</time>
      </trkpt>
      <trkpt lat="44.7933" lon="3.96318">
        <ele>1199.86</ele>
        <time>2025-06-22T14:34:19Z</time>
      </trkpt>
      <trkpt lat="44.79329" lon="3.96314">
        <ele>1200.34</ele>
        <time>2025-06-22T14:34:22Z</time>
      </trkpt>
      <trkpt lat="44.79329" lon="3.96312">
        <ele>1200.34</ele>
        <time>2025-06-22T14:34:23Z</time>
      </trkpt>
      <trkpt lat="44.79331" lon="3.96283">
        <ele>1201.79</ele>
        <time>2025-06-22T14:34:40Z</time>
      </trkpt>
      <trkpt lat="44.79332" lon="3.96255">
        <ele>1203.71</ele>
        <time>2025-06-22T14:34:56Z</time>
      </trkpt>
      <trkpt lat="44.79334" lon="3.96224">
        <ele>1203.23</ele>
        <time>2025-06-22T14:35:13Z</time>
      </trkpt>
      <trkpt lat="44.79336" lon="3.96196">
        <ele>1202.75</ele>
        <time>2025-06-22T14:35:29Z</time>
      </trkpt>
      <trkpt lat="44.79338" lon="3.9617">
        <ele>1205.15</ele>
        <time>2025-06-22T14:35:47Z</time>
      </trkpt>
      <trkpt lat="44.79338" lon="3.96148">
        <ele>1207.55</ele>
        <time>2025-06-22T14:36:01Z</time>
      </trkpt>
      <trkpt lat="44.79336" lon="3.9612">
        <ele>1209</ele>
        <time>2025-06-22T14:36:18Z</time>
      </trkpt>
      <trkpt lat="44.79342" lon="3.96108">
        <ele>1208.51</ele>
        <time>2025-06-22T14:36:26Z</time>
      </trkpt>
      <trkpt lat="44.79349" lon="3.96075">
        <ele>1209</ele>
        <time>2025-06-22T14:36:44Z</time>
      </trkpt>
      <trkpt lat="44.79355" lon="3.96036">
        <ele>1208.03</ele>
        <time>2025-06-22T14:37:04Z</time>
      </trkpt>
      <trkpt lat="44.79359" lon="3.96001">
        <ele>1207.07</ele>
        <time>2025-06-22T14:37:21Z</time>
      </trkpt>
      <trkpt lat="44.79361" lon="3.95959">
        <ele>1204.67</ele>
        <time>2025-06-22T14:37:41Z</time>
      </trkpt>
      <trkpt lat="44.79362" lon="3.95917">
        <ele>1202.27</ele>
        <time>2025-06-22T14:38:02Z</time>
      </trkpt>
      <trkpt lat="44.79362" lon="3.95873">
        <ele>1200.34</ele>
        <time>2025-06-22T14:38:24Z</time>
      </trkpt>
      <trkpt lat="44.79362" lon="3.95837">
        <ele>1198.42</ele>
        <time>2025-06-22T14:38:43Z</time>
      </trkpt>
      <trkpt lat="44.79363" lon="3.95803">
        <ele>1196.02</ele>
        <time>2025-06-22T14:39:01Z</time>
      </trkpt>
      <trkpt lat="44.79363" lon="3.95766">
        <ele>1193.61</ele>
        <time>2025-06-22T14:39:21Z</time>
      </trkpt>
      <trkpt lat="44.79361" lon="3.95749">
        <ele>1192.17</ele>
        <time>2025-06-22T14:39:32Z</time>
      </trkpt>
      <trkpt lat="44.7936" lon="3.95719">
        <ele>1190.25</ele>
        <time>2025-06-22T14:39:49Z</time>
      </trkpt>
      <trkpt lat="44.79361" lon="3.95686">
        <ele>1188.33</ele>
        <time>2025-06-22T14:40:06Z</time>
      </trkpt>
      <trkpt lat="44.79359" lon="3.95667">
        <ele>1187.37</ele>
        <time>2025-06-22T14:40:20Z</time>
      </trkpt>
      <trkpt lat="44.79376" lon="3.95647">
        <ele>1185.92</ele>
        <time>2025-06-22T14:40:40Z</time>
      </trkpt>
      <trkpt lat="44.79389" lon="3.95625">
        <ele>1184.48</ele>
        <time>2025-06-22T14:40:56Z</time>
      </trkpt>
      <trkpt lat="44.79399" lon="3.95594">
        <ele>1181.12</ele>
        <time>2025-06-22T14:41:15Z</time>
      </trkpt>
      <trkpt lat="44.79404" lon="3.95568">
        <ele>1179.19</ele>
        <time>2025-06-22T14:41:32Z</time>
      </trkpt>
      <trkpt lat="44.79409" lon="3.95541">
        <ele>1178.71</ele>
        <time>2025-06-22T14:41:47Z</time>
      </trkpt>
      <trkpt lat="44.79409" lon="3.95531">
        <ele>1178.23</ele>
        <time>2025-06-22T14:41:53Z</time>
      </trkpt>
      <trkpt lat="44.79408" lon="3.95528">
        <ele>1177.75</ele>
        <time>2025-06-22T14:42:02Z</time>
      </trkpt>
      <trkpt lat="44.79415" lon="3.95498">
        <ele>1176.31</ele>
        <time>2025-06-22T14:42:20Z</time>
      </trkpt>
      <trkpt lat="44.79414" lon="3.95471">
        <ele>1176.31</ele>
        <time>2025-06-22T14:42:39Z</time>
      </trkpt>
      <trkpt lat="44.79412" lon="3.95471">
        <ele>1175.83</ele>
        <time>2025-06-22T14:42:51Z</time>
      </trkpt>
      <trkpt lat="44.79407" lon="3.95466">
        <ele>1175.83</ele>
        <time>2025-06-22T14:43:03Z</time>
      </trkpt>
      <trkpt lat="44.79394" lon="3.95467">
        <ele>1175.83</ele>
        <time>2025-06-22T14:43:13Z</time>
      </trkpt>
      <trkpt lat="44.79391" lon="3.95466">
        <ele>1175.83</ele>
        <time>2025-06-22T14:43:15Z</time>
      </trkpt>
      <trkpt lat="44.79389" lon="3.95464">
        <ele>1175.83</ele>
        <time>2025-06-22T14:43:16Z</time>
      </trkpt>
      <trkpt lat="44.79374" lon="3.95455">
        <ele>1171.98</ele>
        <time>2025-06-22T14:43:28Z</time>
      </trkpt>
      <trkpt lat="44.7935" lon="3.95466">
        <ele>1169.1</ele>
        <time>2025-06-22T14:43:47Z</time>
      </trkpt>
      <trkpt lat="44.79327" lon="3.95473">
        <ele>1168.14</ele>
        <time>2025-06-22T14:44:06Z</time>
      </trkpt>
      <trkpt lat="44.79307" lon="3.95462">
        <ele>1165.26</ele>
        <time>2025-06-22T14:44:22Z</time>
      </trkpt>
      <trkpt lat="44.79289" lon="3.9545">
        <ele>1165.26</ele>
        <time>2025-06-22T14:44:39Z</time>
      </trkpt>
      <trkpt lat="44.79277" lon="3.95445">
        <ele>1165.26</ele>
        <time>2025-06-22T14:44:50Z</time>
      </trkpt>
      <trkpt lat="44.79276" lon="3.95444">
        <ele>1165.26</ele>
        <time>2025-06-22T14:44:51Z</time>
      </trkpt>
      <trkpt lat="44.79276" lon="3.95442">
        <ele>1164.77</ele>
        <time>2025-06-22T14:44:52Z</time>
      </trkpt>
      <trkpt lat="44.79266" lon="3.95416">
        <ele>1162.37</ele>
        <time>2025-06-22T14:45:09Z</time>
      </trkpt>
      <trkpt lat="44.79262" lon="3.95384">
        <ele>1160.45</ele>
        <time>2025-06-22T14:45:27Z</time>
      </trkpt>
      <trkpt lat="44.79257" lon="3.95349">
        <ele>1157.56</ele>
        <time>2025-06-22T14:45:46Z</time>
      </trkpt>
      <trkpt lat="44.79262" lon="3.95321">
        <ele>1154.2</ele>
        <time>2025-06-22T14:46:02Z</time>
      </trkpt>
      <trkpt lat="44.79278" lon="3.95302">
        <ele>1152.28</ele>
        <time>2025-06-22T14:46:18Z</time>
      </trkpt>
      <trkpt lat="44.79285" lon="3.95282">
        <ele>1150.35</ele>
        <time>2025-06-22T14:46:31Z</time>
      </trkpt>
      <trkpt lat="44.79279" lon="3.95254">
        <ele>1148.43</ele>
        <time>2025-06-22T14:46:48Z</time>
      </trkpt>
      <trkpt lat="44.79266" lon="3.95234">
        <ele>1146.03</ele>
        <time>2025-06-22T14:47:03Z</time>
      </trkpt>
      <trkpt lat="44.79247" lon="3.95218">
        <ele>1144.11</ele>
        <time>2025-06-22T14:47:19Z</time>
      </trkpt>
      <trkpt lat="44.79236" lon="3.95186">
        <ele>1144.11</ele>
        <time>2025-06-22T14:47:32Z</time>
      </trkpt>
      <trkpt lat="44.79223" lon="3.95144">
        <ele>1144.11</ele>
        <time>2025-06-22T14:47:45Z</time>
      </trkpt>
      <trkpt lat="44.79215" lon="3.95118">
        <ele>1146.51</ele>
        <time>2025-06-22T14:48:00Z</time>
      </trkpt>
      <trkpt lat="44.79199" lon="3.95074">
        <ele>1147.95</ele>
        <time>2025-06-22T14:48:13Z</time>
      </trkpt>
      <trkpt lat="44.79189" lon="3.95026">
        <ele>1150.84</ele>
        <time>2025-06-22T14:48:24Z</time>
      </trkpt>
      <trkpt lat="44.79174" lon="3.9498">
        <ele>1154.2</ele>
        <time>2025-06-22T14:48:36Z</time>
      </trkpt>
      <trkpt lat="44.79116" lon="3.94907">
        <ele>1162.85</ele>
        <time>2025-06-22T14:48:53Z</time>
      </trkpt>
      <trkpt lat="44.79098" lon="3.94884">
        <ele>1167.66</ele>
        <time>2025-06-22T14:49:04Z</time>
      </trkpt>
      <trkpt lat="44.79112" lon="3.94862">
        <ele>1167.18</ele>
        <time>2025-06-22T14:49:19Z</time>
      </trkpt>
      <trkpt lat="44.79113" lon="3.9486">
        <ele>1166.22</ele>
        <time>2025-06-22T14:49:32Z</time>
      </trkpt>
      <trkpt lat="44.79112" lon="3.94861">
        <ele>1166.22</ele>
        <time>2025-06-22T14:49:33Z</time>
      </trkpt>
      <trkpt lat="44.79111" lon="3.94862">
        <ele>1166.22</ele>
        <time>2025-06-22T14:49:34Z</time>
      </trkpt>
      <trkpt lat="44.7911" lon="3.94864">
        <ele>1166.22</ele>
        <time>2025-06-22T14:49:35Z</time>
      </trkpt>
      <trkpt lat="44.79109" lon="3.94864">
        <ele>1166.22</ele>
        <time>2025-06-22T14:49:36Z</time>
      </trkpt>
      <trkpt lat="44.79108" lon="3.94865">
        <ele>1166.7</ele>
        <time>2025-06-22T14:49:37Z</time>
      </trkpt>
      <trkpt lat="44.79088" lon="3.94878">
        <ele>1168.62</ele>
        <time>2025-06-22T14:49:54Z</time>
      </trkpt>
      <trkpt lat="44.79071" lon="3.94888">
        <ele>1170.06</ele>
        <time>2025-06-22T14:50:10Z</time>
      </trkpt>
      <trkpt lat="44.79056" lon="3.94905">
        <ele>1171.98</ele>
        <time>2025-06-22T14:50:25Z</time>
      </trkpt>
      <trkpt lat="44.79039" lon="3.94922">
        <ele>1172.47</ele>
        <time>2025-06-22T14:50:41Z</time>
      </trkpt>
      <trkpt lat="44.7902" lon="3.94943">
        <ele>1174.87</ele>
        <time>2025-06-22T14:50:59Z</time>
      </trkpt>
      <trkpt lat="44.79001" lon="3.94965">
        <ele>1176.79</ele>
        <time>2025-06-22T14:51:17Z</time>
      </trkpt>
      <trkpt lat="44.78982" lon="3.94985">
        <ele>1177.27</ele>
        <time>2025-06-22T14:51:31Z</time>
      </trkpt>
      <trkpt lat="44.78963" lon="3.95009">
        <ele>1178.71</ele>
        <time>2025-06-22T14:51:45Z</time>
      </trkpt>
      <trkpt lat="44.78946" lon="3.95032">
        <ele>1181.12</ele>
        <time>2025-06-22T14:52:04Z</time>
      </trkpt>
      <trkpt lat="44.78924" lon="3.95055">
        <ele>1182.56</ele>
        <time>2025-06-22T14:52:25Z</time>
      </trkpt>
      <trkpt lat="44.78907" lon="3.95074">
        <ele>1183.04</ele>
        <time>2025-06-22T14:52:42Z</time>
      </trkpt>
      <trkpt lat="44.7889" lon="3.95093">
        <ele>1183.52</ele>
        <time>2025-06-22T14:52:59Z</time>
      </trkpt>
      <trkpt lat="44.78873" lon="3.95109">
        <ele>1184</ele>
        <time>2025-06-22T14:53:15Z</time>
      </trkpt>
      <trkpt lat="44.7886" lon="3.95094">
        <ele>1183.52</ele>
        <time>2025-06-22T14:53:29Z</time>
      </trkpt>
      <trkpt lat="44.78847" lon="3.95066">
        <ele>1181.12</ele>
        <time>2025-06-22T14:53:48Z</time>
      </trkpt>
      <trkpt lat="44.78835" lon="3.95038">
        <ele>1179.19</ele>
        <time>2025-06-22T14:54:05Z</time>
      </trkpt>
      <trkpt lat="44.7882" lon="3.95011">
        <ele>1177.27</ele>
        <time>2025-06-22T14:54:23Z</time>
      </trkpt>
      <trkpt lat="44.78801" lon="3.94993">
        <ele>1177.27</ele>
        <time>2025-06-22T14:54:41Z</time>
      </trkpt>
      <trkpt lat="44.78782" lon="3.94993">
        <ele>1178.71</ele>
        <time>2025-06-22T14:54:56Z</time>
      </trkpt>
      <trkpt lat="44.78757" lon="3.94993">
        <ele>1178.23</ele>
        <time>2025-06-22T14:55:14Z</time>
      </trkpt>
      <trkpt lat="44.78735" lon="3.94994">
        <ele>1178.23</ele>
        <time>2025-06-22T14:55:31Z</time>
      </trkpt>
      <trkpt lat="44.78712" lon="3.94992">
        <ele>1177.75</ele>
        <time>2025-06-22T14:55:48Z</time>
      </trkpt>
      <trkpt lat="44.78689" lon="3.9499">
        <ele>1176.79</ele>
        <time>2025-06-22T14:56:05Z</time>
      </trkpt>
      <trkpt lat="44.78667" lon="3.94992">
        <ele>1175.83</ele>
        <time>2025-06-22T14:56:22Z</time>
      </trkpt>
      <trkpt lat="44.78647" lon="3.9499">
        <ele>1175.35</ele>
        <time>2025-06-22T14:56:38Z</time>
      </trkpt>
      <trkpt lat="44.78626" lon="3.94994">
        <ele>1174.87</ele>
        <time>2025-06-22T14:56:54Z</time>
      </trkpt>
      <trkpt lat="44.78602" lon="3.95001">
        <ele>1173.91</ele>
        <time>2025-06-22T14:57:12Z</time>
      </trkpt>
      <trkpt lat="44.78578" lon="3.95004">
        <ele>1172.95</ele>
        <time>2025-06-22T14:57:29Z</time>
      </trkpt>
      <trkpt lat="44.78556" lon="3.95012">
        <ele>1172.95</ele>
        <time>2025-06-22T14:57:46Z</time>
      </trkpt>
      <trkpt lat="44.78528" lon="3.95026">
        <ele>1172.95</ele>
        <time>2025-06-22T14:58:01Z</time>
      </trkpt>
      <trkpt lat="44.78505" lon="3.95039">
        <ele>1173.43</ele>
        <time>2025-06-22T14:58:20Z</time>
      </trkpt>
      <trkpt lat="44.78482" lon="3.95059">
        <ele>1173.43</ele>
        <time>2025-06-22T14:58:41Z</time>
      </trkpt>
      <trkpt lat="44.78464" lon="3.95084">
        <ele>1173.91</ele>
        <time>2025-06-22T14:58:59Z</time>
      </trkpt>
      <trkpt lat="44.78451" lon="3.95093">
        <ele>1175.35</ele>
        <time>2025-06-22T14:59:17Z</time>
      </trkpt>
      <trkpt lat="44.7844" lon="3.95098">
        <ele>1175.35</ele>
        <time>2025-06-22T14:59:34Z</time>
      </trkpt>
      <trkpt lat="44.78417" lon="3.95099">
        <ele>1173.91</ele>
        <time>2025-06-22T14:59:53Z</time>
      </trkpt>
      <trkpt lat="44.78411" lon="3.95097">
        <ele>1174.39</ele>
        <time>2025-06-22T15:00:10Z</time>
      </trkpt>
      <trkpt lat="44.78405" lon="3.95098">
        <ele>1175.35</ele>
        <time>2025-06-22T15:00:30Z</time>
      </trkpt>
      <trkpt lat="44.78404" lon="3.95098">
        <ele>1175.35</ele>
        <time>2025-06-22T15:00:31Z</time>
      </trkpt>
      <trkpt lat="44.78384" lon="3.951">
        <ele>1174.39</ele>
        <time>2025-06-22T15:00:49Z</time>
      </trkpt>
      <trkpt lat="44.78362" lon="3.95103">
        <ele>1174.39</ele>
        <time>2025-06-22T15:01:07Z</time>
      </trkpt>
      <trkpt lat="44.78341" lon="3.95108">
        <ele>1174.87</ele>
        <time>2025-06-22T15:01:24Z</time>
      </trkpt>
      <trkpt lat="44.78317" lon="3.95112">
        <ele>1175.35</ele>
        <time>2025-06-22T15:01:43Z</time>
      </trkpt>
      <trkpt lat="44.78298" lon="3.95102">
        <ele>1177.27</ele>
        <time>2025-06-22T15:01:59Z</time>
      </trkpt>
      <trkpt lat="44.78277" lon="3.95084">
        <ele>1177.75</ele>
        <time>2025-06-22T15:02:19Z</time>
      </trkpt>
      <trkpt lat="44.78259" lon="3.95068">
        <ele>1178.71</ele>
        <time>2025-06-22T15:02:36Z</time>
      </trkpt>
      <trkpt lat="44.78243" lon="3.95051">
        <ele>1178.71</ele>
        <time>2025-06-22T15:02:52Z</time>
      </trkpt>
      <trkpt lat="44.78228" lon="3.95036">
        <ele>1177.75</ele>
        <time>2025-06-22T15:03:11Z</time>
      </trkpt>
      <trkpt lat="44.78228" lon="3.95035">
        <ele>1178.23</ele>
        <time>2025-06-22T15:03:12Z</time>
      </trkpt>
      <trkpt lat="44.78227" lon="3.95033">
        <ele>1178.23</ele>
        <time>2025-06-22T15:03:13Z</time>
      </trkpt>
      <trkpt lat="44.78227" lon="3.95031">
        <ele>1177.75</ele>
        <time>2025-06-22T15:03:14Z</time>
      </trkpt>
      <trkpt lat="44.78227" lon="3.95029">
        <ele>1177.75</ele>
        <time>2025-06-22T15:03:15Z</time>
      </trkpt>
      <trkpt lat="44.78227" lon="3.95027">
        <ele>1177.75</ele>
        <time>2025-06-22T15:03:16Z</time>
      </trkpt>
      <trkpt lat="44.78226" lon="3.95025">
        <ele>1177.75</ele>
        <time>2025-06-22T15:03:17Z</time>
      </trkpt>
      <trkpt lat="44.78226" lon="3.95023">
        <ele>1177.75</ele>
        <time>2025-06-22T15:03:18Z</time>
      </trkpt>
      <trkpt lat="44.7822" lon="3.95">
        <ele>1176.79</ele>
        <time>2025-06-22T15:03:34Z</time>
      </trkpt>
      <trkpt lat="44.782" lon="3.94986">
        <ele>1181.6</ele>
        <time>2025-06-22T15:03:52Z</time>
      </trkpt>
      <trkpt lat="44.78198" lon="3.94982">
        <ele>1182.56</ele>
        <time>2025-06-22T15:03:55Z</time>
      </trkpt>
      <trkpt lat="44.78198" lon="3.9498">
        <ele>1182.56</ele>
        <time>2025-06-22T15:03:56Z</time>
      </trkpt>
      <trkpt lat="44.78197" lon="3.94968">
        <ele>1181.6</ele>
        <time>2025-06-22T15:04:12Z</time>
      </trkpt>
      <trkpt lat="44.78198" lon="3.94967">
        <ele>1180.64</ele>
        <time>2025-06-22T15:04:32Z</time>
      </trkpt>
      <trkpt lat="44.78199" lon="3.94968">
        <ele>1178.71</ele>
        <time>2025-06-22T15:04:48Z</time>
      </trkpt>
      <trkpt lat="44.78198" lon="3.94965">
        <ele>1178.23</ele>
        <time>2025-06-22T15:05:04Z</time>
      </trkpt>
      <trkpt lat="44.78198" lon="3.9497">
        <ele>1176.79</ele>
        <time>2025-06-22T15:05:23Z</time>
      </trkpt>
      <trkpt lat="44.78196" lon="3.94969">
        <ele>1176.31</ele>
        <time>2025-06-22T15:05:26Z</time>
      </trkpt>
      <trkpt lat="44.78188" lon="3.9496">
        <ele>1175.35</ele>
        <time>2025-06-22T15:05:40Z</time>
      </trkpt>
      <trkpt lat="44.78189" lon="3.94954">
        <ele>1175.35</ele>
        <time>2025-06-22T15:05:44Z</time>
      </trkpt>
      <trkpt lat="44.78189" lon="3.94952">
        <ele>1175.35</ele>
        <time>2025-06-22T15:05:45Z</time>
      </trkpt>
      <trkpt lat="44.78189" lon="3.94951">
        <ele>1175.35</ele>
        <time>2025-06-22T15:05:46Z</time>
      </trkpt>
      <trkpt lat="44.78192" lon="3.94944">
        <ele>1176.79</ele>
        <time>2025-06-22T15:05:52Z</time>
      </trkpt>
      <trkpt lat="44.78192" lon="3.94927">
        <ele>1177.75</ele>
        <time>2025-06-22T15:06:05Z</time>
      </trkpt>
      <trkpt lat="44.78181" lon="3.94901">
        <ele>1179.19</ele>
        <time>2025-06-22T15:06:22Z</time>
      </trkpt>
      <trkpt lat="44.78181" lon="3.94892">
        <ele>1179.19</ele>
        <time>2025-06-22T15:06:27Z</time>
      </trkpt>
      <trkpt lat="44.78182" lon="3.9489">
        <ele>1179.67</ele>
        <time>2025-06-22T15:06:28Z</time>
      </trkpt>
      <trkpt lat="44.78183" lon="3.94856">
        <ele>1179.67</ele>
        <time>2025-06-22T15:06:46Z</time>
      </trkpt>
      <trkpt lat="44.78181" lon="3.94831">
        <ele>1179.67</ele>
        <time>2025-06-22T15:07:02Z</time>
      </trkpt>
      <trkpt lat="44.78181" lon="3.94826">
        <ele>1180.64</ele>
        <time>2025-06-22T15:07:25Z</time>
      </trkpt>
      <trkpt lat="44.7818" lon="3.94803">
        <ele>1178.71</ele>
        <time>2025-06-22T15:07:39Z</time>
      </trkpt>
      <trkpt lat="44.78179" lon="3.94772">
        <ele>1175.35</ele>
        <time>2025-06-22T15:07:56Z</time>
      </trkpt>
      <trkpt lat="44.78174" lon="3.94745">
        <ele>1172.95</ele>
        <time>2025-06-22T15:08:11Z</time>
      </trkpt>
      <trkpt lat="44.78166" lon="3.94712">
        <ele>1171.02</ele>
        <time>2025-06-22T15:08:28Z</time>
      </trkpt>
      <trkpt lat="44.78158" lon="3.94682">
        <ele>1168.62</ele>
        <time>2025-06-22T15:08:44Z</time>
      </trkpt>
      <trkpt lat="44.78146" lon="3.94642">
        <ele>1165.74</ele>
        <time>2025-06-22T15:09:03Z</time>
      </trkpt>
      <trkpt lat="44.7813" lon="3.9463">
        <ele>1165.26</ele>
        <time>2025-06-22T15:09:16Z</time>
      </trkpt>
      <trkpt lat="44.78102" lon="3.94623">
        <ele>1163.33</ele>
        <time>2025-06-22T15:09:31Z</time>
      </trkpt>
      <trkpt lat="44.78078" lon="3.94619">
        <ele>1158.53</ele>
        <time>2025-06-22T15:09:49Z</time>
      </trkpt>
      <trkpt lat="44.78064" lon="3.94621">
        <ele>1156.6</ele>
        <time>2025-06-22T15:10:00Z</time>
      </trkpt>
      <trkpt lat="44.78063" lon="3.94619">
        <ele>1156.12</ele>
        <time>2025-06-22T15:10:01Z</time>
      </trkpt>
      <trkpt lat="44.78062" lon="3.94617">
        <ele>1155.64</ele>
        <time>2025-06-22T15:10:02Z</time>
      </trkpt>
      <trkpt lat="44.78062" lon="3.94615">
        <ele>1155.16</ele>
        <time>2025-06-22T15:10:03Z</time>
      </trkpt>
      <trkpt lat="44.78063" lon="3.94612">
        <ele>1155.16</ele>
        <time>2025-06-22T15:10:04Z</time>
      </trkpt>
      <trkpt lat="44.78077" lon="3.9459">
        <ele>1151.8</ele>
        <time>2025-06-22T15:10:19Z</time>
      </trkpt>
      <trkpt lat="44.78087" lon="3.94587">
        <ele>1149.87</ele>
        <time>2025-06-22T15:10:28Z</time>
      </trkpt>
      <trkpt lat="44.78105" lon="3.94581">
        <ele>1146.51</ele>
        <time>2025-06-22T15:10:43Z</time>
      </trkpt>
      <trkpt lat="44.78125" lon="3.94576">
        <ele>1142.18</ele>
        <time>2025-06-22T15:11:00Z</time>
      </trkpt>
      <trkpt lat="44.78146" lon="3.94568">
        <ele>1137.86</ele>
        <time>2025-06-22T15:11:15Z</time>
      </trkpt>
      <trkpt lat="44.78164" lon="3.94557">
        <ele>1134.01</ele>
        <time>2025-06-22T15:11:33Z</time>
      </trkpt>
      <trkpt lat="44.78181" lon="3.94536">
        <ele>1130.65</ele>
        <time>2025-06-22T15:11:51Z</time>
      </trkpt>
      <trkpt lat="44.78172" lon="3.94528">
        <ele>1127.76</ele>
        <time>2025-06-22T15:12:04Z</time>
      </trkpt>
      <trkpt lat="44.78168" lon="3.94525">
        <ele>1126.8</ele>
        <time>2025-06-22T15:12:06Z</time>
      </trkpt>
      <trkpt lat="44.78167" lon="3.94522">
        <ele>1126.32</ele>
        <time>2025-06-22T15:12:07Z</time>
      </trkpt>
      <trkpt lat="44.78166" lon="3.9452">
        <ele>1125.84</ele>
        <time>2025-06-22T15:12:08Z</time>
      </trkpt>
      <trkpt lat="44.78167" lon="3.94518">
        <ele>1125.36</ele>
        <time>2025-06-22T15:12:09Z</time>
      </trkpt>
      <trkpt lat="44.78168" lon="3.94516">
        <ele>1124.88</ele>
        <time>2025-06-22T15:12:10Z</time>
      </trkpt>
      <trkpt lat="44.78169" lon="3.94514">
        <ele>1124.4</ele>
        <time>2025-06-22T15:12:11Z</time>
      </trkpt>
      <trkpt lat="44.78171" lon="3.94512">
        <ele>1124.4</ele>
        <time>2025-06-22T15:12:12Z</time>
      </trkpt>
      <trkpt lat="44.7819" lon="3.945">
        <ele>1120.55</ele>
        <time>2025-06-22T15:12:26Z</time>
      </trkpt>
      <trkpt lat="44.78196" lon="3.94489">
        <ele>1117.67</ele>
        <time>2025-06-22T15:12:34Z</time>
      </trkpt>
      <trkpt lat="44.78195" lon="3.94487">
        <ele>1117.19</ele>
        <time>2025-06-22T15:12:35Z</time>
      </trkpt>
      <trkpt lat="44.78194" lon="3.94486">
        <ele>1116.71</ele>
        <time>2025-06-22T15:12:36Z</time>
      </trkpt>
      <trkpt lat="44.78192" lon="3.94486">
        <ele>1116.23</ele>
        <time>2025-06-22T15:12:37Z</time>
      </trkpt>
      <trkpt lat="44.78191" lon="3.94485">
        <ele>1115.75</ele>
        <time>2025-06-22T15:12:38Z</time>
      </trkpt>
      <trkpt lat="44.78189" lon="3.94485">
        <ele>1115.27</ele>
        <time>2025-06-22T15:12:39Z</time>
      </trkpt>
      <trkpt lat="44.78177" lon="3.94484">
        <ele>1115.75</ele>
        <time>2025-06-22T15:12:48Z</time>
      </trkpt>
      <trkpt lat="44.78171" lon="3.9447">
        <ele>1112.86</ele>
        <time>2025-06-22T15:13:05Z</time>
      </trkpt>
      <trkpt lat="44.78172" lon="3.94471">
        <ele>1112.86</ele>
        <time>2025-06-22T15:13:11Z</time>
      </trkpt>
      <trkpt lat="44.78172" lon="3.94468">
        <ele>1113.34</ele>
        <time>2025-06-22T15:13:13Z</time>
      </trkpt>
      <trkpt lat="44.78164" lon="3.94444">
        <ele>1115.27</ele>
        <time>2025-06-22T15:13:25Z</time>
      </trkpt>
      <trkpt lat="44.78176" lon="3.94402">
        <ele>1116.23</ele>
        <time>2025-06-22T15:13:45Z</time>
      </trkpt>
      <trkpt lat="44.78178" lon="3.944">
        <ele>1116.23</ele>
        <time>2025-06-22T15:13:46Z</time>
      </trkpt>
      <trkpt lat="44.78178" lon="3.94398">
        <ele>1116.23</ele>
        <time>2025-06-22T15:13:47Z</time>
      </trkpt>
      <trkpt lat="44.78179" lon="3.94366">
        <ele>1118.63</ele>
        <time>2025-06-22T15:14:03Z</time>
      </trkpt>
      <trkpt lat="44.78191" lon="3.94339">
        <ele>1122</ele>
        <time>2025-06-22T15:14:21Z</time>
      </trkpt>
      <trkpt lat="44.78203" lon="3.94314">
        <ele>1122.96</ele>
        <time>2025-06-22T15:14:38Z</time>
      </trkpt>
      <trkpt lat="44.78217" lon="3.94288">
        <ele>1125.84</ele>
        <time>2025-06-22T15:14:55Z</time>
      </trkpt>
      <trkpt lat="44.78226" lon="3.94266">
        <ele>1126.32</ele>
        <time>2025-06-22T15:15:13Z</time>
      </trkpt>
      <trkpt lat="44.78239" lon="3.94241">
        <ele>1128.73</ele>
        <time>2025-06-22T15:15:33Z</time>
      </trkpt>
      <trkpt lat="44.78254" lon="3.942">
        <ele>1127.28</ele>
        <time>2025-06-22T15:15:54Z</time>
      </trkpt>
      <trkpt lat="44.78269" lon="3.94158">
        <ele>1130.17</ele>
        <time>2025-06-22T15:16:14Z</time>
      </trkpt>
      <trkpt lat="44.78292" lon="3.94126">
        <ele>1125.84</ele>
        <time>2025-06-22T15:16:31Z</time>
      </trkpt>
      <trkpt lat="44.78307" lon="3.94109">
        <ele>1121.03</ele>
        <time>2025-06-22T15:16:47Z</time>
      </trkpt>
      <trkpt lat="44.78321" lon="3.94102">
        <ele>1113.82</ele>
        <time>2025-06-22T15:17:04Z</time>
      </trkpt>
      <trkpt lat="44.78332" lon="3.94096">
        <ele>1106.61</ele>
        <time>2025-06-22T15:17:19Z</time>
      </trkpt>
      <trkpt lat="44.78342" lon="3.94091">
        <ele>1102.77</ele>
        <time>2025-06-22T15:17:28Z</time>
      </trkpt>
      <trkpt lat="44.78351" lon="3.94085">
        <ele>1098.92</ele>
        <time>2025-06-22T15:17:36Z</time>
      </trkpt>
      <trkpt lat="44.78362" lon="3.94077">
        <ele>1092.2</ele>
        <time>2025-06-22T15:17:51Z</time>
      </trkpt>
      <trkpt lat="44.78365" lon="3.94073">
        <ele>1092.2</ele>
        <time>2025-06-22T15:18:12Z</time>
      </trkpt>
      <trkpt lat="44.78371" lon="3.94062">
        <ele>1098.92</ele>
        <time>2025-06-22T15:18:30Z</time>
      </trkpt>
      <trkpt lat="44.7838" lon="3.9405">
        <ele>1097.48</ele>
        <time>2025-06-22T15:18:46Z</time>
      </trkpt>
      <trkpt lat="44.78399" lon="3.94023">
        <ele>1102.77</ele>
        <time>2025-06-22T15:19:05Z</time>
      </trkpt>
      <trkpt lat="44.7842" lon="3.93997">
        <ele>1097.48</ele>
        <time>2025-06-22T15:19:27Z</time>
      </trkpt>
      <trkpt lat="44.78429" lon="3.93972">
        <ele>1093.64</ele>
        <time>2025-06-22T15:19:46Z</time>
      </trkpt>
      <trkpt lat="44.78449" lon="3.93947">
        <ele>1094.6</ele>
        <time>2025-06-22T15:20:09Z</time>
      </trkpt>
      <trkpt lat="44.7847" lon="3.93905">
        <ele>1092.2</ele>
        <time>2025-06-22T15:20:31Z</time>
      </trkpt>
      <trkpt lat="44.78474" lon="3.93897">
        <ele>1090.75</ele>
        <time>2025-06-22T15:20:48Z</time>
      </trkpt>
      <trkpt lat="44.78479" lon="3.93895">
        <ele>1090.27</ele>
        <time>2025-06-22T15:21:08Z</time>
      </trkpt>
      <trkpt lat="44.78483" lon="3.93879">
        <ele>1090.75</ele>
        <time>2025-06-22T15:21:23Z</time>
      </trkpt>
      <trkpt lat="44.78484" lon="3.93877">
        <ele>1090.75</ele>
        <time>2025-06-22T15:21:24Z</time>
      </trkpt>
      <trkpt lat="44.785" lon="3.93855">
        <ele>1087.39</ele>
        <time>2025-06-22T15:21:42Z</time>
      </trkpt>
      <trkpt lat="44.78513" lon="3.93835">
        <ele>1087.39</ele>
        <time>2025-06-22T15:21:56Z</time>
      </trkpt>
      <trkpt lat="44.78527" lon="3.93816">
        <ele>1088.35</ele>
        <time>2025-06-22T15:22:11Z</time>
      </trkpt>
      <trkpt lat="44.78544" lon="3.93796">
        <ele>1088.83</ele>
        <time>2025-06-22T15:22:27Z</time>
      </trkpt>
      <trkpt lat="44.78542" lon="3.93784">
        <ele>1089.31</ele>
        <time>2025-06-22T15:22:43Z</time>
      </trkpt>
      <trkpt lat="44.78534" lon="3.93773">
        <ele>1090.75</ele>
        <time>2025-06-22T15:23:01Z</time>
      </trkpt>
      <trkpt lat="44.78534" lon="3.93751">
        <ele>1091.71</ele>
        <time>2025-06-22T15:23:19Z</time>
      </trkpt>
      <trkpt lat="44.78558" lon="3.93724">
        <ele>1090.27</ele>
        <time>2025-06-22T15:23:42Z</time>
      </trkpt>
      <trkpt lat="44.78574" lon="3.93715">
        <ele>1090.75</ele>
        <time>2025-06-22T15:24:03Z</time>
      </trkpt>
      <trkpt lat="44.78594" lon="3.93693">
        <ele>1090.75</ele>
        <time>2025-06-22T15:24:23Z</time>
      </trkpt>
      <trkpt lat="44.78608" lon="3.93676">
        <ele>1092.68</ele>
        <time>2025-06-22T15:24:43Z</time>
      </trkpt>
      <trkpt lat="44.78625" lon="3.93657">
        <ele>1097.48</ele>
        <time>2025-06-22T15:25:04Z</time>
      </trkpt>
      <trkpt lat="44.7864" lon="3.93633">
        <ele>1097.96</ele>
        <time>2025-06-22T15:25:26Z</time>
      </trkpt>
      <trkpt lat="44.78653" lon="3.9362">
        <ele>1100.85</ele>
        <time>2025-06-22T15:25:45Z</time>
      </trkpt>
      <trkpt lat="44.78664" lon="3.93611">
        <ele>1101.33</ele>
        <time>2025-06-22T15:26:10Z</time>
      </trkpt>
      <trkpt lat="44.78678" lon="3.93592">
        <ele>1098.44</ele>
        <time>2025-06-22T15:26:28Z</time>
      </trkpt>
      <trkpt lat="44.78678" lon="3.93587">
        <ele>1098.92</ele>
        <time>2025-06-22T15:26:31Z</time>
      </trkpt>
      <trkpt lat="44.78678" lon="3.93585">
        <ele>1098.92</ele>
        <time>2025-06-22T15:26:32Z</time>
      </trkpt>
      <trkpt lat="44.78678" lon="3.93582">
        <ele>1098.92</ele>
        <time>2025-06-22T15:26:33Z</time>
      </trkpt>
      <trkpt lat="44.78678" lon="3.9358">
        <ele>1099.4</ele>
        <time>2025-06-22T15:26:34Z</time>
      </trkpt>
      <trkpt lat="44.78678" lon="3.93579">
        <ele>1099.4</ele>
        <time>2025-06-22T15:26:35Z</time>
      </trkpt>
      <trkpt lat="44.78678" lon="3.93577">
        <ele>1098.92</ele>
        <time>2025-06-22T15:26:36Z</time>
      </trkpt>
      <trkpt lat="44.78678" lon="3.93575">
        <ele>1099.4</ele>
        <time>2025-06-22T15:26:37Z</time>
      </trkpt>
      <trkpt lat="44.78676" lon="3.93554">
        <ele>1103.73</ele>
        <time>2025-06-22T15:26:53Z</time>
      </trkpt>
      <trkpt lat="44.78676" lon="3.93541">
        <ele>1105.17</ele>
        <time>2025-06-22T15:27:08Z</time>
      </trkpt>
      <trkpt lat="44.78675" lon="3.93541">
        <ele>1107.1</ele>
        <time>2025-06-22T15:27:30Z</time>
      </trkpt>
      <trkpt lat="44.78677" lon="3.93531">
        <ele>1106.13</ele>
        <time>2025-06-22T15:27:52Z</time>
      </trkpt>
      <trkpt lat="44.78676" lon="3.93514">
        <ele>1109.98</ele>
        <time>2025-06-22T15:28:07Z</time>
      </trkpt>
      <trkpt lat="44.78675" lon="3.93502">
        <ele>1111.42</ele>
        <time>2025-06-22T15:28:23Z</time>
      </trkpt>
      <trkpt lat="44.78676" lon="3.93499">
        <ele>1111.42</ele>
        <time>2025-06-22T15:28:40Z</time>
      </trkpt>
      <trkpt lat="44.78677" lon="3.93493">
        <ele>1110.94</ele>
        <time>2025-06-22T15:28:55Z</time>
      </trkpt>
      <trkpt lat="44.78678" lon="3.93479">
        <ele>1110.46</ele>
        <time>2025-06-22T15:29:03Z</time>
      </trkpt>
      <trkpt lat="44.78678" lon="3.93477">
        <ele>1110.94</ele>
        <time>2025-06-22T15:29:04Z</time>
      </trkpt>
      <trkpt lat="44.78688" lon="3.93453">
        <ele>1114.79</ele>
        <time>2025-06-22T15:29:19Z</time>
      </trkpt>
      <trkpt lat="44.78691" lon="3.93444">
        <ele>1114.79</ele>
        <time>2025-06-22T15:29:25Z</time>
      </trkpt>
      <trkpt lat="44.78691" lon="3.93418">
        <ele>1115.75</ele>
        <time>2025-06-22T15:29:40Z</time>
      </trkpt>
      <trkpt lat="44.78701" lon="3.93396">
        <ele>1115.75</ele>
        <time>2025-06-22T15:29:59Z</time>
      </trkpt>
      <trkpt lat="44.78723" lon="3.93382">
        <ele>1116.71</ele>
        <time>2025-06-22T15:30:17Z</time>
      </trkpt>
      <trkpt lat="44.78741" lon="3.93375">
        <ele>1117.67</ele>
        <time>2025-06-22T15:30:35Z</time>
      </trkpt>
      <trkpt lat="44.78762" lon="3.93371">
        <ele>1120.07</ele>
        <time>2025-06-22T15:30:52Z</time>
      </trkpt>
      <trkpt lat="44.78786" lon="3.93383">
        <ele>1122.96</ele>
        <time>2025-06-22T15:31:12Z</time>
      </trkpt>
      <trkpt lat="44.78811" lon="3.93378">
        <ele>1119.59</ele>
        <time>2025-06-22T15:31:32Z</time>
      </trkpt>
      <trkpt lat="44.78833" lon="3.93373">
        <ele>1119.59</ele>
        <time>2025-06-22T15:31:51Z</time>
      </trkpt>
      <trkpt lat="44.78847" lon="3.93366">
        <ele>1120.55</ele>
        <time>2025-06-22T15:32:08Z</time>
      </trkpt>
      <trkpt lat="44.78861" lon="3.93358">
        <ele>1122.48</ele>
        <time>2025-06-22T15:32:28Z</time>
      </trkpt>
      <trkpt lat="44.78885" lon="3.93341">
        <ele>1127.28</ele>
        <time>2025-06-22T15:32:51Z</time>
      </trkpt>
      <trkpt lat="44.78901" lon="3.93324">
        <ele>1132.09</ele>
        <time>2025-06-22T15:33:11Z</time>
      </trkpt>
      <trkpt lat="44.78926" lon="3.93332">
        <ele>1135.45</ele>
        <time>2025-06-22T15:33:30Z</time>
      </trkpt>
      <trkpt lat="44.78928" lon="3.93332">
        <ele>1135.45</ele>
        <time>2025-06-22T15:33:31Z</time>
      </trkpt>
      <trkpt lat="44.7894" lon="3.93337">
        <ele>1136.9</ele>
        <time>2025-06-22T15:33:48Z</time>
      </trkpt>
      <trkpt lat="44.7896" lon="3.93362">
        <ele>1134.97</ele>
        <time>2025-06-22T15:34:07Z</time>
      </trkpt>
      <trkpt lat="44.78975" lon="3.93367">
        <ele>1135.94</ele>
        <time>2025-06-22T15:34:25Z</time>
      </trkpt>
      <trkpt lat="44.78979" lon="3.93354">
        <ele>1136.42</ele>
        <time>2025-06-22T15:34:47Z</time>
      </trkpt>
      <trkpt lat="44.78974" lon="3.93336">
        <ele>1139.78</ele>
        <time>2025-06-22T15:35:00Z</time>
      </trkpt>
      <trkpt lat="44.78972" lon="3.93334">
        <ele>1139.78</ele>
        <time>2025-06-22T15:35:02Z</time>
      </trkpt>
      <trkpt lat="44.78965" lon="3.93326">
        <ele>1139.78</ele>
        <time>2025-06-22T15:35:09Z</time>
      </trkpt>
      <trkpt lat="44.78948" lon="3.93313">
        <ele>1139.78</ele>
        <time>2025-06-22T15:35:23Z</time>
      </trkpt>
      <trkpt lat="44.78932" lon="3.93291">
        <ele>1141.7</ele>
        <time>2025-06-22T15:35:43Z</time>
      </trkpt>
      <trkpt lat="44.7893" lon="3.93272">
        <ele>1143.14</ele>
        <time>2025-06-22T15:35:53Z</time>
      </trkpt>
      <trkpt lat="44.78924" lon="3.93238">
        <ele>1144.59</ele>
        <time>2025-06-22T15:36:12Z</time>
      </trkpt>
      <trkpt lat="44.78921" lon="3.9322">
        <ele>1145.55</ele>
        <time>2025-06-22T15:36:24Z</time>
      </trkpt>
      <trkpt lat="44.78936" lon="3.93201">
        <ele>1147.95</ele>
        <time>2025-06-22T15:36:41Z</time>
      </trkpt>
      <trkpt lat="44.78949" lon="3.93179">
        <ele>1149.39</ele>
        <time>2025-06-22T15:36:59Z</time>
      </trkpt>
      <trkpt lat="44.78965" lon="3.93157">
        <ele>1151.8</ele>
        <time>2025-06-22T15:37:17Z</time>
      </trkpt>
      <trkpt lat="44.78977" lon="3.93131">
        <ele>1153.24</ele>
        <time>2025-06-22T15:37:36Z</time>
      </trkpt>
      <trkpt lat="44.78991" lon="3.93109">
        <ele>1154.2</ele>
        <time>2025-06-22T15:37:54Z</time>
      </trkpt>
      <trkpt lat="44.79007" lon="3.93093">
        <ele>1156.12</ele>
        <time>2025-06-22T15:38:13Z</time>
      </trkpt>
      <trkpt lat="44.79027" lon="3.93068">
        <ele>1157.08</ele>
        <time>2025-06-22T15:38:32Z</time>
      </trkpt>
      <trkpt lat="44.79042" lon="3.93041">
        <ele>1159.97</ele>
        <time>2025-06-22T15:38:50Z</time>
      </trkpt>
      <trkpt lat="44.79051" lon="3.93015">
        <ele>1162.37</ele>
        <time>2025-06-22T15:39:08Z</time>
      </trkpt>
      <trkpt lat="44.79051" lon="3.93008">
        <ele>1163.33</ele>
        <time>2025-06-22T15:39:13Z</time>
      </trkpt>
      <trkpt lat="44.79054" lon="3.93002">
        <ele>1163.33</ele>
        <time>2025-06-22T15:39:17Z</time>
      </trkpt>
      <trkpt lat="44.79076" lon="3.92988">
        <ele>1161.89</ele>
        <time>2025-06-22T15:39:35Z</time>
      </trkpt>
      <trkpt lat="44.79098" lon="3.92975">
        <ele>1160.93</ele>
        <time>2025-06-22T15:39:54Z</time>
      </trkpt>
      <trkpt lat="44.79118" lon="3.9296">
        <ele>1159.97</ele>
        <time>2025-06-22T15:40:12Z</time>
      </trkpt>
      <trkpt lat="44.79139" lon="3.92941">
        <ele>1159.97</ele>
        <time>2025-06-22T15:40:31Z</time>
      </trkpt>
      <trkpt lat="44.79157" lon="3.92927">
        <ele>1159.97</ele>
        <time>2025-06-22T15:40:48Z</time>
      </trkpt>
      <trkpt lat="44.79161" lon="3.92922">
        <ele>1159.49</ele>
        <time>2025-06-22T15:40:53Z</time>
      </trkpt>
      <trkpt lat="44.7916" lon="3.9291">
        <ele>1160.93</ele>
        <time>2025-06-22T15:41:00Z</time>
      </trkpt>
      <trkpt lat="44.79157" lon="3.92899">
        <ele>1161.41</ele>
        <time>2025-06-22T15:41:06Z</time>
      </trkpt>
      <trkpt lat="44.79154" lon="3.92861">
        <ele>1163.33</ele>
        <time>2025-06-22T15:41:21Z</time>
      </trkpt>
      <trkpt lat="44.79138" lon="3.92821">
        <ele>1164.77</ele>
        <time>2025-06-22T15:41:34Z</time>
      </trkpt>
      <trkpt lat="44.79131" lon="3.92817">
        <ele>1165.26</ele>
        <time>2025-06-22T15:41:36Z</time>
      </trkpt>
      <trkpt lat="44.79097" lon="3.92756">
        <ele>1166.7</ele>
        <time>2025-06-22T15:41:47Z</time>
      </trkpt>
      <trkpt lat="44.7909" lon="3.9271">
        <ele>1170.06</ele>
        <time>2025-06-22T15:41:57Z</time>
      </trkpt>
      <trkpt lat="44.79092" lon="3.92701">
        <ele>1171.98</ele>
        <time>2025-06-22T15:42:03Z</time>
      </trkpt>
      <trkpt lat="44.79105" lon="3.92667">
        <ele>1175.83</ele>
        <time>2025-06-22T15:42:17Z</time>
      </trkpt>
      <trkpt lat="44.79111" lon="3.92635">
        <ele>1177.75</ele>
        <time>2025-06-22T15:42:36Z</time>
      </trkpt>
      <trkpt lat="44.79127" lon="3.92597">
        <ele>1176.79</ele>
        <time>2025-06-22T15:43:00Z</time>
      </trkpt>
      <trkpt lat="44.79137" lon="3.92574">
        <ele>1174.87</ele>
        <time>2025-06-22T15:43:17Z</time>
      </trkpt>
      <trkpt lat="44.79155" lon="3.92539">
        <ele>1171.5</ele>
        <time>2025-06-22T15:43:41Z</time>
      </trkpt>
      <trkpt lat="44.79167" lon="3.92512">
        <ele>1167.66</ele>
        <time>2025-06-22T15:44:01Z</time>
      </trkpt>
      <trkpt lat="44.79181" lon="3.92482">
        <ele>1164.77</ele>
        <time>2025-06-22T15:44:22Z</time>
      </trkpt>
      <trkpt lat="44.79194" lon="3.92454">
        <ele>1161.89</ele>
        <time>2025-06-22T15:44:44Z</time>
      </trkpt>
      <trkpt lat="44.79207" lon="3.92422">
        <ele>1159.49</ele>
        <time>2025-06-22T15:45:09Z</time>
      </trkpt>
      <trkpt lat="44.79215" lon="3.92392">
        <ele>1157.08</ele>
        <time>2025-06-22T15:45:30Z</time>
      </trkpt>
      <trkpt lat="44.79226" lon="3.92364">
        <ele>1155.16</ele>
        <time>2025-06-22T15:45:50Z</time>
      </trkpt>
      <trkpt lat="44.79236" lon="3.92335">
        <ele>1152.28</ele>
        <time>2025-06-22T15:46:10Z</time>
      </trkpt>
      <trkpt lat="44.79243" lon="3.92301">
        <ele>1151.32</ele>
        <time>2025-06-22T15:46:30Z</time>
      </trkpt>
      <trkpt lat="44.79252" lon="3.92268">
        <ele>1149.87</ele>
        <time>2025-06-22T15:46:51Z</time>
      </trkpt>
      <trkpt lat="44.7926" lon="3.92246">
        <ele>1147.95</ele>
        <time>2025-06-22T15:47:09Z</time>
      </trkpt>
      <trkpt lat="44.79271" lon="3.92225">
        <ele>1146.03</ele>
        <time>2025-06-22T15:47:25Z</time>
      </trkpt>
      <trkpt lat="44.79283" lon="3.9219">
        <ele>1144.59</ele>
        <time>2025-06-22T15:47:47Z</time>
      </trkpt>
      <trkpt lat="44.79284" lon="3.92183">
        <ele>1144.59</ele>
        <time>2025-06-22T15:48:04Z</time>
      </trkpt>
      <trkpt lat="44.79273" lon="3.92174">
        <ele>1144.59</ele>
        <time>2025-06-22T15:48:20Z</time>
      </trkpt>
      <trkpt lat="44.79267" lon="3.92172">
        <ele>1143.63</ele>
        <time>2025-06-22T15:48:26Z</time>
      </trkpt>
      <trkpt lat="44.79251" lon="3.92167">
        <ele>1142.18</ele>
        <time>2025-06-22T15:48:46Z</time>
      </trkpt>
      <trkpt lat="44.7926" lon="3.92172">
        <ele>1142.18</ele>
        <time>2025-06-22T15:49:08Z</time>
      </trkpt>
      <trkpt lat="44.79263" lon="3.92173">
        <ele>1142.66</ele>
        <time>2025-06-22T15:49:11Z</time>
      </trkpt>
      <trkpt lat="44.79288" lon="3.92173">
        <ele>1142.18</ele>
        <time>2025-06-22T15:49:32Z</time>
      </trkpt>
      <trkpt lat="44.79308" lon="3.92152">
        <ele>1143.14</ele>
        <time>2025-06-22T15:49:53Z</time>
      </trkpt>
      <trkpt lat="44.7933" lon="3.92142">
        <ele>1143.14</ele>
        <time>2025-06-22T15:50:13Z</time>
      </trkpt>
      <trkpt lat="44.79348" lon="3.92131">
        <ele>1138.82</ele>
        <time>2025-06-22T15:50:31Z</time>
      </trkpt>
      <trkpt lat="44.79357" lon="3.92119">
        <ele>1138.34</ele>
        <time>2025-06-22T15:50:41Z</time>
      </trkpt>
      <trkpt lat="44.7937" lon="3.92093">
        <ele>1140.74</ele>
        <time>2025-06-22T15:50:58Z</time>
      </trkpt>
      <trkpt lat="44.79371" lon="3.92087">
        <ele>1141.7</ele>
        <time>2025-06-22T15:51:02Z</time>
      </trkpt>
      <trkpt lat="44.79369" lon="3.92045">
        <ele>1145.07</ele>
        <time>2025-06-22T15:51:23Z</time>
      </trkpt>
      <trkpt lat="44.79372" lon="3.92016">
        <ele>1147.47</ele>
        <time>2025-06-22T15:51:39Z</time>
      </trkpt>
      <trkpt lat="44.79379" lon="3.91982">
        <ele>1153.24</ele>
        <time>2025-06-22T15:51:59Z</time>
      </trkpt>
      <trkpt lat="44.7939" lon="3.91951">
        <ele>1156.12</ele>
        <time>2025-06-22T15:52:20Z</time>
      </trkpt>
      <trkpt lat="44.79411" lon="3.91939">
        <ele>1158.05</ele>
        <time>2025-06-22T15:52:38Z</time>
      </trkpt>
      <trkpt lat="44.79415" lon="3.91915">
        <ele>1159.97</ele>
        <time>2025-06-22T15:52:55Z</time>
      </trkpt>
      <trkpt lat="44.79415" lon="3.9187">
        <ele>1160.45</ele>
        <time>2025-06-22T15:53:17Z</time>
      </trkpt>
      <trkpt lat="44.79414" lon="3.91842">
        <ele>1159.97</ele>
        <time>2025-06-22T15:53:33Z</time>
      </trkpt>
      <trkpt lat="44.79414" lon="3.91839">
        <ele>1160.45</ele>
        <time>2025-06-22T15:53:39Z</time>
      </trkpt>
      <trkpt lat="44.7941" lon="3.91814">
        <ele>1160.45</ele>
        <time>2025-06-22T15:53:52Z</time>
      </trkpt>
      <trkpt lat="44.79397" lon="3.9179">
        <ele>1161.41</ele>
        <time>2025-06-22T15:54:09Z</time>
      </trkpt>
      <trkpt lat="44.79384" lon="3.91763">
        <ele>1162.85</ele>
        <time>2025-06-22T15:54:29Z</time>
      </trkpt>
      <trkpt lat="44.79374" lon="3.91739">
        <ele>1165.74</ele>
        <time>2025-06-22T15:54:45Z</time>
      </trkpt>
      <trkpt lat="44.79364" lon="3.9171">
        <ele>1165.26</ele>
        <time>2025-06-22T15:55:04Z</time>
      </trkpt>
      <trkpt lat="44.79356" lon="3.91684">
        <ele>1166.22</ele>
        <time>2025-06-22T15:55:20Z</time>
      </trkpt>
      <trkpt lat="44.79351" lon="3.9166">
        <ele>1165.74</ele>
        <time>2025-06-22T15:55:33Z</time>
      </trkpt>
      <trkpt lat="44.79347" lon="3.91625">
        <ele>1166.7</ele>
        <time>2025-06-22T15:55:52Z</time>
      </trkpt>
      <trkpt lat="44.79337" lon="3.91594">
        <ele>1166.22</ele>
        <time>2025-06-22T15:56:12Z</time>
      </trkpt>
      <trkpt lat="44.79334" lon="3.9159">
        <ele>1166.22</ele>
        <time>2025-06-22T15:56:15Z</time>
      </trkpt>
      <trkpt lat="44.79333" lon="3.91589">
        <ele>1166.22</ele>
        <time>2025-06-22T15:56:16Z</time>
      </trkpt>
      <trkpt lat="44.79332" lon="3.91588">
        <ele>1166.22</ele>
        <time>2025-06-22T15:56:17Z</time>
      </trkpt>
      <trkpt lat="44.7933" lon="3.91586">
        <ele>1165.74</ele>
        <time>2025-06-22T15:56:18Z</time>
      </trkpt>
      <trkpt lat="44.79329" lon="3.91585">
        <ele>1165.74</ele>
        <time>2025-06-22T15:56:19Z</time>
      </trkpt>
      <trkpt lat="44.79315" lon="3.91577">
        <ele>1162.85</ele>
        <time>2025-06-22T15:56:35Z</time>
      </trkpt>
      <trkpt lat="44.79321" lon="3.9158">
        <ele>1163.33</ele>
        <time>2025-06-22T15:56:45Z</time>
      </trkpt>
      <trkpt lat="44.79341" lon="3.91602">
        <ele>1165.26</ele>
        <time>2025-06-22T15:57:02Z</time>
      </trkpt>
      <trkpt lat="44.79348" lon="3.91653">
        <ele>1166.7</ele>
        <time>2025-06-22T15:57:15Z</time>
      </trkpt>
      <trkpt lat="44.79362" lon="3.91704">
        <ele>1168.14</ele>
        <time>2025-06-22T15:57:30Z</time>
      </trkpt>
      <trkpt lat="44.79363" lon="3.91705">
        <ele>1168.14</ele>
        <time>2025-06-22T15:57:31Z</time>
      </trkpt>
      <trkpt lat="44.79364" lon="3.91706">
        <ele>1168.14</ele>
        <time>2025-06-22T15:57:32Z</time>
      </trkpt>
      <trkpt lat="44.79365" lon="3.91706">
        <ele>1168.62</ele>
        <time>2025-06-22T15:57:33Z</time>
      </trkpt>
      <trkpt lat="44.79389" lon="3.91723">
        <ele>1173.43</ele>
        <time>2025-06-22T15:57:46Z</time>
      </trkpt>
      <trkpt lat="44.79408" lon="3.91743">
        <ele>1176.31</ele>
        <time>2025-06-22T15:58:02Z</time>
      </trkpt>
      <trkpt lat="44.79429" lon="3.91759">
        <ele>1178.23</ele>
        <time>2025-06-22T15:58:15Z</time>
      </trkpt>
      <trkpt lat="44.79432" lon="3.91761">
        <ele>1178.23</ele>
        <time>2025-06-22T15:58:30Z</time>
      </trkpt>
      <trkpt lat="44.79431" lon="3.91765">
        <ele>1177.27</ele>
        <time>2025-06-22T15:58:44Z</time>
      </trkpt>
      <trkpt lat="44.79429" lon="3.91765">
        <ele>1176.31</ele>
        <time>2025-06-22T15:58:58Z</time>
      </trkpt>
      <trkpt lat="44.79436" lon="3.91763">
        <ele>1174.87</ele>
        <time>2025-06-22T15:59:07Z</time>
      </trkpt>
      <trkpt lat="44.79448" lon="3.91736">
        <ele>1174.87</ele>
        <time>2025-06-22T15:59:21Z</time>
      </trkpt>
      <trkpt lat="44.79462" lon="3.91714">
        <ele>1176.79</ele>
        <time>2025-06-22T15:59:38Z</time>
      </trkpt>
      <trkpt lat="44.79482" lon="3.91693">
        <ele>1181.12</ele>
        <time>2025-06-22T15:59:57Z</time>
      </trkpt>
      <trkpt lat="44.79504" lon="3.91674">
        <ele>1182.08</ele>
        <time>2025-06-22T16:00:16Z</time>
      </trkpt>
      <trkpt lat="44.79522" lon="3.91651">
        <ele>1183.52</ele>
        <time>2025-06-22T16:00:35Z</time>
      </trkpt>
      <trkpt lat="44.79539" lon="3.91632">
        <ele>1184.96</ele>
        <time>2025-06-22T16:00:49Z</time>
      </trkpt>
      <trkpt lat="44.79559" lon="3.91615">
        <ele>1186.88</ele>
        <time>2025-06-22T16:01:04Z</time>
      </trkpt>
      <trkpt lat="44.79579" lon="3.91595">
        <ele>1189.77</ele>
        <time>2025-06-22T16:01:22Z</time>
      </trkpt>
      <trkpt lat="44.79598" lon="3.91576">
        <ele>1190.73</ele>
        <time>2025-06-22T16:01:38Z</time>
      </trkpt>
      <trkpt lat="44.79615" lon="3.91555">
        <ele>1190.25</ele>
        <time>2025-06-22T16:01:54Z</time>
      </trkpt>
      <trkpt lat="44.79634" lon="3.91535">
        <ele>1189.29</ele>
        <time>2025-06-22T16:02:11Z</time>
      </trkpt>
      <trkpt lat="44.79653" lon="3.91512">
        <ele>1187.37</ele>
        <time>2025-06-22T16:02:29Z</time>
      </trkpt>
      <trkpt lat="44.79676" lon="3.91493">
        <ele>1187.85</ele>
        <time>2025-06-22T16:02:44Z</time>
      </trkpt>
      <trkpt lat="44.79705" lon="3.91473">
        <ele>1185.92</ele>
        <time>2025-06-22T16:03:05Z</time>
      </trkpt>
      <trkpt lat="44.79727" lon="3.91465">
        <ele>1185.44</ele>
        <time>2025-06-22T16:03:22Z</time>
      </trkpt>
      <trkpt lat="44.79752" lon="3.91452">
        <ele>1184</ele>
        <time>2025-06-22T16:03:40Z</time>
      </trkpt>
      <trkpt lat="44.79775" lon="3.91426">
        <ele>1184.96</ele>
        <time>2025-06-22T16:03:59Z</time>
      </trkpt>
      <trkpt lat="44.79784" lon="3.91413">
        <ele>1184.96</ele>
        <time>2025-06-22T16:04:09Z</time>
      </trkpt>
      <trkpt lat="44.79802" lon="3.91399">
        <ele>1185.44</ele>
        <time>2025-06-22T16:04:25Z</time>
      </trkpt>
      <trkpt lat="44.79829" lon="3.91386">
        <ele>1184.48</ele>
        <time>2025-06-22T16:04:43Z</time>
      </trkpt>
      <trkpt lat="44.79836" lon="3.91386">
        <ele>1184.48</ele>
        <time>2025-06-22T16:04:48Z</time>
      </trkpt>
      <trkpt lat="44.79837" lon="3.91385">
        <ele>1184.48</ele>
        <time>2025-06-22T16:04:49Z</time>
      </trkpt>
      <trkpt lat="44.79839" lon="3.91384">
        <ele>1184.48</ele>
        <time>2025-06-22T16:04:50Z</time>
      </trkpt>
      <trkpt lat="44.79865" lon="3.91374">
        <ele>1184.96</ele>
        <time>2025-06-22T16:05:10Z</time>
      </trkpt>
      <trkpt lat="44.79884" lon="3.91367">
        <ele>1185.44</ele>
        <time>2025-06-22T16:05:27Z</time>
      </trkpt>
      <trkpt lat="44.7989" lon="3.91367">
        <ele>1186.4</ele>
        <time>2025-06-22T16:05:32Z</time>
      </trkpt>
      <trkpt lat="44.79891" lon="3.91369">
        <ele>1186.88</ele>
        <time>2025-06-22T16:05:33Z</time>
      </trkpt>
      <trkpt lat="44.79893" lon="3.91371">
        <ele>1186.88</ele>
        <time>2025-06-22T16:05:35Z</time>
      </trkpt>
      <trkpt lat="44.79901" lon="3.91372">
        <ele>1187.85</ele>
        <time>2025-06-22T16:05:41Z</time>
      </trkpt>
      <trkpt lat="44.79902" lon="3.91372">
        <ele>1187.85</ele>
        <time>2025-06-22T16:05:42Z</time>
      </trkpt>
      <trkpt lat="44.7993" lon="3.91365">
        <ele>1189.77</ele>
        <time>2025-06-22T16:06:00Z</time>
      </trkpt>
      <trkpt lat="44.79956" lon="3.91361">
        <ele>1189.77</ele>
        <time>2025-06-22T16:06:16Z</time>
      </trkpt>
      <trkpt lat="44.7998" lon="3.91347">
        <ele>1189.77</ele>
        <time>2025-06-22T16:06:32Z</time>
      </trkpt>
      <trkpt lat="44.80002" lon="3.91336">
        <ele>1191.21</ele>
        <time>2025-06-22T16:06:49Z</time>
      </trkpt>
      <trkpt lat="44.80026" lon="3.91313">
        <ele>1191.21</ele>
        <time>2025-06-22T16:07:08Z</time>
      </trkpt>
      <trkpt lat="44.80041" lon="3.91308">
        <ele>1191.69</ele>
        <time>2025-06-22T16:07:18Z</time>
      </trkpt>
      <trkpt lat="44.80059" lon="3.91276">
        <ele>1192.65</ele>
        <time>2025-06-22T16:07:38Z</time>
      </trkpt>
      <trkpt lat="44.80073" lon="3.91246">
        <ele>1192.17</ele>
        <time>2025-06-22T16:07:56Z</time>
      </trkpt>
      <trkpt lat="44.80089" lon="3.91217">
        <ele>1191.21</ele>
        <time>2025-06-22T16:08:13Z</time>
      </trkpt>
      <trkpt lat="44.80111" lon="3.91178">
        <ele>1190.25</ele>
        <time>2025-06-22T16:08:30Z</time>
      </trkpt>
      <trkpt lat="44.80113" lon="3.91171">
        <ele>1191.69</ele>
        <time>2025-06-22T16:08:39Z</time>
      </trkpt>
      <trkpt lat="44.80112" lon="3.91173">
        <ele>1191.69</ele>
        <time>2025-06-22T16:08:45Z</time>
      </trkpt>
      <trkpt lat="44.80112" lon="3.91176">
        <ele>1191.69</ele>
        <time>2025-06-22T16:08:47Z</time>
      </trkpt>
      <trkpt lat="44.80108" lon="3.91182">
        <ele>1192.17</ele>
        <time>2025-06-22T16:08:54Z</time>
      </trkpt>
      <trkpt lat="44.80109" lon="3.91176">
        <ele>1192.65</ele>
        <time>2025-06-22T16:08:58Z</time>
      </trkpt>
      <trkpt lat="44.80126" lon="3.91146">
        <ele>1192.17</ele>
        <time>2025-06-22T16:09:18Z</time>
      </trkpt>
      <trkpt lat="44.80143" lon="3.9112">
        <ele>1190.73</ele>
        <time>2025-06-22T16:09:36Z</time>
      </trkpt>
      <trkpt lat="44.8016" lon="3.91088">
        <ele>1192.17</ele>
        <time>2025-06-22T16:09:56Z</time>
      </trkpt>
      <trkpt lat="44.80174" lon="3.91062">
        <ele>1191.69</ele>
        <time>2025-06-22T16:10:12Z</time>
      </trkpt>
      <trkpt lat="44.80192" lon="3.91035">
        <ele>1190.73</ele>
        <time>2025-06-22T16:10:31Z</time>
      </trkpt>
      <trkpt lat="44.80206" lon="3.91019">
        <ele>1192.65</ele>
        <time>2025-06-22T16:10:48Z</time>
      </trkpt>
      <trkpt lat="44.80205" lon="3.91022">
        <ele>1194.09</ele>
        <time>2025-06-22T16:11:13Z</time>
      </trkpt>
      <trkpt lat="44.80208" lon="3.91023">
        <ele>1193.61</ele>
        <time>2025-06-22T16:11:48Z</time>
      </trkpt>
      <trkpt lat="44.80209" lon="3.91021">
        <ele>1191.21</ele>
        <time>2025-06-22T16:12:17Z</time>
      </trkpt>
      <trkpt lat="44.80211" lon="3.9102">
        <ele>1188.33</ele>
        <time>2025-06-22T16:12:54Z</time>
      </trkpt>
      <trkpt lat="44.80213" lon="3.91012">
        <ele>1190.25</ele>
        <time>2025-06-22T16:13:09Z</time>
      </trkpt>
      <trkpt lat="44.80218" lon="3.91006">
        <ele>1191.69</ele>
        <time>2025-06-22T16:13:28Z</time>
      </trkpt>
      <trkpt lat="44.8022" lon="3.91003">
        <ele>1191.69</ele>
        <time>2025-06-22T16:13:30Z</time>
      </trkpt>
      <trkpt lat="44.80223" lon="3.91">
        <ele>1190.73</ele>
        <time>2025-06-22T16:13:42Z</time>
      </trkpt>
      <trkpt lat="44.80221" lon="3.91002">
        <ele>1190.73</ele>
        <time>2025-06-22T16:13:52Z</time>
      </trkpt>
      <trkpt lat="44.80212" lon="3.91024">
        <ele>1190.25</ele>
        <time>2025-06-22T16:14:09Z</time>
      </trkpt>
      <trkpt lat="44.80225" lon="3.9105">
        <ele>1193.13</ele>
        <time>2025-06-22T16:14:28Z</time>
      </trkpt>
      <trkpt lat="44.80239" lon="3.91061">
        <ele>1193.13</ele>
        <time>2025-06-22T16:14:42Z</time>
      </trkpt>
      <trkpt lat="44.80243" lon="3.91058">
        <ele>1194.09</ele>
        <time>2025-06-22T16:14:59Z</time>
      </trkpt>
      <trkpt lat="44.80245" lon="3.91059">
        <ele>1195.06</ele>
        <time>2025-06-22T16:15:22Z</time>
      </trkpt>
      <trkpt lat="44.80247" lon="3.9106">
        <ele>1194.09</ele>
        <time>2025-06-22T16:15:39Z</time>
      </trkpt>
      <trkpt lat="44.80249" lon="3.91062">
        <ele>1194.09</ele>
        <time>2025-06-22T16:15:58Z</time>
      </trkpt>
      <trkpt lat="44.80249" lon="3.91062">
        <ele>1193.61</ele>
        <time>2025-06-22T16:16:13Z</time>
      </trkpt>
      <trkpt lat="44.80249" lon="3.91059">
        <ele>1195.06</ele>
        <time>2025-06-22T16:16:30Z</time>
      </trkpt>
      <trkpt lat="44.80248" lon="3.9106">
        <ele>1194.58</ele>
        <time>2025-06-22T16:16:47Z</time>
      </trkpt>
      <trkpt lat="44.80246" lon="3.91053">
        <ele>1196.02</ele>
        <time>2025-06-22T16:17:11Z</time>
      </trkpt>
      <trkpt lat="44.80246" lon="3.91057">
        <ele>1195.06</ele>
        <time>2025-06-22T16:17:29Z</time>
      </trkpt>
      <trkpt lat="44.80248" lon="3.91059">
        <ele>1195.06</ele>
        <time>2025-06-22T16:17:45Z</time>
      </trkpt>
      <trkpt lat="44.80248" lon="3.91059">
        <ele>1194.09</ele>
        <time>2025-06-22T16:18:01Z</time>
      </trkpt>
      <trkpt lat="44.80246" lon="3.91059">
        <ele>1194.58</ele>
        <time>2025-06-22T16:18:20Z</time>
      </trkpt>
      <trkpt lat="44.80249" lon="3.9106">
        <ele>1194.09</ele>
        <time>2025-06-22T16:18:35Z</time>
      </trkpt>
      <trkpt lat="44.80248" lon="3.91059">
        <ele>1193.61</ele>
        <time>2025-06-22T16:18:57Z</time>
      </trkpt>
      <trkpt lat="44.80248" lon="3.91059">
        <ele>1194.58</ele>
        <time>2025-06-22T16:19:16Z</time>
      </trkpt>
      <trkpt lat="44.80246" lon="3.91057">
        <ele>1195.06</ele>
        <time>2025-06-22T16:19:32Z</time>
      </trkpt>
      <trkpt lat="44.80246" lon="3.9106">
        <ele>1193.61</ele>
        <time>2025-06-22T16:19:52Z</time>
      </trkpt>
      <trkpt lat="44.80245" lon="3.91063">
        <ele>1194.58</ele>
        <time>2025-06-22T16:20:08Z</time>
      </trkpt>
      <trkpt lat="44.80244" lon="3.91066">
        <ele>1195.06</ele>
        <time>2025-06-22T16:20:34Z</time>
      </trkpt>
      <trkpt lat="44.80247" lon="3.91058">
        <ele>1194.09</ele>
        <time>2025-06-22T16:20:46Z</time>
      </trkpt>
      <trkpt lat="44.80246" lon="3.91059">
        <ele>1195.54</ele>
        <time>2025-06-22T16:21:00Z</time>
      </trkpt>
      <trkpt lat="44.80245" lon="3.91064">
        <ele>1195.54</ele>
        <time>2025-06-22T16:21:15Z</time>
      </trkpt>
      <trkpt lat="44.80244" lon="3.91064">
        <ele>1195.54</ele>
        <time>2025-06-22T16:21:36Z</time>
      </trkpt>
      <trkpt lat="44.80248" lon="3.91058">
        <ele>1195.54</ele>
        <time>2025-06-22T16:21:49Z</time>
      </trkpt>
      <trkpt lat="44.80245" lon="3.91057">
        <ele>1196.5</ele>
        <time>2025-06-22T16:22:10Z</time>
      </trkpt>
      <trkpt lat="44.80247" lon="3.91062">
        <ele>1195.06</ele>
        <time>2025-06-22T16:22:24Z</time>
      </trkpt>
      <trkpt lat="44.80245" lon="3.91063">
        <ele>1194.58</ele>
        <time>2025-06-22T16:22:28Z</time>
      </trkpt>
      <trkpt lat="44.80242" lon="3.91078">
        <ele>1193.13</ele>
        <time>2025-06-22T16:22:43Z</time>
      </trkpt>
      <trkpt lat="44.80245" lon="3.9109">
        <ele>1194.09</ele>
        <time>2025-06-22T16:22:58Z</time>
      </trkpt>
      <trkpt lat="44.80246" lon="3.91094">
        <ele>1196.02</ele>
        <time>2025-06-22T16:23:11Z</time>
      </trkpt>
      <trkpt lat="44.80245" lon="3.91092">
        <ele>1196.02</ele>
        <time>2025-06-22T16:23:40Z</time>
      </trkpt>
      <trkpt lat="44.80244" lon="3.91092">
        <ele>1195.06</ele>
        <time>2025-06-22T16:24:00Z</time>
      </trkpt>
      <trkpt lat="44.80242" lon="3.91089">
        <ele>1195.54</ele>
        <time>2025-06-22T16:24:06Z</time>
      </trkpt>
      <trkpt lat="44.80237" lon="3.91075">
        <ele>1194.58</ele>
        <time>2025-06-22T16:24:19Z</time>
      </trkpt>
      <trkpt lat="44.80245" lon="3.91061">
        <ele>1193.13</ele>
        <time>2025-06-22T16:24:34Z</time>
      </trkpt>
      <trkpt lat="44.80246" lon="3.91058">
        <ele>1194.58</ele>
        <time>2025-06-22T16:24:48Z</time>
      </trkpt>
      <trkpt lat="44.8025" lon="3.91057">
        <ele>1196.02</ele>
        <time>2025-06-22T16:25:07Z</time>
      </trkpt>
      <trkpt lat="44.80248" lon="3.91057">
        <ele>1196.98</ele>
        <time>2025-06-22T16:25:29Z</time>
      </trkpt>
      <trkpt lat="44.80249" lon="3.91057">
        <ele>1197.46</ele>
        <time>2025-06-22T16:25:46Z</time>
        <extensions>
          <visugpx:TrkExtension xmlns:visugpx="https://www.visugpx.com/editgpx/">
            <visugpx:node>1</visugpx:node>
            </visugpx:TrkExtension>
        </extensions>
      </trkpt>
    </trkseg>
  </trk>
</gpx>